<?xml version="1.0" encoding="UTF-8" standalone="no" ?>
<gpx xmlns="http://www.topografix.com/GPX/1/1" xmlns:xsi="http://www.w3.org/2001/XMLSchema-instance" xsi:schemaLocation="http://www.topografix.com/GPX/1/1 http://www.topografix.com/GPX/1/1/gpx.xsd" version="1.1" creator="VisuGPX - https://www.visugpx.com">
  <metadata>
    <name>Saint-Pierre Tourtour 17km 500m</name>
    <desc><![CDATA[Randonnée sans difficulté au dessus de Tourtour. De belles ruines et un beau panorama au sommet des infirmières.
Départ Saint-Pierre de Tourtour.]]></desc>
  </metadata>
  <trk>
    <name><![CDATA[Saint-Pierre Tourtour 17km 500m 18-04-2021]]></name>
    <extensions>
      <line xmlns="http://www.topografix.com/GPX/gpx_style/0/2">
        <color>0000FF</color>
        <width>4</width>
      </line>
    </extensions>
    <trkseg>
      <trkpt lat="43.60235" lon="6.32808">
        <ele>701.5</ele>
        <time>2021-04-18T07:13:13Z</time>
      </trkpt>
      <trkpt lat="43.60257" lon="6.32787">
        <ele>702.3</ele>
        <time>2021-04-18T07:13:22Z</time>
      </trkpt>
      <trkpt lat="43.60281" lon="6.32776">
        <ele>702.2</ele>
        <time>2021-04-18T07:13:31Z</time>
      </trkpt>
      <trkpt lat="43.60301" lon="6.32775">
        <ele>702.9</ele>
        <time>2021-04-18T07:13:39Z</time>
      </trkpt>
      <trkpt lat="43.60321" lon="6.32785">
        <ele>704.9</ele>
        <time>2021-04-18T07:13:44Z</time>
      </trkpt>
      <trkpt lat="43.60334" lon="6.3279">
        <ele>705.9</ele>
        <time>2021-04-18T07:13:52Z</time>
      </trkpt>
      <trkpt lat="43.60347" lon="6.32789">
        <ele>706.1</ele>
        <time>2021-04-18T07:14:00Z</time>
      </trkpt>
      <trkpt lat="43.60363" lon="6.32789">
        <ele>706.5</ele>
        <time>2021-04-18T07:14:09Z</time>
      </trkpt>
      <trkpt lat="43.60374" lon="6.32791">
        <ele>706.9</ele>
        <time>2021-04-18T07:14:17Z</time>
      </trkpt>
      <trkpt lat="43.60385" lon="6.32786">
        <ele>707.1</ele>
        <time>2021-04-18T07:14:25Z</time>
      </trkpt>
      <trkpt lat="43.60395" lon="6.32781">
        <ele>707.1</ele>
        <time>2021-04-18T07:14:33Z</time>
      </trkpt>
      <trkpt lat="43.60405" lon="6.32777">
        <ele>707.2</ele>
        <time>2021-04-18T07:14:41Z</time>
      </trkpt>
      <trkpt lat="43.60414" lon="6.32777">
        <ele>707.1</ele>
        <time>2021-04-18T07:14:49Z</time>
      </trkpt>
      <trkpt lat="43.60423" lon="6.32783">
        <ele>707.7</ele>
        <time>2021-04-18T07:14:57Z</time>
      </trkpt>
      <trkpt lat="43.60432" lon="6.3279">
        <ele>708.5</ele>
        <time>2021-04-18T07:15:05Z</time>
      </trkpt>
      <trkpt lat="43.60443" lon="6.32796">
        <ele>709</ele>
        <time>2021-04-18T07:15:13Z</time>
      </trkpt>
      <trkpt lat="43.60453" lon="6.32793">
        <ele>709.5</ele>
        <time>2021-04-18T07:15:21Z</time>
      </trkpt>
      <trkpt lat="43.6046" lon="6.32783">
        <ele>709.4</ele>
        <time>2021-04-18T07:15:29Z</time>
      </trkpt>
      <trkpt lat="43.60467" lon="6.32772">
        <ele>709.1</ele>
        <time>2021-04-18T07:15:37Z</time>
      </trkpt>
      <trkpt lat="43.60471" lon="6.3276">
        <ele>709</ele>
        <time>2021-04-18T07:15:45Z</time>
      </trkpt>
      <trkpt lat="43.60477" lon="6.32749">
        <ele>709.3</ele>
        <time>2021-04-18T07:15:53Z</time>
      </trkpt>
      <trkpt lat="43.60483" lon="6.3274">
        <ele>710.1</ele>
        <time>2021-04-18T07:16:01Z</time>
      </trkpt>
      <trkpt lat="43.6049" lon="6.3273">
        <ele>710.4</ele>
        <time>2021-04-18T07:16:09Z</time>
      </trkpt>
      <trkpt lat="43.60496" lon="6.3272">
        <ele>710.4</ele>
        <time>2021-04-18T07:16:17Z</time>
      </trkpt>
      <trkpt lat="43.60502" lon="6.3271">
        <ele>710.9</ele>
        <time>2021-04-18T07:16:25Z</time>
      </trkpt>
      <trkpt lat="43.60508" lon="6.327">
        <ele>711.4</ele>
        <time>2021-04-18T07:16:33Z</time>
      </trkpt>
      <trkpt lat="43.60515" lon="6.32691">
        <ele>711.6</ele>
        <time>2021-04-18T07:16:41Z</time>
      </trkpt>
      <trkpt lat="43.6052" lon="6.32678">
        <ele>711.6</ele>
        <time>2021-04-18T07:16:49Z</time>
      </trkpt>
      <trkpt lat="43.60522" lon="6.32665">
        <ele>711.7</ele>
        <time>2021-04-18T07:16:57Z</time>
      </trkpt>
      <trkpt lat="43.60521" lon="6.32651">
        <ele>712</ele>
        <time>2021-04-18T07:17:05Z</time>
      </trkpt>
      <trkpt lat="43.60521" lon="6.32637">
        <ele>712.3</ele>
        <time>2021-04-18T07:17:13Z</time>
      </trkpt>
      <trkpt lat="43.60519" lon="6.32622">
        <ele>712.5</ele>
        <time>2021-04-18T07:17:21Z</time>
      </trkpt>
      <trkpt lat="43.6052" lon="6.3261">
        <ele>712.6</ele>
        <time>2021-04-18T07:17:29Z</time>
      </trkpt>
      <trkpt lat="43.60522" lon="6.32597">
        <ele>712.8</ele>
        <time>2021-04-18T07:17:37Z</time>
      </trkpt>
      <trkpt lat="43.60526" lon="6.32583">
        <ele>713.1</ele>
        <time>2021-04-18T07:17:45Z</time>
      </trkpt>
      <trkpt lat="43.60529" lon="6.32571">
        <ele>713</ele>
        <time>2021-04-18T07:17:53Z</time>
      </trkpt>
      <trkpt lat="43.60532" lon="6.32559">
        <ele>713.2</ele>
        <time>2021-04-18T07:18:01Z</time>
      </trkpt>
      <trkpt lat="43.60535" lon="6.32546">
        <ele>713.7</ele>
        <time>2021-04-18T07:18:09Z</time>
      </trkpt>
      <trkpt lat="43.60536" lon="6.32532">
        <ele>714.4</ele>
        <time>2021-04-18T07:18:17Z</time>
      </trkpt>
      <trkpt lat="43.60535" lon="6.32518">
        <ele>714.9</ele>
        <time>2021-04-18T07:18:25Z</time>
      </trkpt>
      <trkpt lat="43.60535" lon="6.32506">
        <ele>715.3</ele>
        <time>2021-04-18T07:18:33Z</time>
      </trkpt>
      <trkpt lat="43.60539" lon="6.32493">
        <ele>716</ele>
        <time>2021-04-18T07:18:42Z</time>
      </trkpt>
      <trkpt lat="43.60545" lon="6.32482">
        <ele>716.5</ele>
        <time>2021-04-18T07:18:51Z</time>
      </trkpt>
      <trkpt lat="43.60552" lon="6.32472">
        <ele>716.9</ele>
        <time>2021-04-18T07:19:00Z</time>
      </trkpt>
      <trkpt lat="43.60561" lon="6.32465">
        <ele>717.4</ele>
        <time>2021-04-18T07:19:09Z</time>
      </trkpt>
      <trkpt lat="43.60569" lon="6.32461">
        <ele>717.7</ele>
        <time>2021-04-18T07:19:17Z</time>
      </trkpt>
      <trkpt lat="43.60578" lon="6.32459">
        <ele>717.9</ele>
        <time>2021-04-18T07:19:25Z</time>
      </trkpt>
      <trkpt lat="43.60587" lon="6.3246">
        <ele>718.3</ele>
        <time>2021-04-18T07:19:34Z</time>
      </trkpt>
      <trkpt lat="43.60596" lon="6.3246">
        <ele>718.9</ele>
        <time>2021-04-18T07:19:42Z</time>
      </trkpt>
      <trkpt lat="43.60605" lon="6.32459">
        <ele>719.6</ele>
        <time>2021-04-18T07:19:51Z</time>
      </trkpt>
      <trkpt lat="43.60614" lon="6.32458">
        <ele>720.2</ele>
        <time>2021-04-18T07:20:00Z</time>
      </trkpt>
      <trkpt lat="43.60624" lon="6.32457">
        <ele>720.7</ele>
        <time>2021-04-18T07:20:09Z</time>
      </trkpt>
      <trkpt lat="43.60631" lon="6.32457">
        <ele>721.1</ele>
        <time>2021-04-18T07:20:17Z</time>
      </trkpt>
      <trkpt lat="43.60643" lon="6.32453">
        <ele>721.5</ele>
        <time>2021-04-18T07:20:27Z</time>
      </trkpt>
      <trkpt lat="43.60651" lon="6.32449">
        <ele>722</ele>
        <time>2021-04-18T07:20:36Z</time>
      </trkpt>
      <trkpt lat="43.60663" lon="6.32448">
        <ele>722.8</ele>
        <time>2021-04-18T07:20:46Z</time>
      </trkpt>
      <trkpt lat="43.60674" lon="6.32447">
        <ele>723.6</ele>
        <time>2021-04-18T07:20:58Z</time>
      </trkpt>
      <trkpt lat="43.60683" lon="6.32453">
        <ele>724.4</ele>
        <time>2021-04-18T07:21:08Z</time>
      </trkpt>
      <trkpt lat="43.60694" lon="6.32454">
        <ele>725.3</ele>
        <time>2021-04-18T07:21:17Z</time>
      </trkpt>
      <trkpt lat="43.60706" lon="6.32454">
        <ele>726.6</ele>
        <time>2021-04-18T07:21:25Z</time>
      </trkpt>
      <trkpt lat="43.60716" lon="6.32455">
        <ele>727.7</ele>
        <time>2021-04-18T07:21:34Z</time>
      </trkpt>
      <trkpt lat="43.60726" lon="6.32455">
        <ele>728.6</ele>
        <time>2021-04-18T07:21:44Z</time>
      </trkpt>
      <trkpt lat="43.60735" lon="6.32455">
        <ele>729.3</ele>
        <time>2021-04-18T07:21:53Z</time>
      </trkpt>
      <trkpt lat="43.60745" lon="6.32452">
        <ele>729.9</ele>
        <time>2021-04-18T07:22:04Z</time>
      </trkpt>
      <trkpt lat="43.60757" lon="6.3245">
        <ele>730.7</ele>
        <time>2021-04-18T07:22:15Z</time>
      </trkpt>
      <trkpt lat="43.6077" lon="6.32445">
        <ele>731.4</ele>
        <time>2021-04-18T07:22:24Z</time>
      </trkpt>
      <trkpt lat="43.60779" lon="6.3244">
        <ele>731.9</ele>
        <time>2021-04-18T07:22:32Z</time>
      </trkpt>
      <trkpt lat="43.60791" lon="6.32436">
        <ele>732.1</ele>
        <time>2021-04-18T07:22:41Z</time>
      </trkpt>
      <trkpt lat="43.60799" lon="6.32431">
        <ele>732.3</ele>
        <time>2021-04-18T07:22:49Z</time>
      </trkpt>
      <trkpt lat="43.60807" lon="6.32427">
        <ele>732.4</ele>
        <time>2021-04-18T07:22:57Z</time>
      </trkpt>
      <trkpt lat="43.60817" lon="6.32423">
        <ele>732.3</ele>
        <time>2021-04-18T07:23:05Z</time>
      </trkpt>
      <trkpt lat="43.60826" lon="6.32424">
        <ele>732.5</ele>
        <time>2021-04-18T07:23:14Z</time>
      </trkpt>
      <trkpt lat="43.60835" lon="6.32426">
        <ele>732.7</ele>
        <time>2021-04-18T07:23:22Z</time>
      </trkpt>
      <trkpt lat="43.60844" lon="6.32429">
        <ele>733.1</ele>
        <time>2021-04-18T07:23:30Z</time>
      </trkpt>
      <trkpt lat="43.60855" lon="6.32434">
        <ele>733.5</ele>
        <time>2021-04-18T07:23:39Z</time>
      </trkpt>
      <trkpt lat="43.60864" lon="6.32437">
        <ele>733.8</ele>
        <time>2021-04-18T07:23:47Z</time>
      </trkpt>
      <trkpt lat="43.60873" lon="6.32441">
        <ele>734</ele>
        <time>2021-04-18T07:23:55Z</time>
      </trkpt>
      <trkpt lat="43.60881" lon="6.32447">
        <ele>734.1</ele>
        <time>2021-04-18T07:24:03Z</time>
      </trkpt>
      <trkpt lat="43.60889" lon="6.32454">
        <ele>734.4</ele>
        <time>2021-04-18T07:24:11Z</time>
      </trkpt>
      <trkpt lat="43.60894" lon="6.32457">
        <ele>734.7</ele>
        <time>2021-04-18T07:24:44Z</time>
      </trkpt>
      <trkpt lat="43.60897" lon="6.3246">
        <ele>735</ele>
        <time>2021-04-18T07:25:45Z</time>
      </trkpt>
      <trkpt lat="43.60898" lon="6.32447">
        <ele>734.8</ele>
        <time>2021-04-18T07:25:54Z</time>
      </trkpt>
      <trkpt lat="43.60902" lon="6.32434">
        <ele>734.9</ele>
        <time>2021-04-18T07:26:03Z</time>
      </trkpt>
      <trkpt lat="43.60905" lon="6.32422">
        <ele>735</ele>
        <time>2021-04-18T07:26:11Z</time>
      </trkpt>
      <trkpt lat="43.6091" lon="6.3241">
        <ele>734.9</ele>
        <time>2021-04-18T07:26:19Z</time>
      </trkpt>
      <trkpt lat="43.60916" lon="6.32401">
        <ele>735</ele>
        <time>2021-04-18T07:26:27Z</time>
      </trkpt>
      <trkpt lat="43.60922" lon="6.32391">
        <ele>735.2</ele>
        <time>2021-04-18T07:26:35Z</time>
      </trkpt>
      <trkpt lat="43.60929" lon="6.32383">
        <ele>735.4</ele>
        <time>2021-04-18T07:26:45Z</time>
      </trkpt>
      <trkpt lat="43.60935" lon="6.32372">
        <ele>735.3</ele>
        <time>2021-04-18T07:26:54Z</time>
      </trkpt>
      <trkpt lat="43.60941" lon="6.32363">
        <ele>735.1</ele>
        <time>2021-04-18T07:27:02Z</time>
      </trkpt>
      <trkpt lat="43.60948" lon="6.32356">
        <ele>735</ele>
        <time>2021-04-18T07:27:11Z</time>
      </trkpt>
      <trkpt lat="43.60958" lon="6.32357">
        <ele>735.8</ele>
        <time>2021-04-18T07:27:20Z</time>
      </trkpt>
      <trkpt lat="43.60967" lon="6.32347">
        <ele>736.1</ele>
        <time>2021-04-18T07:27:30Z</time>
      </trkpt>
      <trkpt lat="43.60975" lon="6.32341">
        <ele>736.3</ele>
        <time>2021-04-18T07:27:38Z</time>
      </trkpt>
      <trkpt lat="43.60984" lon="6.32335">
        <ele>736.1</ele>
        <time>2021-04-18T07:27:46Z</time>
      </trkpt>
      <trkpt lat="43.60995" lon="6.32329">
        <ele>735.8</ele>
        <time>2021-04-18T07:27:54Z</time>
      </trkpt>
      <trkpt lat="43.61005" lon="6.32328">
        <ele>736.2</ele>
        <time>2021-04-18T07:28:02Z</time>
      </trkpt>
      <trkpt lat="43.61014" lon="6.32323">
        <ele>736.5</ele>
        <time>2021-04-18T07:28:10Z</time>
      </trkpt>
      <trkpt lat="43.61023" lon="6.32321">
        <ele>736.9</ele>
        <time>2021-04-18T07:28:18Z</time>
      </trkpt>
      <trkpt lat="43.61032" lon="6.32317">
        <ele>737.1</ele>
        <time>2021-04-18T07:28:26Z</time>
      </trkpt>
      <trkpt lat="43.61041" lon="6.32312">
        <ele>737.2</ele>
        <time>2021-04-18T07:28:34Z</time>
      </trkpt>
      <trkpt lat="43.61052" lon="6.32309">
        <ele>737.3</ele>
        <time>2021-04-18T07:28:42Z</time>
      </trkpt>
      <trkpt lat="43.61062" lon="6.32305">
        <ele>737.4</ele>
        <time>2021-04-18T07:28:50Z</time>
      </trkpt>
      <trkpt lat="43.61071" lon="6.323">
        <ele>737.7</ele>
        <time>2021-04-18T07:28:58Z</time>
      </trkpt>
      <trkpt lat="43.61081" lon="6.32299">
        <ele>738.4</ele>
        <time>2021-04-18T07:29:06Z</time>
      </trkpt>
      <trkpt lat="43.61102" lon="6.32297">
        <ele>738.9</ele>
        <time>2021-04-18T07:29:22Z</time>
      </trkpt>
      <trkpt lat="43.61112" lon="6.32298">
        <ele>739.1</ele>
        <time>2021-04-18T07:29:30Z</time>
      </trkpt>
      <trkpt lat="43.61121" lon="6.32297">
        <ele>739.2</ele>
        <time>2021-04-18T07:29:38Z</time>
      </trkpt>
      <trkpt lat="43.61131" lon="6.323">
        <ele>739.5</ele>
        <time>2021-04-18T07:29:46Z</time>
      </trkpt>
      <trkpt lat="43.61141" lon="6.32305">
        <ele>740</ele>
        <time>2021-04-18T07:29:55Z</time>
      </trkpt>
      <trkpt lat="43.6115" lon="6.32311">
        <ele>740.5</ele>
        <time>2021-04-18T07:30:03Z</time>
      </trkpt>
      <trkpt lat="43.61158" lon="6.32318">
        <ele>740.7</ele>
        <time>2021-04-18T07:30:11Z</time>
      </trkpt>
      <trkpt lat="43.61166" lon="6.32325">
        <ele>740.7</ele>
        <time>2021-04-18T07:30:19Z</time>
      </trkpt>
      <trkpt lat="43.61174" lon="6.32332">
        <ele>741.2</ele>
        <time>2021-04-18T07:30:27Z</time>
      </trkpt>
      <trkpt lat="43.61182" lon="6.32341">
        <ele>742.1</ele>
        <time>2021-04-18T07:30:35Z</time>
      </trkpt>
      <trkpt lat="43.61189" lon="6.32349">
        <ele>742.9</ele>
        <time>2021-04-18T07:30:43Z</time>
      </trkpt>
      <trkpt lat="43.61198" lon="6.32356">
        <ele>744</ele>
        <time>2021-04-18T07:30:52Z</time>
      </trkpt>
      <trkpt lat="43.61205" lon="6.32364">
        <ele>745.3</ele>
        <time>2021-04-18T07:31:01Z</time>
      </trkpt>
      <trkpt lat="43.61214" lon="6.32372">
        <ele>746.5</ele>
        <time>2021-04-18T07:31:10Z</time>
      </trkpt>
      <trkpt lat="43.61222" lon="6.3238">
        <ele>747</ele>
        <time>2021-04-18T07:31:18Z</time>
      </trkpt>
      <trkpt lat="43.6123" lon="6.32387">
        <ele>748.1</ele>
        <time>2021-04-18T07:31:26Z</time>
      </trkpt>
      <trkpt lat="43.61238" lon="6.32395">
        <ele>749.6</ele>
        <time>2021-04-18T07:31:35Z</time>
      </trkpt>
      <trkpt lat="43.61246" lon="6.32402">
        <ele>750.3</ele>
        <time>2021-04-18T07:31:43Z</time>
      </trkpt>
      <trkpt lat="43.61254" lon="6.32409">
        <ele>750.9</ele>
        <time>2021-04-18T07:31:51Z</time>
      </trkpt>
      <trkpt lat="43.61263" lon="6.32414">
        <ele>751.7</ele>
        <time>2021-04-18T07:32:00Z</time>
      </trkpt>
      <trkpt lat="43.61271" lon="6.32419">
        <ele>752.5</ele>
        <time>2021-04-18T07:32:08Z</time>
      </trkpt>
      <trkpt lat="43.61281" lon="6.32423">
        <ele>753.6</ele>
        <time>2021-04-18T07:32:17Z</time>
      </trkpt>
      <trkpt lat="43.6129" lon="6.32426">
        <ele>754</ele>
        <time>2021-04-18T07:32:26Z</time>
      </trkpt>
      <trkpt lat="43.613" lon="6.32429">
        <ele>754.3</ele>
        <time>2021-04-18T07:32:35Z</time>
      </trkpt>
      <trkpt lat="43.61307" lon="6.32438">
        <ele>754.7</ele>
        <time>2021-04-18T07:32:48Z</time>
      </trkpt>
      <trkpt lat="43.61311" lon="6.32441">
        <ele>754.5</ele>
        <time>2021-04-18T07:36:11Z</time>
      </trkpt>
      <trkpt lat="43.61317" lon="6.3245">
        <ele>754.7</ele>
        <time>2021-04-18T07:36:20Z</time>
      </trkpt>
      <trkpt lat="43.61324" lon="6.32443">
        <ele>753.6</ele>
        <time>2021-04-18T07:36:34Z</time>
      </trkpt>
      <trkpt lat="43.61333" lon="6.32438">
        <ele>752.8</ele>
        <time>2021-04-18T07:36:42Z</time>
      </trkpt>
      <trkpt lat="43.61342" lon="6.32443">
        <ele>752.9</ele>
        <time>2021-04-18T07:36:51Z</time>
      </trkpt>
      <trkpt lat="43.61351" lon="6.32446">
        <ele>753.1</ele>
        <time>2021-04-18T07:37:00Z</time>
      </trkpt>
      <trkpt lat="43.6136" lon="6.32444">
        <ele>752.9</ele>
        <time>2021-04-18T07:37:09Z</time>
      </trkpt>
      <trkpt lat="43.61369" lon="6.32442">
        <ele>753</ele>
        <time>2021-04-18T07:37:17Z</time>
      </trkpt>
      <trkpt lat="43.61378" lon="6.32439">
        <ele>753</ele>
        <time>2021-04-18T07:37:25Z</time>
      </trkpt>
      <trkpt lat="43.61387" lon="6.32434">
        <ele>752.8</ele>
        <time>2021-04-18T07:37:33Z</time>
      </trkpt>
      <trkpt lat="43.61397" lon="6.32431">
        <ele>752.5</ele>
        <time>2021-04-18T07:37:41Z</time>
      </trkpt>
      <trkpt lat="43.61405" lon="6.32426">
        <ele>752.2</ele>
        <time>2021-04-18T07:37:49Z</time>
      </trkpt>
      <trkpt lat="43.61414" lon="6.3242">
        <ele>752.1</ele>
        <time>2021-04-18T07:37:57Z</time>
      </trkpt>
      <trkpt lat="43.61424" lon="6.32415">
        <ele>751.6</ele>
        <time>2021-04-18T07:38:05Z</time>
      </trkpt>
      <trkpt lat="43.61434" lon="6.3241">
        <ele>751</ele>
        <time>2021-04-18T07:38:13Z</time>
      </trkpt>
      <trkpt lat="43.61443" lon="6.32406">
        <ele>750.7</ele>
        <time>2021-04-18T07:38:21Z</time>
      </trkpt>
      <trkpt lat="43.61452" lon="6.32402">
        <ele>750.2</ele>
        <time>2021-04-18T07:38:29Z</time>
      </trkpt>
      <trkpt lat="43.61462" lon="6.32398">
        <ele>749.7</ele>
        <time>2021-04-18T07:38:36Z</time>
      </trkpt>
      <trkpt lat="43.61471" lon="6.32394">
        <ele>749.2</ele>
        <time>2021-04-18T07:38:43Z</time>
      </trkpt>
      <trkpt lat="43.6148" lon="6.3239">
        <ele>749.1</ele>
        <time>2021-04-18T07:38:50Z</time>
      </trkpt>
      <trkpt lat="43.61488" lon="6.32386">
        <ele>748.9</ele>
        <time>2021-04-18T07:38:57Z</time>
      </trkpt>
      <trkpt lat="43.61497" lon="6.32383">
        <ele>748.8</ele>
        <time>2021-04-18T07:39:04Z</time>
      </trkpt>
      <trkpt lat="43.61507" lon="6.3238">
        <ele>748.8</ele>
        <time>2021-04-18T07:39:12Z</time>
      </trkpt>
      <trkpt lat="43.61516" lon="6.32375">
        <ele>748.8</ele>
        <time>2021-04-18T07:39:19Z</time>
      </trkpt>
      <trkpt lat="43.61524" lon="6.32372">
        <ele>748.8</ele>
        <time>2021-04-18T07:39:27Z</time>
      </trkpt>
      <trkpt lat="43.61535" lon="6.32367">
        <ele>748.7</ele>
        <time>2021-04-18T07:39:35Z</time>
      </trkpt>
      <trkpt lat="43.61544" lon="6.3236">
        <ele>748.6</ele>
        <time>2021-04-18T07:39:44Z</time>
      </trkpt>
      <trkpt lat="43.61552" lon="6.32352">
        <ele>748.9</ele>
        <time>2021-04-18T07:39:52Z</time>
      </trkpt>
      <trkpt lat="43.61561" lon="6.32347">
        <ele>749.1</ele>
        <time>2021-04-18T07:40:00Z</time>
      </trkpt>
      <trkpt lat="43.6157" lon="6.32341">
        <ele>749.1</ele>
        <time>2021-04-18T07:40:08Z</time>
      </trkpt>
      <trkpt lat="43.6158" lon="6.32336">
        <ele>749.1</ele>
        <time>2021-04-18T07:40:16Z</time>
      </trkpt>
      <trkpt lat="43.61588" lon="6.32331">
        <ele>748.8</ele>
        <time>2021-04-18T07:40:23Z</time>
      </trkpt>
      <trkpt lat="43.61598" lon="6.32328">
        <ele>748.6</ele>
        <time>2021-04-18T07:40:31Z</time>
      </trkpt>
      <trkpt lat="43.61608" lon="6.32324">
        <ele>748.3</ele>
        <time>2021-04-18T07:40:39Z</time>
      </trkpt>
      <trkpt lat="43.61618" lon="6.32321">
        <ele>747.9</ele>
        <time>2021-04-18T07:40:47Z</time>
      </trkpt>
      <trkpt lat="43.61626" lon="6.32314">
        <ele>747</ele>
        <time>2021-04-18T07:40:55Z</time>
      </trkpt>
      <trkpt lat="43.61635" lon="6.32307">
        <ele>746.3</ele>
        <time>2021-04-18T07:41:03Z</time>
      </trkpt>
      <trkpt lat="43.61644" lon="6.32304">
        <ele>745.7</ele>
        <time>2021-04-18T07:41:10Z</time>
      </trkpt>
      <trkpt lat="43.61654" lon="6.323">
        <ele>745.2</ele>
        <time>2021-04-18T07:41:19Z</time>
      </trkpt>
      <trkpt lat="43.61663" lon="6.32295">
        <ele>744.7</ele>
        <time>2021-04-18T07:41:26Z</time>
      </trkpt>
      <trkpt lat="43.61671" lon="6.32292">
        <ele>744.3</ele>
        <time>2021-04-18T07:41:34Z</time>
      </trkpt>
      <trkpt lat="43.61681" lon="6.32291">
        <ele>743.9</ele>
        <time>2021-04-18T07:41:42Z</time>
      </trkpt>
      <trkpt lat="43.61691" lon="6.32288">
        <ele>743.5</ele>
        <time>2021-04-18T07:41:52Z</time>
      </trkpt>
      <trkpt lat="43.61701" lon="6.32287">
        <ele>743.2</ele>
        <time>2021-04-18T07:42:01Z</time>
      </trkpt>
      <trkpt lat="43.61713" lon="6.32285">
        <ele>742.8</ele>
        <time>2021-04-18T07:42:11Z</time>
      </trkpt>
      <trkpt lat="43.61726" lon="6.32285">
        <ele>742.7</ele>
        <time>2021-04-18T07:42:21Z</time>
      </trkpt>
      <trkpt lat="43.61737" lon="6.32283">
        <ele>742.9</ele>
        <time>2021-04-18T07:42:30Z</time>
      </trkpt>
      <trkpt lat="43.61747" lon="6.32278">
        <ele>742.9</ele>
        <time>2021-04-18T07:42:38Z</time>
      </trkpt>
      <trkpt lat="43.61759" lon="6.32272">
        <ele>742.6</ele>
        <time>2021-04-18T07:42:47Z</time>
      </trkpt>
      <trkpt lat="43.61768" lon="6.32269">
        <ele>742.7</ele>
        <time>2021-04-18T07:42:55Z</time>
      </trkpt>
      <trkpt lat="43.61777" lon="6.32256">
        <ele>741.6</ele>
        <time>2021-04-18T07:43:03Z</time>
      </trkpt>
      <trkpt lat="43.61786" lon="6.32249">
        <ele>741.4</ele>
        <time>2021-04-18T07:43:12Z</time>
      </trkpt>
      <trkpt lat="43.61796" lon="6.32242">
        <ele>741.5</ele>
        <time>2021-04-18T07:43:20Z</time>
      </trkpt>
      <trkpt lat="43.61805" lon="6.32236">
        <ele>741.4</ele>
        <time>2021-04-18T07:43:28Z</time>
      </trkpt>
      <trkpt lat="43.61813" lon="6.32228">
        <ele>741.2</ele>
        <time>2021-04-18T07:43:36Z</time>
      </trkpt>
      <trkpt lat="43.6182" lon="6.32218">
        <ele>740.6</ele>
        <time>2021-04-18T07:43:45Z</time>
      </trkpt>
      <trkpt lat="43.6183" lon="6.32211">
        <ele>740.5</ele>
        <time>2021-04-18T07:43:53Z</time>
      </trkpt>
      <trkpt lat="43.61837" lon="6.32202">
        <ele>740</ele>
        <time>2021-04-18T07:44:02Z</time>
      </trkpt>
      <trkpt lat="43.61851" lon="6.32195">
        <ele>739.7</ele>
        <time>2021-04-18T07:44:12Z</time>
      </trkpt>
      <trkpt lat="43.61858" lon="6.32184">
        <ele>738.4</ele>
        <time>2021-04-18T07:44:21Z</time>
      </trkpt>
      <trkpt lat="43.61868" lon="6.32173">
        <ele>737.6</ele>
        <time>2021-04-18T07:44:30Z</time>
      </trkpt>
      <trkpt lat="43.61875" lon="6.32164">
        <ele>737.3</ele>
        <time>2021-04-18T07:44:39Z</time>
      </trkpt>
      <trkpt lat="43.61884" lon="6.32156">
        <ele>737.1</ele>
        <time>2021-04-18T07:44:48Z</time>
      </trkpt>
      <trkpt lat="43.61893" lon="6.32147">
        <ele>736.4</ele>
        <time>2021-04-18T07:44:57Z</time>
      </trkpt>
      <trkpt lat="43.619" lon="6.32139">
        <ele>735.8</ele>
        <time>2021-04-18T07:45:06Z</time>
      </trkpt>
      <trkpt lat="43.6191" lon="6.3213">
        <ele>735.7</ele>
        <time>2021-04-18T07:45:15Z</time>
      </trkpt>
      <trkpt lat="43.61921" lon="6.32123">
        <ele>735.8</ele>
        <time>2021-04-18T07:45:24Z</time>
      </trkpt>
      <trkpt lat="43.6193" lon="6.32109">
        <ele>735.2</ele>
        <time>2021-04-18T07:45:34Z</time>
      </trkpt>
      <trkpt lat="43.61938" lon="6.32101">
        <ele>735.3</ele>
        <time>2021-04-18T07:45:43Z</time>
      </trkpt>
      <trkpt lat="43.61948" lon="6.32091">
        <ele>735.1</ele>
        <time>2021-04-18T07:45:53Z</time>
      </trkpt>
      <trkpt lat="43.61956" lon="6.32083">
        <ele>734.8</ele>
        <time>2021-04-18T07:46:01Z</time>
      </trkpt>
      <trkpt lat="43.61965" lon="6.32078">
        <ele>735.1</ele>
        <time>2021-04-18T07:46:09Z</time>
      </trkpt>
      <trkpt lat="43.61974" lon="6.3207">
        <ele>735.1</ele>
        <time>2021-04-18T07:46:19Z</time>
      </trkpt>
      <trkpt lat="43.61983" lon="6.32062">
        <ele>735</ele>
        <time>2021-04-18T07:46:28Z</time>
      </trkpt>
      <trkpt lat="43.61993" lon="6.32055">
        <ele>734.7</ele>
        <time>2021-04-18T07:46:36Z</time>
      </trkpt>
      <trkpt lat="43.62001" lon="6.32043">
        <ele>734.2</ele>
        <time>2021-04-18T07:46:46Z</time>
      </trkpt>
      <trkpt lat="43.62011" lon="6.32031">
        <ele>734.1</ele>
        <time>2021-04-18T07:46:56Z</time>
      </trkpt>
      <trkpt lat="43.62019" lon="6.3202">
        <ele>733.7</ele>
        <time>2021-04-18T07:47:05Z</time>
      </trkpt>
      <trkpt lat="43.62028" lon="6.32004">
        <ele>732.4</ele>
        <time>2021-04-18T07:47:15Z</time>
      </trkpt>
      <trkpt lat="43.62035" lon="6.31987">
        <ele>731.9</ele>
        <time>2021-04-18T07:47:24Z</time>
      </trkpt>
      <trkpt lat="43.62038" lon="6.31973">
        <ele>731.2</ele>
        <time>2021-04-18T07:47:38Z</time>
      </trkpt>
      <trkpt lat="43.62043" lon="6.31958">
        <ele>730.9</ele>
        <time>2021-04-18T07:47:46Z</time>
      </trkpt>
      <trkpt lat="43.62051" lon="6.31941">
        <ele>730.4</ele>
        <time>2021-04-18T07:47:55Z</time>
      </trkpt>
      <trkpt lat="43.62058" lon="6.31928">
        <ele>730.1</ele>
        <time>2021-04-18T07:48:03Z</time>
      </trkpt>
      <trkpt lat="43.62063" lon="6.31915">
        <ele>729.7</ele>
        <time>2021-04-18T07:48:11Z</time>
      </trkpt>
      <trkpt lat="43.62067" lon="6.31902">
        <ele>729.2</ele>
        <time>2021-04-18T07:48:20Z</time>
      </trkpt>
      <trkpt lat="43.62071" lon="6.31887">
        <ele>728.6</ele>
        <time>2021-04-18T07:48:29Z</time>
      </trkpt>
      <trkpt lat="43.62073" lon="6.31877">
        <ele>728</ele>
        <time>2021-04-18T07:48:40Z</time>
      </trkpt>
      <trkpt lat="43.62082" lon="6.31877">
        <ele>729</ele>
        <time>2021-04-18T07:48:57Z</time>
      </trkpt>
      <trkpt lat="43.62083" lon="6.31881">
        <ele>729.4</ele>
        <time>2021-04-18T07:49:22Z</time>
      </trkpt>
      <trkpt lat="43.62086" lon="6.31884">
        <ele>730.4</ele>
        <time>2021-04-18T07:50:56Z</time>
      </trkpt>
      <trkpt lat="43.62087" lon="6.3188">
        <ele>730.5</ele>
        <time>2021-04-18T07:52:17Z</time>
      </trkpt>
      <trkpt lat="43.62095" lon="6.31876">
        <ele>732.1</ele>
        <time>2021-04-18T07:52:39Z</time>
      </trkpt>
      <trkpt lat="43.62093" lon="6.31874">
        <ele>731.5</ele>
        <time>2021-04-18T07:53:26Z</time>
      </trkpt>
      <trkpt lat="43.62084" lon="6.31876">
        <ele>729.1</ele>
        <time>2021-04-18T07:53:40Z</time>
      </trkpt>
      <trkpt lat="43.62076" lon="6.31873">
        <ele>728.1</ele>
        <time>2021-04-18T07:53:55Z</time>
      </trkpt>
      <trkpt lat="43.62066" lon="6.31873">
        <ele>727</ele>
        <time>2021-04-18T07:54:05Z</time>
      </trkpt>
      <trkpt lat="43.62059" lon="6.31863">
        <ele>725.6</ele>
        <time>2021-04-18T07:54:14Z</time>
      </trkpt>
      <trkpt lat="43.62053" lon="6.31853">
        <ele>724.6</ele>
        <time>2021-04-18T07:54:22Z</time>
      </trkpt>
      <trkpt lat="43.62047" lon="6.31843">
        <ele>724</ele>
        <time>2021-04-18T07:54:30Z</time>
      </trkpt>
      <trkpt lat="43.62045" lon="6.31831">
        <ele>723.6</ele>
        <time>2021-04-18T07:54:38Z</time>
      </trkpt>
      <trkpt lat="43.62046" lon="6.31819">
        <ele>723.3</ele>
        <time>2021-04-18T07:54:46Z</time>
      </trkpt>
      <trkpt lat="43.62046" lon="6.31804">
        <ele>723</ele>
        <time>2021-04-18T07:54:56Z</time>
      </trkpt>
      <trkpt lat="43.62045" lon="6.31793">
        <ele>722.7</ele>
        <time>2021-04-18T07:55:08Z</time>
      </trkpt>
      <trkpt lat="43.62042" lon="6.31778">
        <ele>722.5</ele>
        <time>2021-04-18T07:55:16Z</time>
      </trkpt>
      <trkpt lat="43.62039" lon="6.31765">
        <ele>722.6</ele>
        <time>2021-04-18T07:55:24Z</time>
      </trkpt>
      <trkpt lat="43.62034" lon="6.31752">
        <ele>722.8</ele>
        <time>2021-04-18T07:55:32Z</time>
      </trkpt>
      <trkpt lat="43.62028" lon="6.31742">
        <ele>723</ele>
        <time>2021-04-18T07:55:41Z</time>
      </trkpt>
      <trkpt lat="43.62021" lon="6.3173">
        <ele>723.4</ele>
        <time>2021-04-18T07:55:50Z</time>
      </trkpt>
      <trkpt lat="43.62011" lon="6.3172">
        <ele>724.3</ele>
        <time>2021-04-18T07:55:59Z</time>
      </trkpt>
      <trkpt lat="43.62009" lon="6.31705">
        <ele>725.6</ele>
        <time>2021-04-18T07:56:09Z</time>
      </trkpt>
      <trkpt lat="43.62009" lon="6.3169">
        <ele>726.7</ele>
        <time>2021-04-18T07:56:21Z</time>
      </trkpt>
      <trkpt lat="43.62017" lon="6.31679">
        <ele>727.1</ele>
        <time>2021-04-18T07:56:32Z</time>
      </trkpt>
      <trkpt lat="43.62024" lon="6.31669">
        <ele>727.2</ele>
        <time>2021-04-18T07:56:41Z</time>
      </trkpt>
      <trkpt lat="43.6203" lon="6.31663">
        <ele>727.1</ele>
        <time>2021-04-18T07:56:49Z</time>
      </trkpt>
      <trkpt lat="43.62038" lon="6.31656">
        <ele>727</ele>
        <time>2021-04-18T07:56:58Z</time>
      </trkpt>
      <trkpt lat="43.62043" lon="6.31647">
        <ele>727.3</ele>
        <time>2021-04-18T07:57:07Z</time>
      </trkpt>
      <trkpt lat="43.62052" lon="6.31637">
        <ele>727.4</ele>
        <time>2021-04-18T07:57:16Z</time>
      </trkpt>
      <trkpt lat="43.62061" lon="6.31631">
        <ele>727</ele>
        <time>2021-04-18T07:57:24Z</time>
      </trkpt>
      <trkpt lat="43.62068" lon="6.31622">
        <ele>726.9</ele>
        <time>2021-04-18T07:57:32Z</time>
      </trkpt>
      <trkpt lat="43.62076" lon="6.31614">
        <ele>726.6</ele>
        <time>2021-04-18T07:57:40Z</time>
      </trkpt>
      <trkpt lat="43.62085" lon="6.31602">
        <ele>726.5</ele>
        <time>2021-04-18T07:57:49Z</time>
      </trkpt>
      <trkpt lat="43.62093" lon="6.31593">
        <ele>726.6</ele>
        <time>2021-04-18T07:57:57Z</time>
      </trkpt>
      <trkpt lat="43.62102" lon="6.31585">
        <ele>726.5</ele>
        <time>2021-04-18T07:58:05Z</time>
      </trkpt>
      <trkpt lat="43.62111" lon="6.31578">
        <ele>726.2</ele>
        <time>2021-04-18T07:58:13Z</time>
      </trkpt>
      <trkpt lat="43.62121" lon="6.31568">
        <ele>725.4</ele>
        <time>2021-04-18T07:58:22Z</time>
      </trkpt>
      <trkpt lat="43.6213" lon="6.31556">
        <ele>725</ele>
        <time>2021-04-18T07:58:32Z</time>
      </trkpt>
      <trkpt lat="43.62139" lon="6.31542">
        <ele>724.5</ele>
        <time>2021-04-18T07:58:43Z</time>
      </trkpt>
      <trkpt lat="43.62147" lon="6.31533">
        <ele>724.2</ele>
        <time>2021-04-18T07:58:51Z</time>
      </trkpt>
      <trkpt lat="43.62157" lon="6.31525">
        <ele>723.9</ele>
        <time>2021-04-18T07:59:00Z</time>
      </trkpt>
      <trkpt lat="43.62165" lon="6.31517">
        <ele>723.9</ele>
        <time>2021-04-18T07:59:08Z</time>
      </trkpt>
      <trkpt lat="43.62175" lon="6.31508">
        <ele>723.9</ele>
        <time>2021-04-18T07:59:16Z</time>
      </trkpt>
      <trkpt lat="43.62184" lon="6.31499">
        <ele>723.8</ele>
        <time>2021-04-18T07:59:24Z</time>
      </trkpt>
      <trkpt lat="43.62193" lon="6.31491">
        <ele>723.4</ele>
        <time>2021-04-18T07:59:32Z</time>
      </trkpt>
      <trkpt lat="43.62202" lon="6.31481">
        <ele>723.4</ele>
        <time>2021-04-18T07:59:41Z</time>
      </trkpt>
      <trkpt lat="43.6221" lon="6.3147">
        <ele>723.5</ele>
        <time>2021-04-18T08:00:10Z</time>
      </trkpt>
      <trkpt lat="43.62218" lon="6.31463">
        <ele>723.5</ele>
        <time>2021-04-18T08:00:20Z</time>
      </trkpt>
      <trkpt lat="43.62225" lon="6.31455">
        <ele>723.4</ele>
        <time>2021-04-18T08:00:31Z</time>
      </trkpt>
      <trkpt lat="43.62233" lon="6.31448">
        <ele>723.4</ele>
        <time>2021-04-18T08:00:42Z</time>
      </trkpt>
      <trkpt lat="43.62243" lon="6.31444">
        <ele>723.3</ele>
        <time>2021-04-18T08:00:52Z</time>
      </trkpt>
      <trkpt lat="43.62252" lon="6.3144">
        <ele>723.4</ele>
        <time>2021-04-18T08:01:01Z</time>
      </trkpt>
      <trkpt lat="43.62259" lon="6.31428">
        <ele>724.3</ele>
        <time>2021-04-18T08:01:09Z</time>
      </trkpt>
      <trkpt lat="43.62267" lon="6.31419">
        <ele>724.6</ele>
        <time>2021-04-18T08:01:17Z</time>
      </trkpt>
      <trkpt lat="43.62276" lon="6.31411">
        <ele>724.6</ele>
        <time>2021-04-18T08:01:25Z</time>
      </trkpt>
      <trkpt lat="43.62283" lon="6.31403">
        <ele>724.5</ele>
        <time>2021-04-18T08:01:33Z</time>
      </trkpt>
      <trkpt lat="43.62292" lon="6.31395">
        <ele>724.2</ele>
        <time>2021-04-18T08:01:42Z</time>
      </trkpt>
      <trkpt lat="43.623" lon="6.31387">
        <ele>723.6</ele>
        <time>2021-04-18T08:01:51Z</time>
      </trkpt>
      <trkpt lat="43.6231" lon="6.31373">
        <ele>723.1</ele>
        <time>2021-04-18T08:02:01Z</time>
      </trkpt>
      <trkpt lat="43.62319" lon="6.31358">
        <ele>722.6</ele>
        <time>2021-04-18T08:02:13Z</time>
      </trkpt>
      <trkpt lat="43.6233" lon="6.31342">
        <ele>721.5</ele>
        <time>2021-04-18T08:02:26Z</time>
      </trkpt>
      <trkpt lat="43.62341" lon="6.31326">
        <ele>720.5</ele>
        <time>2021-04-18T08:02:37Z</time>
      </trkpt>
      <trkpt lat="43.62347" lon="6.31308">
        <ele>720.5</ele>
        <time>2021-04-18T08:02:46Z</time>
      </trkpt>
      <trkpt lat="43.62349" lon="6.31293">
        <ele>720.5</ele>
        <time>2021-04-18T08:02:56Z</time>
      </trkpt>
      <trkpt lat="43.62354" lon="6.31281">
        <ele>720.4</ele>
        <time>2021-04-18T08:03:05Z</time>
      </trkpt>
      <trkpt lat="43.6236" lon="6.31273">
        <ele>720.3</ele>
        <time>2021-04-18T08:03:14Z</time>
      </trkpt>
      <trkpt lat="43.62366" lon="6.31264">
        <ele>720.5</ele>
        <time>2021-04-18T08:03:26Z</time>
      </trkpt>
      <trkpt lat="43.6238" lon="6.31251">
        <ele>721</ele>
        <time>2021-04-18T08:03:37Z</time>
      </trkpt>
      <trkpt lat="43.62387" lon="6.31244">
        <ele>721.2</ele>
        <time>2021-04-18T08:03:44Z</time>
      </trkpt>
      <trkpt lat="43.62395" lon="6.31237">
        <ele>721.2</ele>
        <time>2021-04-18T08:03:52Z</time>
      </trkpt>
      <trkpt lat="43.62404" lon="6.31224">
        <ele>721.4</ele>
        <time>2021-04-18T08:04:00Z</time>
      </trkpt>
      <trkpt lat="43.6241" lon="6.31211">
        <ele>721.6</ele>
        <time>2021-04-18T08:04:08Z</time>
      </trkpt>
      <trkpt lat="43.62417" lon="6.31195">
        <ele>722</ele>
        <time>2021-04-18T08:04:16Z</time>
      </trkpt>
      <trkpt lat="43.62422" lon="6.31181">
        <ele>722.3</ele>
        <time>2021-04-18T08:04:24Z</time>
      </trkpt>
      <trkpt lat="43.62427" lon="6.31169">
        <ele>722.6</ele>
        <time>2021-04-18T08:04:32Z</time>
      </trkpt>
      <trkpt lat="43.62434" lon="6.31158">
        <ele>722.5</ele>
        <time>2021-04-18T08:04:40Z</time>
      </trkpt>
      <trkpt lat="43.62435" lon="6.31145">
        <ele>722.6</ele>
        <time>2021-04-18T08:04:48Z</time>
      </trkpt>
      <trkpt lat="43.62431" lon="6.3113">
        <ele>723.3</ele>
        <time>2021-04-18T08:04:57Z</time>
      </trkpt>
      <trkpt lat="43.62426" lon="6.31119">
        <ele>723.8</ele>
        <time>2021-04-18T08:05:05Z</time>
      </trkpt>
      <trkpt lat="43.6242" lon="6.31109">
        <ele>724.2</ele>
        <time>2021-04-18T08:05:14Z</time>
      </trkpt>
      <trkpt lat="43.62414" lon="6.31099">
        <ele>725.1</ele>
        <time>2021-04-18T08:05:24Z</time>
      </trkpt>
      <trkpt lat="43.62409" lon="6.3109">
        <ele>725.9</ele>
        <time>2021-04-18T08:05:46Z</time>
      </trkpt>
      <trkpt lat="43.62405" lon="6.3108">
        <ele>726.6</ele>
        <time>2021-04-18T08:06:11Z</time>
      </trkpt>
      <trkpt lat="43.62402" lon="6.31067">
        <ele>727.4</ele>
        <time>2021-04-18T08:06:22Z</time>
      </trkpt>
      <trkpt lat="43.62399" lon="6.31058">
        <ele>727.9</ele>
        <time>2021-04-18T08:06:47Z</time>
      </trkpt>
      <trkpt lat="43.62402" lon="6.31049">
        <ele>728.4</ele>
        <time>2021-04-18T08:06:58Z</time>
      </trkpt>
      <trkpt lat="43.62404" lon="6.31039">
        <ele>728.8</ele>
        <time>2021-04-18T08:07:12Z</time>
      </trkpt>
      <trkpt lat="43.62404" lon="6.31027">
        <ele>729.5</ele>
        <time>2021-04-18T08:07:34Z</time>
      </trkpt>
      <trkpt lat="43.62404" lon="6.31019">
        <ele>730.1</ele>
        <time>2021-04-18T08:07:49Z</time>
      </trkpt>
      <trkpt lat="43.62403" lon="6.31018">
        <ele>730.2</ele>
        <time>2021-04-18T08:08:44Z</time>
      </trkpt>
      <trkpt lat="43.62401" lon="6.31006">
        <ele>731.1</ele>
        <time>2021-04-18T08:11:05Z</time>
      </trkpt>
      <trkpt lat="43.62396" lon="6.30997">
        <ele>731.8</ele>
        <time>2021-04-18T08:11:17Z</time>
      </trkpt>
      <trkpt lat="43.62391" lon="6.30985">
        <ele>732.4</ele>
        <time>2021-04-18T08:11:28Z</time>
      </trkpt>
      <trkpt lat="43.62385" lon="6.30974">
        <ele>733.1</ele>
        <time>2021-04-18T08:11:39Z</time>
      </trkpt>
      <trkpt lat="43.62378" lon="6.30966">
        <ele>733.6</ele>
        <time>2021-04-18T08:11:50Z</time>
      </trkpt>
      <trkpt lat="43.62368" lon="6.30957">
        <ele>734.3</ele>
        <time>2021-04-18T08:12:02Z</time>
      </trkpt>
      <trkpt lat="43.62362" lon="6.30947">
        <ele>734.9</ele>
        <time>2021-04-18T08:12:12Z</time>
      </trkpt>
      <trkpt lat="43.6235" lon="6.30945">
        <ele>735.4</ele>
        <time>2021-04-18T08:12:24Z</time>
      </trkpt>
      <trkpt lat="43.62338" lon="6.30945">
        <ele>735.8</ele>
        <time>2021-04-18T08:12:33Z</time>
      </trkpt>
      <trkpt lat="43.62328" lon="6.30947">
        <ele>736.9</ele>
        <time>2021-04-18T08:12:43Z</time>
      </trkpt>
      <trkpt lat="43.62319" lon="6.30945">
        <ele>738.6</ele>
        <time>2021-04-18T08:12:57Z</time>
      </trkpt>
      <trkpt lat="43.62311" lon="6.30936">
        <ele>740.1</ele>
        <time>2021-04-18T08:13:10Z</time>
      </trkpt>
      <trkpt lat="43.62304" lon="6.30928">
        <ele>741.4</ele>
        <time>2021-04-18T08:13:23Z</time>
      </trkpt>
      <trkpt lat="43.62295" lon="6.30922">
        <ele>743.4</ele>
        <time>2021-04-18T08:13:37Z</time>
      </trkpt>
      <trkpt lat="43.62285" lon="6.30913">
        <ele>746.3</ele>
        <time>2021-04-18T08:13:53Z</time>
      </trkpt>
      <trkpt lat="43.62281" lon="6.30905">
        <ele>747.5</ele>
        <time>2021-04-18T08:14:10Z</time>
      </trkpt>
      <trkpt lat="43.6227" lon="6.30895">
        <ele>751.2</ele>
        <time>2021-04-18T08:14:25Z</time>
      </trkpt>
      <trkpt lat="43.62263" lon="6.30885">
        <ele>753.5</ele>
        <time>2021-04-18T08:14:38Z</time>
      </trkpt>
      <trkpt lat="43.62256" lon="6.30877">
        <ele>755.3</ele>
        <time>2021-04-18T08:14:52Z</time>
      </trkpt>
      <trkpt lat="43.62244" lon="6.30874">
        <ele>759.1</ele>
        <time>2021-04-18T08:15:05Z</time>
      </trkpt>
      <trkpt lat="43.62234" lon="6.30868">
        <ele>761.9</ele>
        <time>2021-04-18T08:15:21Z</time>
      </trkpt>
      <trkpt lat="43.62225" lon="6.30866">
        <ele>764.9</ele>
        <time>2021-04-18T08:15:38Z</time>
      </trkpt>
      <trkpt lat="43.62215" lon="6.30862">
        <ele>768.1</ele>
        <time>2021-04-18T08:15:53Z</time>
      </trkpt>
      <trkpt lat="43.62206" lon="6.30857">
        <ele>770.6</ele>
        <time>2021-04-18T08:16:11Z</time>
      </trkpt>
      <trkpt lat="43.62198" lon="6.30853">
        <ele>772.9</ele>
        <time>2021-04-18T08:16:26Z</time>
      </trkpt>
      <trkpt lat="43.6219" lon="6.3085">
        <ele>775.3</ele>
        <time>2021-04-18T08:16:43Z</time>
      </trkpt>
      <trkpt lat="43.6218" lon="6.30845">
        <ele>778.1</ele>
        <time>2021-04-18T08:17:03Z</time>
      </trkpt>
      <trkpt lat="43.62173" lon="6.30837">
        <ele>780</ele>
        <time>2021-04-18T08:17:21Z</time>
      </trkpt>
      <trkpt lat="43.62167" lon="6.30829">
        <ele>781.8</ele>
        <time>2021-04-18T08:17:35Z</time>
      </trkpt>
      <trkpt lat="43.62157" lon="6.30822">
        <ele>784.1</ele>
        <time>2021-04-18T08:17:54Z</time>
      </trkpt>
      <trkpt lat="43.62145" lon="6.30818">
        <ele>787</ele>
        <time>2021-04-18T08:18:10Z</time>
      </trkpt>
      <trkpt lat="43.62134" lon="6.30822">
        <ele>789.4</ele>
        <time>2021-04-18T08:18:24Z</time>
      </trkpt>
      <trkpt lat="43.62123" lon="6.30823">
        <ele>791.3</ele>
        <time>2021-04-18T08:19:17Z</time>
      </trkpt>
      <trkpt lat="43.62116" lon="6.30814">
        <ele>792.8</ele>
        <time>2021-04-18T08:19:32Z</time>
      </trkpt>
      <trkpt lat="43.62108" lon="6.30804">
        <ele>794.7</ele>
        <time>2021-04-18T08:19:47Z</time>
      </trkpt>
      <trkpt lat="43.621" lon="6.30809">
        <ele>796.3</ele>
        <time>2021-04-18T08:20:01Z</time>
      </trkpt>
      <trkpt lat="43.62091" lon="6.30818">
        <ele>797.6</ele>
        <time>2021-04-18T08:20:12Z</time>
      </trkpt>
      <trkpt lat="43.62082" lon="6.30826">
        <ele>798.8</ele>
        <time>2021-04-18T08:20:23Z</time>
      </trkpt>
      <trkpt lat="43.62074" lon="6.3083">
        <ele>800.2</ele>
        <time>2021-04-18T08:20:34Z</time>
      </trkpt>
      <trkpt lat="43.62061" lon="6.3084">
        <ele>802.6</ele>
        <time>2021-04-18T08:20:48Z</time>
      </trkpt>
      <trkpt lat="43.62051" lon="6.30843">
        <ele>804.5</ele>
        <time>2021-04-18T08:20:59Z</time>
      </trkpt>
      <trkpt lat="43.62043" lon="6.30834">
        <ele>806.2</ele>
        <time>2021-04-18T08:21:14Z</time>
      </trkpt>
      <trkpt lat="43.62038" lon="6.30824">
        <ele>807.7</ele>
        <time>2021-04-18T08:21:27Z</time>
      </trkpt>
      <trkpt lat="43.62032" lon="6.30814">
        <ele>809.6</ele>
        <time>2021-04-18T08:21:42Z</time>
      </trkpt>
      <trkpt lat="43.62024" lon="6.30805">
        <ele>811.7</ele>
        <time>2021-04-18T08:21:56Z</time>
      </trkpt>
      <trkpt lat="43.62018" lon="6.30791">
        <ele>813.3</ele>
        <time>2021-04-18T08:22:08Z</time>
      </trkpt>
      <trkpt lat="43.62012" lon="6.3078">
        <ele>814.8</ele>
        <time>2021-04-18T08:22:19Z</time>
      </trkpt>
      <trkpt lat="43.62007" lon="6.30768">
        <ele>815.7</ele>
        <time>2021-04-18T08:22:31Z</time>
      </trkpt>
      <trkpt lat="43.62002" lon="6.30757">
        <ele>816.6</ele>
        <time>2021-04-18T08:22:42Z</time>
      </trkpt>
      <trkpt lat="43.61997" lon="6.30747">
        <ele>817.1</ele>
        <time>2021-04-18T08:22:51Z</time>
      </trkpt>
      <trkpt lat="43.61988" lon="6.30739">
        <ele>817.4</ele>
        <time>2021-04-18T08:23:01Z</time>
      </trkpt>
      <trkpt lat="43.61978" lon="6.30732">
        <ele>817.8</ele>
        <time>2021-04-18T08:23:10Z</time>
      </trkpt>
      <trkpt lat="43.61972" lon="6.30721">
        <ele>818</ele>
        <time>2021-04-18T08:23:20Z</time>
      </trkpt>
      <trkpt lat="43.61967" lon="6.30708">
        <ele>817.7</ele>
        <time>2021-04-18T08:23:29Z</time>
      </trkpt>
      <trkpt lat="43.61958" lon="6.30699">
        <ele>817.1</ele>
        <time>2021-04-18T08:23:38Z</time>
      </trkpt>
      <trkpt lat="43.61955" lon="6.30687">
        <ele>816.8</ele>
        <time>2021-04-18T08:23:47Z</time>
      </trkpt>
      <trkpt lat="43.61951" lon="6.30675">
        <ele>816.9</ele>
        <time>2021-04-18T08:23:56Z</time>
      </trkpt>
      <trkpt lat="43.61947" lon="6.30662">
        <ele>817.1</ele>
        <time>2021-04-18T08:24:05Z</time>
      </trkpt>
      <trkpt lat="43.61947" lon="6.30649">
        <ele>817.5</ele>
        <time>2021-04-18T08:24:14Z</time>
      </trkpt>
      <trkpt lat="43.61944" lon="6.30636">
        <ele>818</ele>
        <time>2021-04-18T08:24:22Z</time>
      </trkpt>
      <trkpt lat="43.61941" lon="6.30622">
        <ele>817.9</ele>
        <time>2021-04-18T08:24:31Z</time>
      </trkpt>
      <trkpt lat="43.61934" lon="6.3061">
        <ele>817.7</ele>
        <time>2021-04-18T08:24:40Z</time>
      </trkpt>
      <trkpt lat="43.61935" lon="6.30596">
        <ele>818.2</ele>
        <time>2021-04-18T08:24:49Z</time>
      </trkpt>
      <trkpt lat="43.61934" lon="6.30583">
        <ele>818.6</ele>
        <time>2021-04-18T08:24:57Z</time>
      </trkpt>
      <trkpt lat="43.61933" lon="6.30569">
        <ele>818.8</ele>
        <time>2021-04-18T08:25:06Z</time>
      </trkpt>
      <trkpt lat="43.61932" lon="6.30557">
        <ele>819</ele>
        <time>2021-04-18T08:25:14Z</time>
      </trkpt>
      <trkpt lat="43.6193" lon="6.30543">
        <ele>818.8</ele>
        <time>2021-04-18T08:25:22Z</time>
      </trkpt>
      <trkpt lat="43.61931" lon="6.30533">
        <ele>818.6</ele>
        <time>2021-04-18T08:25:30Z</time>
      </trkpt>
      <trkpt lat="43.61934" lon="6.3052">
        <ele>818.4</ele>
        <time>2021-04-18T08:25:39Z</time>
      </trkpt>
      <trkpt lat="43.61938" lon="6.30506">
        <ele>818.2</ele>
        <time>2021-04-18T08:25:48Z</time>
      </trkpt>
      <trkpt lat="43.61938" lon="6.30492">
        <ele>818</ele>
        <time>2021-04-18T08:25:57Z</time>
      </trkpt>
      <trkpt lat="43.6194" lon="6.30478">
        <ele>817.5</ele>
        <time>2021-04-18T08:26:06Z</time>
      </trkpt>
      <trkpt lat="43.61941" lon="6.30465">
        <ele>816.7</ele>
        <time>2021-04-18T08:26:15Z</time>
      </trkpt>
      <trkpt lat="43.6194" lon="6.30451">
        <ele>815.9</ele>
        <time>2021-04-18T08:26:24Z</time>
      </trkpt>
      <trkpt lat="43.61941" lon="6.30436">
        <ele>815.1</ele>
        <time>2021-04-18T08:26:33Z</time>
      </trkpt>
      <trkpt lat="43.61938" lon="6.30422">
        <ele>814.7</ele>
        <time>2021-04-18T08:26:42Z</time>
      </trkpt>
      <trkpt lat="43.61936" lon="6.3041">
        <ele>814.5</ele>
        <time>2021-04-18T08:26:51Z</time>
      </trkpt>
      <trkpt lat="43.61937" lon="6.30395">
        <ele>814.3</ele>
        <time>2021-04-18T08:27:00Z</time>
      </trkpt>
      <trkpt lat="43.6193" lon="6.30385">
        <ele>814.3</ele>
        <time>2021-04-18T08:27:09Z</time>
      </trkpt>
      <trkpt lat="43.61921" lon="6.30382">
        <ele>814.6</ele>
        <time>2021-04-18T08:27:17Z</time>
      </trkpt>
      <trkpt lat="43.61912" lon="6.30376">
        <ele>814.4</ele>
        <time>2021-04-18T08:27:26Z</time>
      </trkpt>
      <trkpt lat="43.61909" lon="6.30362">
        <ele>814</ele>
        <time>2021-04-18T08:27:36Z</time>
      </trkpt>
      <trkpt lat="43.61905" lon="6.3035">
        <ele>814.6</ele>
        <time>2021-04-18T08:27:45Z</time>
      </trkpt>
      <trkpt lat="43.619" lon="6.30338">
        <ele>815.3</ele>
        <time>2021-04-18T08:27:54Z</time>
      </trkpt>
      <trkpt lat="43.619" lon="6.30327">
        <ele>816.1</ele>
        <time>2021-04-18T08:28:04Z</time>
      </trkpt>
      <trkpt lat="43.61905" lon="6.30313">
        <ele>816.9</ele>
        <time>2021-04-18T08:28:15Z</time>
      </trkpt>
      <trkpt lat="43.61909" lon="6.30299">
        <ele>817.8</ele>
        <time>2021-04-18T08:28:26Z</time>
      </trkpt>
      <trkpt lat="43.61914" lon="6.30283">
        <ele>818.8</ele>
        <time>2021-04-18T08:28:35Z</time>
      </trkpt>
      <trkpt lat="43.61921" lon="6.30272">
        <ele>818.9</ele>
        <time>2021-04-18T08:28:45Z</time>
      </trkpt>
      <trkpt lat="43.61929" lon="6.30261">
        <ele>818.8</ele>
        <time>2021-04-18T08:28:56Z</time>
      </trkpt>
      <trkpt lat="43.61938" lon="6.30246">
        <ele>818.5</ele>
        <time>2021-04-18T08:29:07Z</time>
      </trkpt>
      <trkpt lat="43.61943" lon="6.30232">
        <ele>818.5</ele>
        <time>2021-04-18T08:29:16Z</time>
      </trkpt>
      <trkpt lat="43.61944" lon="6.30218">
        <ele>819.3</ele>
        <time>2021-04-18T08:29:25Z</time>
      </trkpt>
      <trkpt lat="43.61944" lon="6.30205">
        <ele>819.6</ele>
        <time>2021-04-18T08:29:35Z</time>
      </trkpt>
      <trkpt lat="43.61945" lon="6.30192">
        <ele>820.1</ele>
        <time>2021-04-18T08:29:45Z</time>
      </trkpt>
      <trkpt lat="43.61945" lon="6.30175">
        <ele>820.6</ele>
        <time>2021-04-18T08:29:54Z</time>
      </trkpt>
      <trkpt lat="43.61942" lon="6.3016">
        <ele>821.3</ele>
        <time>2021-04-18T08:30:03Z</time>
      </trkpt>
      <trkpt lat="43.6194" lon="6.30149">
        <ele>821.5</ele>
        <time>2021-04-18T08:30:11Z</time>
      </trkpt>
      <trkpt lat="43.61935" lon="6.30138">
        <ele>822.3</ele>
        <time>2021-04-18T08:30:19Z</time>
      </trkpt>
      <trkpt lat="43.61932" lon="6.30127">
        <ele>822.8</ele>
        <time>2021-04-18T08:30:27Z</time>
      </trkpt>
      <trkpt lat="43.61927" lon="6.30117">
        <ele>823.6</ele>
        <time>2021-04-18T08:30:36Z</time>
      </trkpt>
      <trkpt lat="43.61924" lon="6.30106">
        <ele>823.3</ele>
        <time>2021-04-18T08:30:44Z</time>
      </trkpt>
      <trkpt lat="43.61923" lon="6.30093">
        <ele>822.1</ele>
        <time>2021-04-18T08:30:53Z</time>
      </trkpt>
      <trkpt lat="43.61921" lon="6.30083">
        <ele>821.1</ele>
        <time>2021-04-18T08:31:04Z</time>
      </trkpt>
      <trkpt lat="43.61923" lon="6.30069">
        <ele>820.3</ele>
        <time>2021-04-18T08:31:16Z</time>
      </trkpt>
      <trkpt lat="43.61924" lon="6.30056">
        <ele>819.9</ele>
        <time>2021-04-18T08:31:25Z</time>
      </trkpt>
      <trkpt lat="43.61927" lon="6.30042">
        <ele>820.8</ele>
        <time>2021-04-18T08:31:37Z</time>
      </trkpt>
      <trkpt lat="43.6193" lon="6.30029">
        <ele>821.4</ele>
        <time>2021-04-18T08:31:46Z</time>
      </trkpt>
      <trkpt lat="43.61932" lon="6.30013">
        <ele>823</ele>
        <time>2021-04-18T08:31:55Z</time>
      </trkpt>
      <trkpt lat="43.61935" lon="6.29998">
        <ele>824.5</ele>
        <time>2021-04-18T08:32:05Z</time>
      </trkpt>
      <trkpt lat="43.61936" lon="6.29985">
        <ele>826.5</ele>
        <time>2021-04-18T08:32:15Z</time>
      </trkpt>
      <trkpt lat="43.6194" lon="6.2997">
        <ele>828.4</ele>
        <time>2021-04-18T08:32:27Z</time>
      </trkpt>
      <trkpt lat="43.61941" lon="6.29956">
        <ele>830</ele>
        <time>2021-04-18T08:32:40Z</time>
      </trkpt>
      <trkpt lat="43.61946" lon="6.29946">
        <ele>830.6</ele>
        <time>2021-04-18T08:32:53Z</time>
      </trkpt>
      <trkpt lat="43.61949" lon="6.29934">
        <ele>831.2</ele>
        <time>2021-04-18T08:33:04Z</time>
      </trkpt>
      <trkpt lat="43.61946" lon="6.2992">
        <ele>833.3</ele>
        <time>2021-04-18T08:33:14Z</time>
      </trkpt>
      <trkpt lat="43.61943" lon="6.29907">
        <ele>833.9</ele>
        <time>2021-04-18T08:33:24Z</time>
      </trkpt>
      <trkpt lat="43.61944" lon="6.29895">
        <ele>833.3</ele>
        <time>2021-04-18T08:33:33Z</time>
      </trkpt>
      <trkpt lat="43.61944" lon="6.29881">
        <ele>832.1</ele>
        <time>2021-04-18T08:33:43Z</time>
      </trkpt>
      <trkpt lat="43.61942" lon="6.2987">
        <ele>831.1</ele>
        <time>2021-04-18T08:33:53Z</time>
      </trkpt>
      <trkpt lat="43.61944" lon="6.29856">
        <ele>829.1</ele>
        <time>2021-04-18T08:34:07Z</time>
      </trkpt>
      <trkpt lat="43.61946" lon="6.29844">
        <ele>828.2</ele>
        <time>2021-04-18T08:34:18Z</time>
      </trkpt>
      <trkpt lat="43.61951" lon="6.29825">
        <ele>828.5</ele>
        <time>2021-04-18T08:34:27Z</time>
      </trkpt>
      <trkpt lat="43.61952" lon="6.29812">
        <ele>829.7</ele>
        <time>2021-04-18T08:34:37Z</time>
      </trkpt>
      <trkpt lat="43.61953" lon="6.29798">
        <ele>830.8</ele>
        <time>2021-04-18T08:34:49Z</time>
      </trkpt>
      <trkpt lat="43.61957" lon="6.29786">
        <ele>831.8</ele>
        <time>2021-04-18T08:35:00Z</time>
      </trkpt>
      <trkpt lat="43.61965" lon="6.29772">
        <ele>834.1</ele>
        <time>2021-04-18T08:35:20Z</time>
      </trkpt>
      <trkpt lat="43.61969" lon="6.29765">
        <ele>835.8</ele>
        <time>2021-04-18T08:35:31Z</time>
      </trkpt>
      <trkpt lat="43.61977" lon="6.29759">
        <ele>838.6</ele>
        <time>2021-04-18T08:35:45Z</time>
      </trkpt>
      <trkpt lat="43.61985" lon="6.29757">
        <ele>840.9</ele>
        <time>2021-04-18T08:36:00Z</time>
      </trkpt>
      <trkpt lat="43.61993" lon="6.29754">
        <ele>843.4</ele>
        <time>2021-04-18T08:36:16Z</time>
      </trkpt>
      <trkpt lat="43.62" lon="6.29749">
        <ele>846.1</ele>
        <time>2021-04-18T08:36:30Z</time>
      </trkpt>
      <trkpt lat="43.62006" lon="6.29745">
        <ele>847.1</ele>
        <time>2021-04-18T08:36:43Z</time>
      </trkpt>
      <trkpt lat="43.62015" lon="6.29738">
        <ele>848.5</ele>
        <time>2021-04-18T08:37:04Z</time>
      </trkpt>
      <trkpt lat="43.62021" lon="6.29727">
        <ele>850.3</ele>
        <time>2021-04-18T08:37:16Z</time>
      </trkpt>
      <trkpt lat="43.62026" lon="6.29716">
        <ele>851.7</ele>
        <time>2021-04-18T08:37:27Z</time>
      </trkpt>
      <trkpt lat="43.62029" lon="6.29704">
        <ele>853</ele>
        <time>2021-04-18T08:37:37Z</time>
      </trkpt>
      <trkpt lat="43.6203" lon="6.29692">
        <ele>854.3</ele>
        <time>2021-04-18T08:37:46Z</time>
      </trkpt>
      <trkpt lat="43.62033" lon="6.2968">
        <ele>855.7</ele>
        <time>2021-04-18T08:37:55Z</time>
      </trkpt>
      <trkpt lat="43.62033" lon="6.29669">
        <ele>857</ele>
        <time>2021-04-18T08:38:05Z</time>
      </trkpt>
      <trkpt lat="43.62029" lon="6.29659">
        <ele>858.1</ele>
        <time>2021-04-18T08:38:16Z</time>
      </trkpt>
      <trkpt lat="43.62024" lon="6.29652">
        <ele>859.3</ele>
        <time>2021-04-18T08:38:26Z</time>
      </trkpt>
      <trkpt lat="43.62019" lon="6.29642">
        <ele>860.6</ele>
        <time>2021-04-18T08:38:36Z</time>
      </trkpt>
      <trkpt lat="43.62016" lon="6.29632">
        <ele>861.5</ele>
        <time>2021-04-18T08:38:47Z</time>
      </trkpt>
      <trkpt lat="43.62011" lon="6.29619">
        <ele>862.4</ele>
        <time>2021-04-18T08:38:57Z</time>
      </trkpt>
      <trkpt lat="43.62011" lon="6.29607">
        <ele>863.4</ele>
        <time>2021-04-18T08:39:08Z</time>
      </trkpt>
      <trkpt lat="43.6201" lon="6.29594">
        <ele>864.9</ele>
        <time>2021-04-18T08:39:18Z</time>
      </trkpt>
      <trkpt lat="43.6201" lon="6.29583">
        <ele>866</ele>
        <time>2021-04-18T08:39:28Z</time>
      </trkpt>
      <trkpt lat="43.6201" lon="6.29571">
        <ele>867.1</ele>
        <time>2021-04-18T08:39:39Z</time>
      </trkpt>
      <trkpt lat="43.62013" lon="6.29558">
        <ele>868.3</ele>
        <time>2021-04-18T08:39:51Z</time>
      </trkpt>
      <trkpt lat="43.62026" lon="6.29547">
        <ele>868.7</ele>
        <time>2021-04-18T08:44:28Z</time>
      </trkpt>
      <trkpt lat="43.62036" lon="6.29549">
        <ele>867.9</ele>
        <time>2021-04-18T08:44:38Z</time>
      </trkpt>
      <trkpt lat="43.6205" lon="6.29547">
        <ele>867.1</ele>
        <time>2021-04-18T08:44:49Z</time>
      </trkpt>
      <trkpt lat="43.6206" lon="6.29539">
        <ele>866.6</ele>
        <time>2021-04-18T08:45:00Z</time>
      </trkpt>
      <trkpt lat="43.6207" lon="6.29521">
        <ele>867.1</ele>
        <time>2021-04-18T08:45:10Z</time>
      </trkpt>
      <trkpt lat="43.62074" lon="6.29505">
        <ele>867.9</ele>
        <time>2021-04-18T08:45:24Z</time>
      </trkpt>
      <trkpt lat="43.62079" lon="6.29486">
        <ele>869</ele>
        <time>2021-04-18T08:45:36Z</time>
      </trkpt>
      <trkpt lat="43.62081" lon="6.29467">
        <ele>870.6</ele>
        <time>2021-04-18T08:45:48Z</time>
      </trkpt>
      <trkpt lat="43.62085" lon="6.29454">
        <ele>871.4</ele>
        <time>2021-04-18T08:46:00Z</time>
      </trkpt>
      <trkpt lat="43.62091" lon="6.29441">
        <ele>872.6</ele>
        <time>2021-04-18T08:46:13Z</time>
      </trkpt>
      <trkpt lat="43.62101" lon="6.29431">
        <ele>873.8</ele>
        <time>2021-04-18T08:46:24Z</time>
      </trkpt>
      <trkpt lat="43.62111" lon="6.29418">
        <ele>874.9</ele>
        <time>2021-04-18T08:46:40Z</time>
      </trkpt>
      <trkpt lat="43.62122" lon="6.29405">
        <ele>877.1</ele>
        <time>2021-04-18T08:46:51Z</time>
      </trkpt>
      <trkpt lat="43.62131" lon="6.29395">
        <ele>878.8</ele>
        <time>2021-04-18T08:47:03Z</time>
      </trkpt>
      <trkpt lat="43.6214" lon="6.29397">
        <ele>879</ele>
        <time>2021-04-18T08:47:15Z</time>
      </trkpt>
      <trkpt lat="43.62149" lon="6.29399">
        <ele>878</ele>
        <time>2021-04-18T08:47:25Z</time>
      </trkpt>
      <trkpt lat="43.62159" lon="6.294">
        <ele>877.2</ele>
        <time>2021-04-18T08:47:36Z</time>
      </trkpt>
      <trkpt lat="43.62167" lon="6.29406">
        <ele>876.3</ele>
        <time>2021-04-18T08:47:47Z</time>
      </trkpt>
      <trkpt lat="43.62173" lon="6.2941">
        <ele>875.5</ele>
        <time>2021-04-18T08:49:53Z</time>
      </trkpt>
      <trkpt lat="43.62172" lon="6.29408">
        <ele>875.6</ele>
        <time>2021-04-18T08:51:07Z</time>
      </trkpt>
      <trkpt lat="43.62166" lon="6.29402">
        <ele>876.6</ele>
        <time>2021-04-18T08:51:19Z</time>
      </trkpt>
      <trkpt lat="43.62167" lon="6.2939">
        <ele>876.9</ele>
        <time>2021-04-18T08:51:29Z</time>
      </trkpt>
      <trkpt lat="43.62171" lon="6.29377">
        <ele>876.2</ele>
        <time>2021-04-18T08:51:38Z</time>
      </trkpt>
      <trkpt lat="43.62179" lon="6.29372">
        <ele>875</ele>
        <time>2021-04-18T08:51:49Z</time>
      </trkpt>
      <trkpt lat="43.62189" lon="6.29372">
        <ele>873.4</ele>
        <time>2021-04-18T08:51:59Z</time>
      </trkpt>
      <trkpt lat="43.62194" lon="6.29381">
        <ele>872.3</ele>
        <time>2021-04-18T08:52:08Z</time>
      </trkpt>
      <trkpt lat="43.62204" lon="6.29383">
        <ele>871</ele>
        <time>2021-04-18T08:52:18Z</time>
      </trkpt>
      <trkpt lat="43.6221" lon="6.29393">
        <ele>869.8</ele>
        <time>2021-04-18T08:52:28Z</time>
      </trkpt>
      <trkpt lat="43.62214" lon="6.29405">
        <ele>868.9</ele>
        <time>2021-04-18T08:52:39Z</time>
      </trkpt>
      <trkpt lat="43.62216" lon="6.2942">
        <ele>867.9</ele>
        <time>2021-04-18T08:52:49Z</time>
      </trkpt>
      <trkpt lat="43.62219" lon="6.29434">
        <ele>865.5</ele>
        <time>2021-04-18T08:52:57Z</time>
      </trkpt>
      <trkpt lat="43.62229" lon="6.29442">
        <ele>864.7</ele>
        <time>2021-04-18T08:53:07Z</time>
      </trkpt>
      <trkpt lat="43.62238" lon="6.2943">
        <ele>866.1</ele>
        <time>2021-04-18T08:53:16Z</time>
      </trkpt>
      <trkpt lat="43.62237" lon="6.29414">
        <ele>867.1</ele>
        <time>2021-04-18T08:53:25Z</time>
      </trkpt>
      <trkpt lat="43.62237" lon="6.29401">
        <ele>867.9</ele>
        <time>2021-04-18T08:53:34Z</time>
      </trkpt>
      <trkpt lat="43.62236" lon="6.29386">
        <ele>868.8</ele>
        <time>2021-04-18T08:53:46Z</time>
      </trkpt>
      <trkpt lat="43.62235" lon="6.29372">
        <ele>870.3</ele>
        <time>2021-04-18T08:53:56Z</time>
      </trkpt>
      <trkpt lat="43.6224" lon="6.29358">
        <ele>871.9</ele>
        <time>2021-04-18T08:54:09Z</time>
      </trkpt>
      <trkpt lat="43.62248" lon="6.29347">
        <ele>873</ele>
        <time>2021-04-18T08:54:22Z</time>
      </trkpt>
      <trkpt lat="43.62257" lon="6.29343">
        <ele>873.1</ele>
        <time>2021-04-18T08:54:36Z</time>
      </trkpt>
      <trkpt lat="43.62268" lon="6.29343">
        <ele>872.9</ele>
        <time>2021-04-18T08:54:47Z</time>
      </trkpt>
      <trkpt lat="43.62278" lon="6.29338">
        <ele>872.8</ele>
        <time>2021-04-18T08:54:57Z</time>
      </trkpt>
      <trkpt lat="43.62289" lon="6.29326">
        <ele>872</ele>
        <time>2021-04-18T08:55:08Z</time>
      </trkpt>
      <trkpt lat="43.623" lon="6.29326">
        <ele>870.9</ele>
        <time>2021-04-18T08:55:21Z</time>
      </trkpt>
      <trkpt lat="43.62312" lon="6.29323">
        <ele>869.8</ele>
        <time>2021-04-18T08:55:31Z</time>
      </trkpt>
      <trkpt lat="43.62323" lon="6.29317">
        <ele>868.9</ele>
        <time>2021-04-18T08:55:40Z</time>
      </trkpt>
      <trkpt lat="43.62322" lon="6.29299">
        <ele>869.1</ele>
        <time>2021-04-18T08:55:49Z</time>
      </trkpt>
      <trkpt lat="43.62317" lon="6.29285">
        <ele>869.3</ele>
        <time>2021-04-18T08:55:58Z</time>
      </trkpt>
      <trkpt lat="43.6231" lon="6.29276">
        <ele>869.6</ele>
        <time>2021-04-18T08:56:06Z</time>
      </trkpt>
      <trkpt lat="43.62306" lon="6.29265">
        <ele>869.5</ele>
        <time>2021-04-18T08:56:15Z</time>
      </trkpt>
      <trkpt lat="43.62303" lon="6.29252">
        <ele>869.1</ele>
        <time>2021-04-18T08:56:23Z</time>
      </trkpt>
      <trkpt lat="43.62302" lon="6.2924">
        <ele>868.3</ele>
        <time>2021-04-18T08:56:32Z</time>
      </trkpt>
      <trkpt lat="43.62296" lon="6.29228">
        <ele>867.7</ele>
        <time>2021-04-18T08:56:41Z</time>
      </trkpt>
      <trkpt lat="43.62287" lon="6.29221">
        <ele>867.6</ele>
        <time>2021-04-18T08:56:53Z</time>
      </trkpt>
      <trkpt lat="43.6229" lon="6.29209">
        <ele>866.9</ele>
        <time>2021-04-18T08:57:03Z</time>
      </trkpt>
      <trkpt lat="43.62281" lon="6.29198">
        <ele>866.9</ele>
        <time>2021-04-18T08:57:12Z</time>
      </trkpt>
      <trkpt lat="43.62271" lon="6.2919">
        <ele>867.1</ele>
        <time>2021-04-18T08:57:20Z</time>
      </trkpt>
      <trkpt lat="43.62262" lon="6.29183">
        <ele>867.2</ele>
        <time>2021-04-18T08:57:29Z</time>
      </trkpt>
      <trkpt lat="43.62265" lon="6.2917">
        <ele>866.6</ele>
        <time>2021-04-18T08:57:38Z</time>
      </trkpt>
      <trkpt lat="43.62263" lon="6.29155">
        <ele>865.4</ele>
        <time>2021-04-18T08:57:48Z</time>
      </trkpt>
      <trkpt lat="43.62259" lon="6.29143">
        <ele>864.4</ele>
        <time>2021-04-18T08:57:57Z</time>
      </trkpt>
      <trkpt lat="43.62255" lon="6.2913">
        <ele>863.7</ele>
        <time>2021-04-18T08:58:07Z</time>
      </trkpt>
      <trkpt lat="43.62246" lon="6.29122">
        <ele>863.4</ele>
        <time>2021-04-18T08:58:15Z</time>
      </trkpt>
      <trkpt lat="43.62237" lon="6.29113">
        <ele>862.7</ele>
        <time>2021-04-18T08:58:25Z</time>
      </trkpt>
      <trkpt lat="43.62232" lon="6.29103">
        <ele>862</ele>
        <time>2021-04-18T08:58:34Z</time>
      </trkpt>
      <trkpt lat="43.62232" lon="6.29088">
        <ele>861.2</ele>
        <time>2021-04-18T08:58:42Z</time>
      </trkpt>
      <trkpt lat="43.62228" lon="6.29077">
        <ele>860.8</ele>
        <time>2021-04-18T08:58:50Z</time>
      </trkpt>
      <trkpt lat="43.62224" lon="6.29066">
        <ele>860.4</ele>
        <time>2021-04-18T08:58:58Z</time>
      </trkpt>
      <trkpt lat="43.62217" lon="6.29055">
        <ele>860.2</ele>
        <time>2021-04-18T08:59:07Z</time>
      </trkpt>
      <trkpt lat="43.6221" lon="6.29044">
        <ele>860.5</ele>
        <time>2021-04-18T08:59:15Z</time>
      </trkpt>
      <trkpt lat="43.62203" lon="6.29034">
        <ele>860.7</ele>
        <time>2021-04-18T08:59:23Z</time>
      </trkpt>
      <trkpt lat="43.62201" lon="6.2902">
        <ele>860.8</ele>
        <time>2021-04-18T08:59:32Z</time>
      </trkpt>
      <trkpt lat="43.62199" lon="6.29005">
        <ele>860.8</ele>
        <time>2021-04-18T08:59:41Z</time>
      </trkpt>
      <trkpt lat="43.62199" lon="6.28992">
        <ele>860.8</ele>
        <time>2021-04-18T08:59:49Z</time>
      </trkpt>
      <trkpt lat="43.62193" lon="6.28982">
        <ele>861</ele>
        <time>2021-04-18T08:59:57Z</time>
      </trkpt>
      <trkpt lat="43.62183" lon="6.28977">
        <ele>861.3</ele>
        <time>2021-04-18T09:00:07Z</time>
      </trkpt>
      <trkpt lat="43.62173" lon="6.2897">
        <ele>861.9</ele>
        <time>2021-04-18T09:00:19Z</time>
      </trkpt>
      <trkpt lat="43.62165" lon="6.28959">
        <ele>862.5</ele>
        <time>2021-04-18T09:00:28Z</time>
      </trkpt>
      <trkpt lat="43.6216" lon="6.28946">
        <ele>863</ele>
        <time>2021-04-18T09:00:36Z</time>
      </trkpt>
      <trkpt lat="43.62153" lon="6.28935">
        <ele>863.5</ele>
        <time>2021-04-18T09:00:45Z</time>
      </trkpt>
      <trkpt lat="43.62146" lon="6.28925">
        <ele>863.9</ele>
        <time>2021-04-18T09:00:54Z</time>
      </trkpt>
      <trkpt lat="43.62139" lon="6.28917">
        <ele>864</ele>
        <time>2021-04-18T09:01:03Z</time>
      </trkpt>
      <trkpt lat="43.62129" lon="6.28914">
        <ele>865.2</ele>
        <time>2021-04-18T09:01:12Z</time>
      </trkpt>
      <trkpt lat="43.6212" lon="6.28909">
        <ele>866</ele>
        <time>2021-04-18T09:01:24Z</time>
      </trkpt>
      <trkpt lat="43.62111" lon="6.289">
        <ele>866.4</ele>
        <time>2021-04-18T09:01:36Z</time>
      </trkpt>
      <trkpt lat="43.62102" lon="6.28889">
        <ele>866.6</ele>
        <time>2021-04-18T09:01:46Z</time>
      </trkpt>
      <trkpt lat="43.62096" lon="6.28879">
        <ele>865.9</ele>
        <time>2021-04-18T09:01:55Z</time>
      </trkpt>
      <trkpt lat="43.62099" lon="6.28876">
        <ele>865.3</ele>
        <time>2021-04-18T09:02:09Z</time>
      </trkpt>
      <trkpt lat="43.62108" lon="6.2887">
        <ele>864.1</ele>
        <time>2021-04-18T09:02:24Z</time>
      </trkpt>
      <trkpt lat="43.62121" lon="6.28858">
        <ele>863.7</ele>
        <time>2021-04-18T09:02:35Z</time>
      </trkpt>
      <trkpt lat="43.62123" lon="6.28839">
        <ele>861.8</ele>
        <time>2021-04-18T09:02:49Z</time>
      </trkpt>
      <trkpt lat="43.6213" lon="6.28823">
        <ele>862.3</ele>
        <time>2021-04-18T09:02:58Z</time>
      </trkpt>
      <trkpt lat="43.62139" lon="6.28813">
        <ele>864.3</ele>
        <time>2021-04-18T09:03:07Z</time>
      </trkpt>
      <trkpt lat="43.62147" lon="6.28804">
        <ele>865</ele>
        <time>2021-04-18T09:03:20Z</time>
      </trkpt>
      <trkpt lat="43.6216" lon="6.28796">
        <ele>866.2</ele>
        <time>2021-04-18T09:03:35Z</time>
      </trkpt>
      <trkpt lat="43.62175" lon="6.28784">
        <ele>867.7</ele>
        <time>2021-04-18T09:03:49Z</time>
      </trkpt>
      <trkpt lat="43.62183" lon="6.28768">
        <ele>867.5</ele>
        <time>2021-04-18T09:04:01Z</time>
      </trkpt>
      <trkpt lat="43.62187" lon="6.28752">
        <ele>867.3</ele>
        <time>2021-04-18T09:04:15Z</time>
      </trkpt>
      <trkpt lat="43.62194" lon="6.28735">
        <ele>868.4</ele>
        <time>2021-04-18T09:04:27Z</time>
      </trkpt>
      <trkpt lat="43.62197" lon="6.28718">
        <ele>868.3</ele>
        <time>2021-04-18T09:04:36Z</time>
      </trkpt>
      <trkpt lat="43.62202" lon="6.28706">
        <ele>868.8</ele>
        <time>2021-04-18T09:04:45Z</time>
      </trkpt>
      <trkpt lat="43.62212" lon="6.28699">
        <ele>870.3</ele>
        <time>2021-04-18T09:04:56Z</time>
      </trkpt>
      <trkpt lat="43.62221" lon="6.28698">
        <ele>871.9</ele>
        <time>2021-04-18T09:05:07Z</time>
      </trkpt>
      <trkpt lat="43.62232" lon="6.28699">
        <ele>873.5</ele>
        <time>2021-04-18T09:05:19Z</time>
      </trkpt>
      <trkpt lat="43.62241" lon="6.28698">
        <ele>874.9</ele>
        <time>2021-04-18T09:05:32Z</time>
      </trkpt>
      <trkpt lat="43.62252" lon="6.28691">
        <ele>875.7</ele>
        <time>2021-04-18T09:05:46Z</time>
      </trkpt>
      <trkpt lat="43.62263" lon="6.28683">
        <ele>876.4</ele>
        <time>2021-04-18T09:06:00Z</time>
      </trkpt>
      <trkpt lat="43.62272" lon="6.28667">
        <ele>876.7</ele>
        <time>2021-04-18T09:06:10Z</time>
      </trkpt>
      <trkpt lat="43.62283" lon="6.28653">
        <ele>877.6</ele>
        <time>2021-04-18T09:06:28Z</time>
      </trkpt>
      <trkpt lat="43.62288" lon="6.28643">
        <ele>877.4</ele>
        <time>2021-04-18T09:06:39Z</time>
      </trkpt>
      <trkpt lat="43.62295" lon="6.28621">
        <ele>874.9</ele>
        <time>2021-04-18T09:08:12Z</time>
      </trkpt>
      <trkpt lat="43.62293" lon="6.28603">
        <ele>873.1</ele>
        <time>2021-04-18T09:08:22Z</time>
      </trkpt>
      <trkpt lat="43.62293" lon="6.28587">
        <ele>872.8</ele>
        <time>2021-04-18T09:08:32Z</time>
      </trkpt>
      <trkpt lat="43.6229" lon="6.28573">
        <ele>872.1</ele>
        <time>2021-04-18T09:08:42Z</time>
      </trkpt>
      <trkpt lat="43.62288" lon="6.2856">
        <ele>871.5</ele>
        <time>2021-04-18T09:08:50Z</time>
      </trkpt>
      <trkpt lat="43.62281" lon="6.2855">
        <ele>871.2</ele>
        <time>2021-04-18T09:08:58Z</time>
      </trkpt>
      <trkpt lat="43.62271" lon="6.28542">
        <ele>870.2</ele>
        <time>2021-04-18T09:09:06Z</time>
      </trkpt>
      <trkpt lat="43.62264" lon="6.28532">
        <ele>870.3</ele>
        <time>2021-04-18T09:09:15Z</time>
      </trkpt>
      <trkpt lat="43.62255" lon="6.28525">
        <ele>869.2</ele>
        <time>2021-04-18T09:09:27Z</time>
      </trkpt>
      <trkpt lat="43.62245" lon="6.28518">
        <ele>868</ele>
        <time>2021-04-18T09:09:38Z</time>
      </trkpt>
      <trkpt lat="43.62235" lon="6.28512">
        <ele>866.7</ele>
        <time>2021-04-18T09:09:47Z</time>
      </trkpt>
      <trkpt lat="43.62226" lon="6.28503">
        <ele>866.4</ele>
        <time>2021-04-18T09:09:55Z</time>
      </trkpt>
      <trkpt lat="43.62218" lon="6.28493">
        <ele>866</ele>
        <time>2021-04-18T09:10:03Z</time>
      </trkpt>
      <trkpt lat="43.62213" lon="6.28481">
        <ele>866.6</ele>
        <time>2021-04-18T09:10:13Z</time>
      </trkpt>
      <trkpt lat="43.62216" lon="6.28471">
        <ele>868</ele>
        <time>2021-04-18T09:10:23Z</time>
      </trkpt>
      <trkpt lat="43.62222" lon="6.28471">
        <ele>868.9</ele>
        <time>2021-04-18T09:10:34Z</time>
      </trkpt>
      <trkpt lat="43.62233" lon="6.28473">
        <ele>869.7</ele>
        <time>2021-04-18T09:10:45Z</time>
      </trkpt>
      <trkpt lat="43.62241" lon="6.28472">
        <ele>870.3</ele>
        <time>2021-04-18T09:10:54Z</time>
      </trkpt>
      <trkpt lat="43.62248" lon="6.28463">
        <ele>869.9</ele>
        <time>2021-04-18T09:11:04Z</time>
      </trkpt>
      <trkpt lat="43.62253" lon="6.28455">
        <ele>869.3</ele>
        <time>2021-04-18T09:12:47Z</time>
      </trkpt>
      <trkpt lat="43.62245" lon="6.28447">
        <ele>868.1</ele>
        <time>2021-04-18T09:13:00Z</time>
      </trkpt>
      <trkpt lat="43.62238" lon="6.28436">
        <ele>867.8</ele>
        <time>2021-04-18T09:13:12Z</time>
      </trkpt>
      <trkpt lat="43.62229" lon="6.28429">
        <ele>866.8</ele>
        <time>2021-04-18T09:13:22Z</time>
      </trkpt>
      <trkpt lat="43.62223" lon="6.28418">
        <ele>865.3</ele>
        <time>2021-04-18T09:13:31Z</time>
      </trkpt>
      <trkpt lat="43.62217" lon="6.28407">
        <ele>865.4</ele>
        <time>2021-04-18T09:13:39Z</time>
      </trkpt>
      <trkpt lat="43.62209" lon="6.28399">
        <ele>865.1</ele>
        <time>2021-04-18T09:13:48Z</time>
      </trkpt>
      <trkpt lat="43.62198" lon="6.28395">
        <ele>863.7</ele>
        <time>2021-04-18T09:13:57Z</time>
      </trkpt>
      <trkpt lat="43.62189" lon="6.28392">
        <ele>863.2</ele>
        <time>2021-04-18T09:14:06Z</time>
      </trkpt>
      <trkpt lat="43.62178" lon="6.28392">
        <ele>862.2</ele>
        <time>2021-04-18T09:14:15Z</time>
      </trkpt>
      <trkpt lat="43.62169" lon="6.28388">
        <ele>862.2</ele>
        <time>2021-04-18T09:14:24Z</time>
      </trkpt>
      <trkpt lat="43.62162" lon="6.28385">
        <ele>861.1</ele>
        <time>2021-04-18T09:14:51Z</time>
      </trkpt>
      <trkpt lat="43.62155" lon="6.28376">
        <ele>860.1</ele>
        <time>2021-04-18T09:15:00Z</time>
      </trkpt>
      <trkpt lat="43.62151" lon="6.28366">
        <ele>859.6</ele>
        <time>2021-04-18T09:15:08Z</time>
      </trkpt>
      <trkpt lat="43.62145" lon="6.28354">
        <ele>859.5</ele>
        <time>2021-04-18T09:15:17Z</time>
      </trkpt>
      <trkpt lat="43.62138" lon="6.28345">
        <ele>859.2</ele>
        <time>2021-04-18T09:15:26Z</time>
      </trkpt>
      <trkpt lat="43.62134" lon="6.28333">
        <ele>859.2</ele>
        <time>2021-04-18T09:15:35Z</time>
      </trkpt>
      <trkpt lat="43.62128" lon="6.28321">
        <ele>858.1</ele>
        <time>2021-04-18T09:15:44Z</time>
      </trkpt>
      <trkpt lat="43.62122" lon="6.2831">
        <ele>856.7</ele>
        <time>2021-04-18T09:15:55Z</time>
      </trkpt>
      <trkpt lat="43.62114" lon="6.28301">
        <ele>855.3</ele>
        <time>2021-04-18T09:16:04Z</time>
      </trkpt>
      <trkpt lat="43.62101" lon="6.28299">
        <ele>854.2</ele>
        <time>2021-04-18T09:16:13Z</time>
      </trkpt>
      <trkpt lat="43.62088" lon="6.28298">
        <ele>853.3</ele>
        <time>2021-04-18T09:16:21Z</time>
      </trkpt>
      <trkpt lat="43.62078" lon="6.28297">
        <ele>853.5</ele>
        <time>2021-04-18T09:16:29Z</time>
      </trkpt>
      <trkpt lat="43.62069" lon="6.28298">
        <ele>854.4</ele>
        <time>2021-04-18T09:16:37Z</time>
      </trkpt>
      <trkpt lat="43.6206" lon="6.283">
        <ele>854.7</ele>
        <time>2021-04-18T09:16:46Z</time>
      </trkpt>
      <trkpt lat="43.62052" lon="6.28309">
        <ele>852.7</ele>
        <time>2021-04-18T09:16:54Z</time>
      </trkpt>
      <trkpt lat="43.62043" lon="6.28316">
        <ele>849.9</ele>
        <time>2021-04-18T09:17:03Z</time>
      </trkpt>
      <trkpt lat="43.62033" lon="6.2832">
        <ele>848.8</ele>
        <time>2021-04-18T09:17:12Z</time>
      </trkpt>
      <trkpt lat="43.62024" lon="6.28317">
        <ele>848.4</ele>
        <time>2021-04-18T09:17:21Z</time>
      </trkpt>
      <trkpt lat="43.62016" lon="6.2831">
        <ele>847.4</ele>
        <time>2021-04-18T09:17:32Z</time>
      </trkpt>
      <trkpt lat="43.62007" lon="6.28305">
        <ele>846</ele>
        <time>2021-04-18T09:18:00Z</time>
      </trkpt>
      <trkpt lat="43.61997" lon="6.28298">
        <ele>844.4</ele>
        <time>2021-04-18T09:18:09Z</time>
      </trkpt>
      <trkpt lat="43.61989" lon="6.28291">
        <ele>842.9</ele>
        <time>2021-04-18T09:18:18Z</time>
      </trkpt>
      <trkpt lat="43.61981" lon="6.28283">
        <ele>841.7</ele>
        <time>2021-04-18T09:18:27Z</time>
      </trkpt>
      <trkpt lat="43.61974" lon="6.28274">
        <ele>840.8</ele>
        <time>2021-04-18T09:18:36Z</time>
      </trkpt>
      <trkpt lat="43.61968" lon="6.28265">
        <ele>840.4</ele>
        <time>2021-04-18T09:18:45Z</time>
      </trkpt>
      <trkpt lat="43.6196" lon="6.28259">
        <ele>840.2</ele>
        <time>2021-04-18T09:18:56Z</time>
      </trkpt>
      <trkpt lat="43.61957" lon="6.28251">
        <ele>841.2</ele>
      </trkpt>
      <trkpt lat="43.61954" lon="6.28247">
        <ele>841.7</ele>
      </trkpt>
      <trkpt lat="43.61951" lon="6.28244">
        <ele>842.1</ele>
      </trkpt>
      <trkpt lat="43.61947" lon="6.2824">
        <ele>842.7</ele>
      </trkpt>
      <trkpt lat="43.61942" lon="6.28237">
        <ele>843.8</ele>
      </trkpt>
      <trkpt lat="43.6194" lon="6.28233">
        <ele>844.9</ele>
      </trkpt>
      <trkpt lat="43.61935" lon="6.28229">
        <ele>846.6</ele>
      </trkpt>
      <trkpt lat="43.61931" lon="6.28225">
        <ele>848.3</ele>
      </trkpt>
      <trkpt lat="43.61927" lon="6.2822">
        <ele>850.2</ele>
      </trkpt>
      <trkpt lat="43.61923" lon="6.28217">
        <ele>851.6</ele>
      </trkpt>
      <trkpt lat="43.61919" lon="6.28212">
        <ele>853.4</ele>
      </trkpt>
      <trkpt lat="43.61916" lon="6.28207">
        <ele>855</ele>
      </trkpt>
      <trkpt lat="43.61914" lon="6.28199">
        <ele>856.9</ele>
      </trkpt>
      <trkpt lat="43.61914" lon="6.2819">
        <ele>858.4</ele>
      </trkpt>
      <trkpt lat="43.61912" lon="6.28181">
        <ele>859.8</ele>
      </trkpt>
      <trkpt lat="43.61912" lon="6.28172">
        <ele>860.9</ele>
      </trkpt>
      <trkpt lat="43.61914" lon="6.28157">
        <ele>860.2</ele>
      </trkpt>
      <trkpt lat="43.61907" lon="6.28165">
        <ele>862.1</ele>
      </trkpt>
      <trkpt lat="43.61899" lon="6.28166">
        <ele>863.3</ele>
      </trkpt>
      <trkpt lat="43.61894" lon="6.28177">
        <ele>864.1</ele>
      </trkpt>
      <trkpt lat="43.61885" lon="6.28183">
        <ele>865.9</ele>
      </trkpt>
      <trkpt lat="43.61877" lon="6.28182">
        <ele>867.6</ele>
      </trkpt>
      <trkpt lat="43.61868" lon="6.28177">
        <ele>869.2</ele>
      </trkpt>
      <trkpt lat="43.61868" lon="6.28187">
        <ele>869.9</ele>
      </trkpt>
      <trkpt lat="43.6186" lon="6.28191">
        <ele>871.8</ele>
      </trkpt>
      <trkpt lat="43.61855" lon="6.28199">
        <ele>871.8</ele>
      </trkpt>
      <trkpt lat="43.61843" lon="6.28207">
        <ele>872</ele>
      </trkpt>
      <trkpt lat="43.61848" lon="6.28203">
        <ele>871.8</ele>
      </trkpt>
      <trkpt lat="43.61858" lon="6.28199">
        <ele>871.5</ele>
      </trkpt>
      <trkpt lat="43.61865" lon="6.28191">
        <ele>870.9</ele>
      </trkpt>
      <trkpt lat="43.6187" lon="6.28183">
        <ele>869.3</ele>
      </trkpt>
      <trkpt lat="43.61876" lon="6.28182">
        <ele>867.8</ele>
      </trkpt>
      <trkpt lat="43.61885" lon="6.28183">
        <ele>865.9</ele>
      </trkpt>
      <trkpt lat="43.61891" lon="6.2818">
        <ele>864.6</ele>
      </trkpt>
      <trkpt lat="43.61896" lon="6.28174">
        <ele>863.7</ele>
      </trkpt>
      <trkpt lat="43.61899" lon="6.28169">
        <ele>863.4</ele>
      </trkpt>
      <trkpt lat="43.61903" lon="6.28167">
        <ele>862.9</ele>
      </trkpt>
      <trkpt lat="43.61907" lon="6.28164">
        <ele>862</ele>
      </trkpt>
      <trkpt lat="43.61913" lon="6.2816">
        <ele>860.7</ele>
      </trkpt>
      <trkpt lat="43.61914" lon="6.28174">
        <ele>860.4</ele>
      </trkpt>
      <trkpt lat="43.61913" lon="6.28185">
        <ele>859.3</ele>
      </trkpt>
      <trkpt lat="43.61914" lon="6.28197">
        <ele>857.4</ele>
      </trkpt>
      <trkpt lat="43.61917" lon="6.28205">
        <ele>855.1</ele>
      </trkpt>
      <trkpt lat="43.6192" lon="6.28211">
        <ele>853.3</ele>
      </trkpt>
      <trkpt lat="43.61931" lon="6.28227">
        <ele>847.8</ele>
      </trkpt>
      <trkpt lat="43.61937" lon="6.28233">
        <ele>845.5</ele>
      </trkpt>
      <trkpt lat="43.61946" lon="6.28241">
        <ele>842.6</ele>
      </trkpt>
      <trkpt lat="43.61951" lon="6.28251">
        <ele>841.1</ele>
      </trkpt>
      <trkpt lat="43.61952" lon="6.28258">
        <ele>839.5</ele>
      </trkpt>
      <trkpt lat="43.61953" lon="6.28265">
        <ele>838.3</ele>
        <time>2021-04-18T09:19:06Z</time>
      </trkpt>
      <trkpt lat="43.61946" lon="6.28271">
        <ele>835.9</ele>
        <time>2021-04-18T09:19:15Z</time>
      </trkpt>
      <trkpt lat="43.61935" lon="6.2828">
        <ele>834.9</ele>
        <time>2021-04-18T09:19:24Z</time>
      </trkpt>
      <trkpt lat="43.61926" lon="6.28287">
        <ele>834.4</ele>
        <time>2021-04-18T09:19:34Z</time>
      </trkpt>
      <trkpt lat="43.61914" lon="6.28305">
        <ele>833.3</ele>
        <time>2021-04-18T09:19:45Z</time>
      </trkpt>
      <trkpt lat="43.61907" lon="6.28318">
        <ele>833.7</ele>
        <time>2021-04-18T09:19:53Z</time>
      </trkpt>
      <trkpt lat="43.61906" lon="6.2833">
        <ele>831.6</ele>
        <time>2021-04-18T09:20:02Z</time>
      </trkpt>
      <trkpt lat="43.61903" lon="6.2834">
        <ele>830</ele>
        <time>2021-04-18T09:20:11Z</time>
      </trkpt>
      <trkpt lat="43.61899" lon="6.28351">
        <ele>828.1</ele>
        <time>2021-04-18T09:20:21Z</time>
      </trkpt>
      <trkpt lat="43.61895" lon="6.28366">
        <ele>824.9</ele>
        <time>2021-04-18T09:20:32Z</time>
      </trkpt>
      <trkpt lat="43.61902" lon="6.28371">
        <ele>820.7</ele>
        <time>2021-04-18T09:20:44Z</time>
      </trkpt>
      <trkpt lat="43.61911" lon="6.28367">
        <ele>819.5</ele>
        <time>2021-04-18T09:20:53Z</time>
      </trkpt>
      <trkpt lat="43.61923" lon="6.28361">
        <ele>818.9</ele>
        <time>2021-04-18T09:21:06Z</time>
      </trkpt>
      <trkpt lat="43.61934" lon="6.28356">
        <ele>818.1</ele>
        <time>2021-04-18T09:21:16Z</time>
      </trkpt>
      <trkpt lat="43.61943" lon="6.28363">
        <ele>814.7</ele>
        <time>2021-04-18T09:21:25Z</time>
      </trkpt>
      <trkpt lat="43.61951" lon="6.28371">
        <ele>813.9</ele>
        <time>2021-04-18T09:21:32Z</time>
      </trkpt>
      <trkpt lat="43.61955" lon="6.28379">
        <ele>812.7</ele>
        <time>2021-04-18T09:21:40Z</time>
      </trkpt>
      <trkpt lat="43.61958" lon="6.2839">
        <ele>810.2</ele>
        <time>2021-04-18T09:21:50Z</time>
      </trkpt>
      <trkpt lat="43.61967" lon="6.28408">
        <ele>809.1</ele>
        <time>2021-04-18T09:22:09Z</time>
      </trkpt>
      <trkpt lat="43.61962" lon="6.28412">
        <ele>807.5</ele>
        <time>2021-04-18T09:22:28Z</time>
      </trkpt>
      <trkpt lat="43.61951" lon="6.28416">
        <ele>804.6</ele>
        <time>2021-04-18T09:22:43Z</time>
      </trkpt>
      <trkpt lat="43.61937" lon="6.28422">
        <ele>802.9</ele>
        <time>2021-04-18T09:22:55Z</time>
      </trkpt>
      <trkpt lat="43.61928" lon="6.28428">
        <ele>801.6</ele>
        <time>2021-04-18T09:23:05Z</time>
      </trkpt>
      <trkpt lat="43.61919" lon="6.28436">
        <ele>799.1</ele>
        <time>2021-04-18T09:23:15Z</time>
      </trkpt>
      <trkpt lat="43.61913" lon="6.28443">
        <ele>797.9</ele>
        <time>2021-04-18T09:23:24Z</time>
      </trkpt>
      <trkpt lat="43.61903" lon="6.28455">
        <ele>798.5</ele>
        <time>2021-04-18T09:23:36Z</time>
      </trkpt>
      <trkpt lat="43.61889" lon="6.28471">
        <ele>796.2</ele>
        <time>2021-04-18T09:23:45Z</time>
      </trkpt>
      <trkpt lat="43.61882" lon="6.28482">
        <ele>797.9</ele>
        <time>2021-04-18T09:23:54Z</time>
      </trkpt>
      <trkpt lat="43.6188" lon="6.28506">
        <ele>796.2</ele>
        <time>2021-04-18T09:24:05Z</time>
      </trkpt>
      <trkpt lat="43.61874" lon="6.28521">
        <ele>797.4</ele>
        <time>2021-04-18T09:24:13Z</time>
      </trkpt>
      <trkpt lat="43.61866" lon="6.28535">
        <ele>800.1</ele>
        <time>2021-04-18T09:24:21Z</time>
      </trkpt>
      <trkpt lat="43.61863" lon="6.28548">
        <ele>799.1</ele>
        <time>2021-04-18T09:24:29Z</time>
      </trkpt>
      <trkpt lat="43.6186" lon="6.2856">
        <ele>798.2</ele>
        <time>2021-04-18T09:24:37Z</time>
      </trkpt>
      <trkpt lat="43.61858" lon="6.28573">
        <ele>795.7</ele>
        <time>2021-04-18T09:24:45Z</time>
      </trkpt>
      <trkpt lat="43.61857" lon="6.28584">
        <ele>793</ele>
        <time>2021-04-18T09:24:54Z</time>
      </trkpt>
      <trkpt lat="43.61854" lon="6.28594">
        <ele>790.5</ele>
        <time>2021-04-18T09:25:05Z</time>
      </trkpt>
      <trkpt lat="43.6184" lon="6.28604">
        <ele>791.9</ele>
        <time>2021-04-18T09:25:17Z</time>
      </trkpt>
      <trkpt lat="43.6182" lon="6.28611">
        <ele>793.3</ele>
        <time>2021-04-18T09:25:26Z</time>
      </trkpt>
      <trkpt lat="43.61808" lon="6.28616">
        <ele>793</ele>
        <time>2021-04-18T09:25:34Z</time>
      </trkpt>
      <trkpt lat="43.61796" lon="6.28617">
        <ele>790.9</ele>
        <time>2021-04-18T09:25:43Z</time>
      </trkpt>
      <trkpt lat="43.61786" lon="6.28613">
        <ele>790.2</ele>
        <time>2021-04-18T09:25:57Z</time>
      </trkpt>
      <trkpt lat="43.61776" lon="6.28612">
        <ele>788.9</ele>
        <time>2021-04-18T09:26:09Z</time>
      </trkpt>
      <trkpt lat="43.61762" lon="6.28614">
        <ele>788.2</ele>
        <time>2021-04-18T09:26:22Z</time>
      </trkpt>
      <trkpt lat="43.61742" lon="6.28621">
        <ele>787.2</ele>
        <time>2021-04-18T09:26:36Z</time>
      </trkpt>
      <trkpt lat="43.61725" lon="6.28625">
        <ele>787.6</ele>
        <time>2021-04-18T09:26:48Z</time>
      </trkpt>
      <trkpt lat="43.61711" lon="6.28629">
        <ele>787</ele>
        <time>2021-04-18T09:27:00Z</time>
      </trkpt>
      <trkpt lat="43.61701" lon="6.28634">
        <ele>785.8</ele>
        <time>2021-04-18T09:27:09Z</time>
      </trkpt>
      <trkpt lat="43.61694" lon="6.28642">
        <ele>783.2</ele>
        <time>2021-04-18T09:27:19Z</time>
      </trkpt>
      <trkpt lat="43.61683" lon="6.28653">
        <ele>781.9</ele>
        <time>2021-04-18T09:27:30Z</time>
      </trkpt>
      <trkpt lat="43.61665" lon="6.28659">
        <ele>782.5</ele>
        <time>2021-04-18T09:27:39Z</time>
      </trkpt>
      <trkpt lat="43.61655" lon="6.28664">
        <ele>781.2</ele>
        <time>2021-04-18T09:27:47Z</time>
      </trkpt>
      <trkpt lat="43.61644" lon="6.28668">
        <ele>780.3</ele>
        <time>2021-04-18T09:27:55Z</time>
      </trkpt>
      <trkpt lat="43.61635" lon="6.28672">
        <ele>779.4</ele>
        <time>2021-04-18T09:28:03Z</time>
      </trkpt>
      <trkpt lat="43.61626" lon="6.28676">
        <ele>778.4</ele>
        <time>2021-04-18T09:28:11Z</time>
      </trkpt>
      <trkpt lat="43.61616" lon="6.2868">
        <ele>777.6</ele>
        <time>2021-04-18T09:28:19Z</time>
      </trkpt>
      <trkpt lat="43.61606" lon="6.28683">
        <ele>776.4</ele>
        <time>2021-04-18T09:28:27Z</time>
      </trkpt>
      <trkpt lat="43.61596" lon="6.28683">
        <ele>775.3</ele>
        <time>2021-04-18T09:28:35Z</time>
      </trkpt>
      <trkpt lat="43.61586" lon="6.28682">
        <ele>774.8</ele>
        <time>2021-04-18T09:28:43Z</time>
      </trkpt>
      <trkpt lat="43.61576" lon="6.2868">
        <ele>773.8</ele>
        <time>2021-04-18T09:28:51Z</time>
      </trkpt>
      <trkpt lat="43.61566" lon="6.28678">
        <ele>772.5</ele>
        <time>2021-04-18T09:28:59Z</time>
      </trkpt>
      <trkpt lat="43.61557" lon="6.28676">
        <ele>771.3</ele>
        <time>2021-04-18T09:29:07Z</time>
      </trkpt>
      <trkpt lat="43.61548" lon="6.28673">
        <ele>770.5</ele>
        <time>2021-04-18T09:29:15Z</time>
      </trkpt>
      <trkpt lat="43.6154" lon="6.2867">
        <ele>770.1</ele>
        <time>2021-04-18T09:31:30Z</time>
      </trkpt>
      <trkpt lat="43.6153" lon="6.28666">
        <ele>769.4</ele>
        <time>2021-04-18T09:31:38Z</time>
      </trkpt>
      <trkpt lat="43.6152" lon="6.2866">
        <ele>768.1</ele>
        <time>2021-04-18T09:31:46Z</time>
      </trkpt>
      <trkpt lat="43.61512" lon="6.28651">
        <ele>767.2</ele>
        <time>2021-04-18T09:32:04Z</time>
      </trkpt>
      <trkpt lat="43.61505" lon="6.28638">
        <ele>766.6</ele>
        <time>2021-04-18T09:32:26Z</time>
      </trkpt>
      <trkpt lat="43.615" lon="6.28629">
        <ele>765.9</ele>
        <time>2021-04-18T09:32:33Z</time>
      </trkpt>
      <trkpt lat="43.61496" lon="6.28617">
        <ele>765.4</ele>
        <time>2021-04-18T09:32:40Z</time>
      </trkpt>
      <trkpt lat="43.61494" lon="6.28603">
        <ele>764.3</ele>
        <time>2021-04-18T09:32:47Z</time>
      </trkpt>
      <trkpt lat="43.61496" lon="6.28591">
        <ele>764.1</ele>
        <time>2021-04-18T09:32:55Z</time>
      </trkpt>
      <trkpt lat="43.615" lon="6.28578">
        <ele>764.5</ele>
        <time>2021-04-18T09:33:03Z</time>
      </trkpt>
      <trkpt lat="43.61503" lon="6.28566">
        <ele>764.8</ele>
        <time>2021-04-18T09:33:10Z</time>
      </trkpt>
      <trkpt lat="43.61503" lon="6.28553">
        <ele>764.1</ele>
        <time>2021-04-18T09:33:17Z</time>
      </trkpt>
      <trkpt lat="43.61498" lon="6.28542">
        <ele>763.4</ele>
        <time>2021-04-18T09:33:24Z</time>
      </trkpt>
      <trkpt lat="43.61491" lon="6.28535">
        <ele>761.5</ele>
        <time>2021-04-18T09:33:32Z</time>
      </trkpt>
      <trkpt lat="43.61482" lon="6.28529">
        <ele>759.6</ele>
        <time>2021-04-18T09:33:41Z</time>
      </trkpt>
      <trkpt lat="43.61472" lon="6.28526">
        <ele>757.4</ele>
        <time>2021-04-18T09:33:49Z</time>
      </trkpt>
      <trkpt lat="43.61462" lon="6.28524">
        <ele>755.8</ele>
        <time>2021-04-18T09:33:57Z</time>
      </trkpt>
      <trkpt lat="43.61453" lon="6.28526">
        <ele>753.8</ele>
        <time>2021-04-18T09:34:05Z</time>
      </trkpt>
      <trkpt lat="43.61443" lon="6.28527">
        <ele>752</ele>
        <time>2021-04-18T09:34:14Z</time>
      </trkpt>
      <trkpt lat="43.61433" lon="6.28528">
        <ele>749.9</ele>
        <time>2021-04-18T09:34:23Z</time>
      </trkpt>
      <trkpt lat="43.61424" lon="6.28529">
        <ele>748.1</ele>
        <time>2021-04-18T09:34:32Z</time>
      </trkpt>
      <trkpt lat="43.61415" lon="6.28527">
        <ele>746.7</ele>
        <time>2021-04-18T09:34:41Z</time>
      </trkpt>
      <trkpt lat="43.61405" lon="6.28525">
        <ele>745.3</ele>
        <time>2021-04-18T09:34:50Z</time>
      </trkpt>
      <trkpt lat="43.61395" lon="6.28521">
        <ele>744</ele>
        <time>2021-04-18T09:34:58Z</time>
      </trkpt>
      <trkpt lat="43.61386" lon="6.2852">
        <ele>742.6</ele>
        <time>2021-04-18T09:35:07Z</time>
      </trkpt>
      <trkpt lat="43.61376" lon="6.28517">
        <ele>741.2</ele>
        <time>2021-04-18T09:35:16Z</time>
      </trkpt>
      <trkpt lat="43.61366" lon="6.28517">
        <ele>739.6</ele>
        <time>2021-04-18T09:35:25Z</time>
      </trkpt>
      <trkpt lat="43.61356" lon="6.28518">
        <ele>738</ele>
        <time>2021-04-18T09:35:34Z</time>
      </trkpt>
      <trkpt lat="43.61347" lon="6.28522">
        <ele>736.5</ele>
        <time>2021-04-18T09:35:43Z</time>
      </trkpt>
      <trkpt lat="43.61341" lon="6.28528">
        <ele>734.6</ele>
        <time>2021-04-18T09:35:52Z</time>
      </trkpt>
      <trkpt lat="43.61333" lon="6.28533">
        <ele>733</ele>
        <time>2021-04-18T09:36:02Z</time>
      </trkpt>
      <trkpt lat="43.61326" lon="6.28541">
        <ele>731.8</ele>
        <time>2021-04-18T09:36:13Z</time>
      </trkpt>
      <trkpt lat="43.6132" lon="6.28549">
        <ele>730.2</ele>
        <time>2021-04-18T09:36:22Z</time>
      </trkpt>
      <trkpt lat="43.61312" lon="6.28558">
        <ele>728.6</ele>
        <time>2021-04-18T09:36:31Z</time>
      </trkpt>
      <trkpt lat="43.61305" lon="6.28566">
        <ele>726.8</ele>
        <time>2021-04-18T09:36:39Z</time>
      </trkpt>
      <trkpt lat="43.61296" lon="6.28574">
        <ele>725.8</ele>
        <time>2021-04-18T09:36:47Z</time>
      </trkpt>
      <trkpt lat="43.61289" lon="6.28582">
        <ele>724.6</ele>
        <time>2021-04-18T09:36:55Z</time>
      </trkpt>
      <trkpt lat="43.6128" lon="6.2859">
        <ele>724.2</ele>
        <time>2021-04-18T09:37:04Z</time>
      </trkpt>
      <trkpt lat="43.61273" lon="6.286">
        <ele>723.2</ele>
        <time>2021-04-18T09:37:12Z</time>
      </trkpt>
      <trkpt lat="43.61263" lon="6.28609">
        <ele>722.2</ele>
        <time>2021-04-18T09:37:20Z</time>
      </trkpt>
      <trkpt lat="43.61255" lon="6.28617">
        <ele>721.6</ele>
        <time>2021-04-18T09:37:28Z</time>
      </trkpt>
      <trkpt lat="43.61248" lon="6.28629">
        <ele>720.9</ele>
        <time>2021-04-18T09:37:36Z</time>
      </trkpt>
      <trkpt lat="43.61242" lon="6.28642">
        <ele>720.8</ele>
        <time>2021-04-18T09:37:44Z</time>
      </trkpt>
      <trkpt lat="43.61238" lon="6.28656">
        <ele>720.2</ele>
        <time>2021-04-18T09:37:52Z</time>
      </trkpt>
      <trkpt lat="43.61234" lon="6.28668">
        <ele>719.9</ele>
        <time>2021-04-18T09:38:00Z</time>
      </trkpt>
      <trkpt lat="43.6123" lon="6.28679">
        <ele>719.6</ele>
        <time>2021-04-18T09:38:08Z</time>
      </trkpt>
      <trkpt lat="43.61228" lon="6.28692">
        <ele>718.7</ele>
        <time>2021-04-18T09:38:16Z</time>
      </trkpt>
      <trkpt lat="43.61228" lon="6.28705">
        <ele>717.2</ele>
        <time>2021-04-18T09:38:24Z</time>
      </trkpt>
      <trkpt lat="43.61224" lon="6.28718">
        <ele>716.2</ele>
        <time>2021-04-18T09:38:32Z</time>
      </trkpt>
      <trkpt lat="43.61222" lon="6.28732">
        <ele>713.8</ele>
        <time>2021-04-18T09:38:40Z</time>
      </trkpt>
      <trkpt lat="43.61214" lon="6.28742">
        <ele>713.3</ele>
        <time>2021-04-18T09:38:48Z</time>
      </trkpt>
      <trkpt lat="43.61205" lon="6.28752">
        <ele>712.9</ele>
        <time>2021-04-18T09:38:56Z</time>
      </trkpt>
      <trkpt lat="43.61198" lon="6.28762">
        <ele>712.5</ele>
        <time>2021-04-18T09:39:04Z</time>
      </trkpt>
      <trkpt lat="43.6119" lon="6.2877">
        <ele>711.4</ele>
        <time>2021-04-18T09:39:12Z</time>
      </trkpt>
      <trkpt lat="43.6118" lon="6.28775">
        <ele>710.4</ele>
        <time>2021-04-18T09:39:20Z</time>
      </trkpt>
      <trkpt lat="43.6117" lon="6.28778">
        <ele>709.9</ele>
        <time>2021-04-18T09:39:28Z</time>
      </trkpt>
      <trkpt lat="43.61161" lon="6.28782">
        <ele>709.6</ele>
        <time>2021-04-18T09:42:17Z</time>
      </trkpt>
      <trkpt lat="43.61152" lon="6.28788">
        <ele>709.1</ele>
        <time>2021-04-18T09:42:26Z</time>
      </trkpt>
      <trkpt lat="43.61145" lon="6.28797">
        <ele>708</ele>
        <time>2021-04-18T09:42:35Z</time>
      </trkpt>
      <trkpt lat="43.61139" lon="6.28808">
        <ele>706.8</ele>
        <time>2021-04-18T09:42:44Z</time>
      </trkpt>
      <trkpt lat="43.61132" lon="6.28818">
        <ele>706</ele>
        <time>2021-04-18T09:42:53Z</time>
      </trkpt>
      <trkpt lat="43.61122" lon="6.28825">
        <ele>705.2</ele>
        <time>2021-04-18T09:43:01Z</time>
      </trkpt>
      <trkpt lat="43.61113" lon="6.28829">
        <ele>704.5</ele>
        <time>2021-04-18T09:43:10Z</time>
      </trkpt>
      <trkpt lat="43.61103" lon="6.28831">
        <ele>704.4</ele>
        <time>2021-04-18T09:43:18Z</time>
      </trkpt>
      <trkpt lat="43.61095" lon="6.28834">
        <ele>704</ele>
        <time>2021-04-18T09:43:26Z</time>
      </trkpt>
      <trkpt lat="43.61087" lon="6.2884">
        <ele>703.4</ele>
        <time>2021-04-18T09:43:36Z</time>
      </trkpt>
      <trkpt lat="43.61079" lon="6.28845">
        <ele>702.8</ele>
        <time>2021-04-18T09:43:44Z</time>
      </trkpt>
      <trkpt lat="43.61069" lon="6.2885">
        <ele>702.2</ele>
        <time>2021-04-18T09:43:53Z</time>
      </trkpt>
      <trkpt lat="43.61061" lon="6.28857">
        <ele>701.5</ele>
        <time>2021-04-18T09:44:01Z</time>
      </trkpt>
      <trkpt lat="43.61052" lon="6.28862">
        <ele>700.6</ele>
        <time>2021-04-18T09:44:10Z</time>
      </trkpt>
      <trkpt lat="43.61042" lon="6.28866">
        <ele>699.6</ele>
        <time>2021-04-18T09:44:20Z</time>
      </trkpt>
      <trkpt lat="43.61032" lon="6.28873">
        <ele>698.8</ele>
        <time>2021-04-18T09:44:28Z</time>
      </trkpt>
      <trkpt lat="43.61023" lon="6.28877">
        <ele>698</ele>
        <time>2021-04-18T09:44:36Z</time>
      </trkpt>
      <trkpt lat="43.61015" lon="6.28881">
        <ele>697.4</ele>
        <time>2021-04-18T09:44:44Z</time>
      </trkpt>
      <trkpt lat="43.61005" lon="6.28885">
        <ele>696.9</ele>
        <time>2021-04-18T09:44:53Z</time>
      </trkpt>
      <trkpt lat="43.60995" lon="6.28887">
        <ele>697.1</ele>
        <time>2021-04-18T09:45:01Z</time>
      </trkpt>
      <trkpt lat="43.60984" lon="6.2889">
        <ele>697.4</ele>
        <time>2021-04-18T09:45:10Z</time>
      </trkpt>
      <trkpt lat="43.60976" lon="6.28893">
        <ele>697.4</ele>
        <time>2021-04-18T09:45:18Z</time>
      </trkpt>
      <trkpt lat="43.60966" lon="6.28896">
        <ele>697.8</ele>
        <time>2021-04-18T09:45:28Z</time>
      </trkpt>
      <trkpt lat="43.60957" lon="6.28899">
        <ele>698.4</ele>
        <time>2021-04-18T09:45:37Z</time>
      </trkpt>
      <trkpt lat="43.60948" lon="6.28902">
        <ele>699.1</ele>
        <time>2021-04-18T09:45:46Z</time>
      </trkpt>
      <trkpt lat="43.6094" lon="6.28895">
        <ele>700.2</ele>
        <time>2021-04-18T09:45:56Z</time>
      </trkpt>
      <trkpt lat="43.60936" lon="6.28884">
        <ele>701.2</ele>
        <time>2021-04-18T09:46:06Z</time>
      </trkpt>
      <trkpt lat="43.60932" lon="6.28871">
        <ele>701.7</ele>
        <time>2021-04-18T09:46:16Z</time>
      </trkpt>
      <trkpt lat="43.60927" lon="6.28859">
        <ele>702.5</ele>
        <time>2021-04-18T09:46:26Z</time>
      </trkpt>
      <trkpt lat="43.60921" lon="6.2885">
        <ele>702.9</ele>
        <time>2021-04-18T09:46:36Z</time>
      </trkpt>
      <trkpt lat="43.60915" lon="6.28841">
        <ele>703.5</ele>
        <time>2021-04-18T09:46:46Z</time>
      </trkpt>
      <trkpt lat="43.60907" lon="6.28832">
        <ele>704.8</ele>
        <time>2021-04-18T09:47:07Z</time>
      </trkpt>
      <trkpt lat="43.609" lon="6.28822">
        <ele>704.9</ele>
        <time>2021-04-18T09:47:17Z</time>
      </trkpt>
      <trkpt lat="43.60893" lon="6.28814">
        <ele>705</ele>
        <time>2021-04-18T09:47:26Z</time>
      </trkpt>
      <trkpt lat="43.60887" lon="6.28806">
        <ele>704.9</ele>
        <time>2021-04-18T09:47:35Z</time>
      </trkpt>
      <trkpt lat="43.6088" lon="6.28797">
        <ele>705.4</ele>
        <time>2021-04-18T09:47:44Z</time>
      </trkpt>
      <trkpt lat="43.60873" lon="6.28788">
        <ele>705.4</ele>
        <time>2021-04-18T09:47:53Z</time>
      </trkpt>
      <trkpt lat="43.60866" lon="6.28779">
        <ele>705.2</ele>
        <time>2021-04-18T09:48:02Z</time>
      </trkpt>
      <trkpt lat="43.60857" lon="6.28774">
        <ele>706</ele>
        <time>2021-04-18T09:48:11Z</time>
      </trkpt>
      <trkpt lat="43.6085" lon="6.28768">
        <ele>706.2</ele>
        <time>2021-04-18T09:48:22Z</time>
      </trkpt>
      <trkpt lat="43.60838" lon="6.28762">
        <ele>707.1</ele>
        <time>2021-04-18T09:48:32Z</time>
      </trkpt>
      <trkpt lat="43.60829" lon="6.28759">
        <ele>707.5</ele>
        <time>2021-04-18T09:48:41Z</time>
      </trkpt>
      <trkpt lat="43.60831" lon="6.28755">
        <ele>706.4</ele>
        <time>2021-04-18T09:49:16Z</time>
      </trkpt>
      <trkpt lat="43.60832" lon="6.28758">
        <ele>707</ele>
        <time>2021-04-18T09:50:29Z</time>
      </trkpt>
      <trkpt lat="43.60832" lon="6.28756">
        <ele>706.6</ele>
        <time>2021-04-18T10:22:54Z</time>
      </trkpt>
      <trkpt lat="43.60825" lon="6.28752">
        <ele>705.7</ele>
        <time>2021-04-18T10:23:02Z</time>
      </trkpt>
      <trkpt lat="43.60815" lon="6.28751">
        <ele>706.1</ele>
        <time>2021-04-18T10:23:11Z</time>
      </trkpt>
      <trkpt lat="43.60805" lon="6.28751">
        <ele>706.2</ele>
        <time>2021-04-18T10:23:20Z</time>
      </trkpt>
      <trkpt lat="43.60797" lon="6.28752">
        <ele>706.3</ele>
        <time>2021-04-18T10:23:28Z</time>
      </trkpt>
      <trkpt lat="43.60788" lon="6.28754">
        <ele>706.4</ele>
        <time>2021-04-18T10:23:38Z</time>
      </trkpt>
      <trkpt lat="43.60778" lon="6.28759">
        <ele>706.6</ele>
        <time>2021-04-18T10:23:48Z</time>
      </trkpt>
      <trkpt lat="43.60771" lon="6.28767">
        <ele>707</ele>
        <time>2021-04-18T10:23:59Z</time>
      </trkpt>
      <trkpt lat="43.60764" lon="6.28775">
        <ele>707.1</ele>
        <time>2021-04-18T10:24:07Z</time>
      </trkpt>
      <trkpt lat="43.60757" lon="6.28786">
        <ele>707.7</ele>
        <time>2021-04-18T10:24:16Z</time>
      </trkpt>
      <trkpt lat="43.6075" lon="6.28796">
        <ele>707.5</ele>
        <time>2021-04-18T10:24:24Z</time>
      </trkpt>
      <trkpt lat="43.60742" lon="6.28802">
        <ele>707</ele>
        <time>2021-04-18T10:24:37Z</time>
      </trkpt>
      <trkpt lat="43.60732" lon="6.28806">
        <ele>705.9</ele>
        <time>2021-04-18T10:24:47Z</time>
      </trkpt>
      <trkpt lat="43.60723" lon="6.28809">
        <ele>704.8</ele>
        <time>2021-04-18T10:24:56Z</time>
      </trkpt>
      <trkpt lat="43.60716" lon="6.2881">
        <ele>703.8</ele>
        <time>2021-04-18T10:25:21Z</time>
      </trkpt>
      <trkpt lat="43.60706" lon="6.28815">
        <ele>703</ele>
        <time>2021-04-18T10:25:31Z</time>
      </trkpt>
      <trkpt lat="43.60697" lon="6.28818">
        <ele>701.8</ele>
        <time>2021-04-18T10:25:42Z</time>
      </trkpt>
      <trkpt lat="43.60688" lon="6.28824">
        <ele>701.2</ele>
        <time>2021-04-18T10:25:54Z</time>
      </trkpt>
      <trkpt lat="43.60679" lon="6.28827">
        <ele>699.8</ele>
        <time>2021-04-18T10:26:04Z</time>
      </trkpt>
      <trkpt lat="43.60669" lon="6.28828">
        <ele>697.9</ele>
        <time>2021-04-18T10:26:14Z</time>
      </trkpt>
      <trkpt lat="43.60659" lon="6.28829">
        <ele>696.2</ele>
        <time>2021-04-18T10:26:23Z</time>
      </trkpt>
      <trkpt lat="43.6065" lon="6.28834">
        <ele>695.2</ele>
        <time>2021-04-18T10:26:31Z</time>
      </trkpt>
      <trkpt lat="43.60642" lon="6.28841">
        <ele>694.1</ele>
        <time>2021-04-18T10:26:38Z</time>
      </trkpt>
      <trkpt lat="43.60634" lon="6.28846">
        <ele>693.4</ele>
        <time>2021-04-18T10:26:45Z</time>
      </trkpt>
      <trkpt lat="43.60626" lon="6.28852">
        <ele>692.8</ele>
        <time>2021-04-18T10:26:53Z</time>
      </trkpt>
      <trkpt lat="43.60616" lon="6.28857">
        <ele>691.7</ele>
        <time>2021-04-18T10:27:01Z</time>
      </trkpt>
      <trkpt lat="43.60608" lon="6.28863">
        <ele>690.8</ele>
        <time>2021-04-18T10:27:09Z</time>
      </trkpt>
      <trkpt lat="43.606" lon="6.2887">
        <ele>690.5</ele>
        <time>2021-04-18T10:27:17Z</time>
      </trkpt>
      <trkpt lat="43.60592" lon="6.28877">
        <ele>690.2</ele>
        <time>2021-04-18T10:27:25Z</time>
      </trkpt>
      <trkpt lat="43.60596" lon="6.2889">
        <ele>690.8</ele>
        <time>2021-04-18T10:27:43Z</time>
      </trkpt>
      <trkpt lat="43.60604" lon="6.28899">
        <ele>691</ele>
        <time>2021-04-18T10:27:53Z</time>
      </trkpt>
      <trkpt lat="43.6061" lon="6.28908">
        <ele>691.2</ele>
        <time>2021-04-18T10:28:01Z</time>
      </trkpt>
      <trkpt lat="43.60615" lon="6.28919">
        <ele>691.6</ele>
        <time>2021-04-18T10:28:09Z</time>
      </trkpt>
      <trkpt lat="43.6062" lon="6.2893">
        <ele>691.9</ele>
        <time>2021-04-18T10:28:17Z</time>
      </trkpt>
      <trkpt lat="43.60621" lon="6.28943">
        <ele>691.6</ele>
        <time>2021-04-18T10:28:25Z</time>
      </trkpt>
      <trkpt lat="43.60623" lon="6.28956">
        <ele>691.3</ele>
        <time>2021-04-18T10:28:33Z</time>
      </trkpt>
      <trkpt lat="43.60624" lon="6.2897">
        <ele>690.9</ele>
        <time>2021-04-18T10:28:41Z</time>
      </trkpt>
      <trkpt lat="43.60626" lon="6.28983">
        <ele>690.1</ele>
        <time>2021-04-18T10:28:49Z</time>
      </trkpt>
      <trkpt lat="43.6063" lon="6.28995">
        <ele>689.5</ele>
        <time>2021-04-18T10:28:57Z</time>
      </trkpt>
      <trkpt lat="43.60634" lon="6.29007">
        <ele>689.2</ele>
        <time>2021-04-18T10:29:05Z</time>
      </trkpt>
      <trkpt lat="43.60641" lon="6.29018">
        <ele>689.2</ele>
        <time>2021-04-18T10:29:13Z</time>
      </trkpt>
      <trkpt lat="43.60648" lon="6.29025">
        <ele>689.6</ele>
        <time>2021-04-18T10:29:21Z</time>
      </trkpt>
      <trkpt lat="43.60653" lon="6.29035">
        <ele>688.9</ele>
        <time>2021-04-18T10:29:29Z</time>
      </trkpt>
      <trkpt lat="43.60658" lon="6.29047">
        <ele>688.2</ele>
        <time>2021-04-18T10:29:37Z</time>
      </trkpt>
      <trkpt lat="43.60665" lon="6.29059">
        <ele>687.8</ele>
        <time>2021-04-18T10:29:45Z</time>
      </trkpt>
      <trkpt lat="43.60672" lon="6.29065">
        <ele>687.7</ele>
        <time>2021-04-18T10:29:53Z</time>
      </trkpt>
      <trkpt lat="43.6068" lon="6.29072">
        <ele>687.5</ele>
        <time>2021-04-18T10:30:01Z</time>
      </trkpt>
      <trkpt lat="43.6069" lon="6.29078">
        <ele>687</ele>
        <time>2021-04-18T10:30:09Z</time>
      </trkpt>
      <trkpt lat="43.60698" lon="6.29084">
        <ele>686.4</ele>
        <time>2021-04-18T10:30:17Z</time>
      </trkpt>
      <trkpt lat="43.60698" lon="6.29095">
        <ele>684.4</ele>
        <time>2021-04-18T10:30:33Z</time>
      </trkpt>
      <trkpt lat="43.6069" lon="6.29102">
        <ele>682.1</ele>
        <time>2021-04-18T10:30:46Z</time>
      </trkpt>
      <trkpt lat="43.60682" lon="6.29111">
        <ele>679.6</ele>
        <time>2021-04-18T10:30:58Z</time>
      </trkpt>
      <trkpt lat="43.60675" lon="6.29118">
        <ele>677.7</ele>
        <time>2021-04-18T10:31:08Z</time>
      </trkpt>
      <trkpt lat="43.60668" lon="6.29126">
        <ele>676.4</ele>
        <time>2021-04-18T10:31:18Z</time>
      </trkpt>
      <trkpt lat="43.60661" lon="6.29133">
        <ele>675.4</ele>
        <time>2021-04-18T10:31:27Z</time>
      </trkpt>
      <trkpt lat="43.60652" lon="6.29139">
        <ele>674.5</ele>
        <time>2021-04-18T10:31:36Z</time>
      </trkpt>
      <trkpt lat="43.60651" lon="6.29147">
        <ele>673.9</ele>
        <time>2021-04-18T10:31:46Z</time>
      </trkpt>
      <trkpt lat="43.60657" lon="6.29156">
        <ele>673.3</ele>
        <time>2021-04-18T10:31:55Z</time>
      </trkpt>
      <trkpt lat="43.60663" lon="6.29164">
        <ele>672.4</ele>
        <time>2021-04-18T10:32:05Z</time>
      </trkpt>
      <trkpt lat="43.60671" lon="6.29168">
        <ele>671</ele>
        <time>2021-04-18T10:32:15Z</time>
      </trkpt>
      <trkpt lat="43.60679" lon="6.29165">
        <ele>669.5</ele>
        <time>2021-04-18T10:32:23Z</time>
      </trkpt>
      <trkpt lat="43.60689" lon="6.2916">
        <ele>668.6</ele>
        <time>2021-04-18T10:32:32Z</time>
      </trkpt>
      <trkpt lat="43.60695" lon="6.29158">
        <ele>668</ele>
        <time>2021-04-18T10:32:41Z</time>
      </trkpt>
      <trkpt lat="43.60702" lon="6.29165">
        <ele>667</ele>
        <time>2021-04-18T10:32:51Z</time>
      </trkpt>
      <trkpt lat="43.60708" lon="6.29176">
        <ele>664.2</ele>
        <time>2021-04-18T10:33:02Z</time>
      </trkpt>
      <trkpt lat="43.60714" lon="6.29184">
        <ele>662.2</ele>
        <time>2021-04-18T10:33:11Z</time>
      </trkpt>
      <trkpt lat="43.60723" lon="6.29186">
        <ele>661.9</ele>
        <time>2021-04-18T10:33:20Z</time>
      </trkpt>
      <trkpt lat="43.60732" lon="6.29192">
        <ele>661.3</ele>
        <time>2021-04-18T10:33:29Z</time>
      </trkpt>
      <trkpt lat="43.60738" lon="6.29204">
        <ele>661.4</ele>
        <time>2021-04-18T10:33:39Z</time>
      </trkpt>
      <trkpt lat="43.60736" lon="6.29215">
        <ele>661.3</ele>
        <time>2021-04-18T10:33:49Z</time>
      </trkpt>
      <trkpt lat="43.60725" lon="6.29217">
        <ele>659.5</ele>
        <time>2021-04-18T10:34:00Z</time>
      </trkpt>
      <trkpt lat="43.60721" lon="6.29229">
        <ele>659.4</ele>
        <time>2021-04-18T10:34:09Z</time>
      </trkpt>
      <trkpt lat="43.60712" lon="6.29239">
        <ele>659.1</ele>
        <time>2021-04-18T10:34:17Z</time>
      </trkpt>
      <trkpt lat="43.60705" lon="6.29247">
        <ele>658.5</ele>
        <time>2021-04-18T10:34:25Z</time>
      </trkpt>
      <trkpt lat="43.60699" lon="6.29258">
        <ele>658.3</ele>
        <time>2021-04-18T10:34:33Z</time>
      </trkpt>
      <trkpt lat="43.60693" lon="6.29268">
        <ele>658.2</ele>
        <time>2021-04-18T10:34:41Z</time>
      </trkpt>
      <trkpt lat="43.60686" lon="6.2928">
        <ele>658.6</ele>
        <time>2021-04-18T10:34:49Z</time>
      </trkpt>
      <trkpt lat="43.60679" lon="6.29288">
        <ele>659</ele>
        <time>2021-04-18T10:34:58Z</time>
      </trkpt>
      <trkpt lat="43.60668" lon="6.29295">
        <ele>658.7</ele>
        <time>2021-04-18T10:35:06Z</time>
      </trkpt>
      <trkpt lat="43.60659" lon="6.29299">
        <ele>657.9</ele>
        <time>2021-04-18T10:35:14Z</time>
      </trkpt>
      <trkpt lat="43.60649" lon="6.29301">
        <ele>656.6</ele>
        <time>2021-04-18T10:35:22Z</time>
      </trkpt>
      <trkpt lat="43.60642" lon="6.29308">
        <ele>656</ele>
        <time>2021-04-18T10:35:30Z</time>
      </trkpt>
      <trkpt lat="43.60634" lon="6.2932">
        <ele>656.4</ele>
        <time>2021-04-18T10:35:39Z</time>
      </trkpt>
      <trkpt lat="43.60629" lon="6.29331">
        <ele>656.6</ele>
        <time>2021-04-18T10:35:47Z</time>
      </trkpt>
      <trkpt lat="43.60621" lon="6.29338">
        <ele>655.8</ele>
        <time>2021-04-18T10:35:55Z</time>
      </trkpt>
      <trkpt lat="43.60612" lon="6.29342">
        <ele>655</ele>
        <time>2021-04-18T10:36:03Z</time>
      </trkpt>
      <trkpt lat="43.60604" lon="6.29349">
        <ele>655.1</ele>
        <time>2021-04-18T10:36:11Z</time>
      </trkpt>
      <trkpt lat="43.60595" lon="6.29356">
        <ele>654.4</ele>
        <time>2021-04-18T10:36:19Z</time>
      </trkpt>
      <trkpt lat="43.60586" lon="6.29361">
        <ele>652.8</ele>
        <time>2021-04-18T10:36:28Z</time>
      </trkpt>
      <trkpt lat="43.60582" lon="6.29373">
        <ele>651.1</ele>
        <time>2021-04-18T10:37:09Z</time>
      </trkpt>
      <trkpt lat="43.6059" lon="6.29377">
        <ele>651.6</ele>
        <time>2021-04-18T10:37:20Z</time>
      </trkpt>
      <trkpt lat="43.60601" lon="6.29379">
        <ele>652.3</ele>
        <time>2021-04-18T10:37:32Z</time>
      </trkpt>
      <trkpt lat="43.60612" lon="6.29379">
        <ele>653.3</ele>
        <time>2021-04-18T10:37:41Z</time>
      </trkpt>
      <trkpt lat="43.60621" lon="6.29379">
        <ele>653.5</ele>
        <time>2021-04-18T10:37:51Z</time>
      </trkpt>
      <trkpt lat="43.60629" lon="6.29385">
        <ele>652</ele>
        <time>2021-04-18T10:38:00Z</time>
      </trkpt>
      <trkpt lat="43.6064" lon="6.29389">
        <ele>651.2</ele>
        <time>2021-04-18T10:38:08Z</time>
      </trkpt>
      <trkpt lat="43.60649" lon="6.29395">
        <ele>651.7</ele>
        <time>2021-04-18T10:38:18Z</time>
      </trkpt>
      <trkpt lat="43.60648" lon="6.29402">
        <ele>651.4</ele>
        <time>2021-04-18T10:40:52Z</time>
      </trkpt>
      <trkpt lat="43.60656" lon="6.29403">
        <ele>652</ele>
        <time>2021-04-18T10:41:04Z</time>
      </trkpt>
      <trkpt lat="43.60665" lon="6.29405">
        <ele>652.6</ele>
        <time>2021-04-18T10:41:17Z</time>
      </trkpt>
      <trkpt lat="43.60674" lon="6.29413">
        <ele>653.1</ele>
        <time>2021-04-18T10:41:44Z</time>
      </trkpt>
      <trkpt lat="43.60679" lon="6.29406">
        <ele>654.6</ele>
        <time>2021-04-18T10:42:18Z</time>
      </trkpt>
      <trkpt lat="43.6068" lon="6.29397">
        <ele>655.8</ele>
        <time>2021-04-18T10:43:02Z</time>
      </trkpt>
      <trkpt lat="43.60683" lon="6.29402">
        <ele>655.7</ele>
        <time>2021-04-18T10:43:26Z</time>
      </trkpt>
      <trkpt lat="43.60684" lon="6.29415">
        <ele>654.1</ele>
        <time>2021-04-18T10:43:40Z</time>
      </trkpt>
      <trkpt lat="43.60691" lon="6.29425">
        <ele>654.4</ele>
        <time>2021-04-18T10:43:58Z</time>
      </trkpt>
      <trkpt lat="43.60698" lon="6.29435">
        <ele>655.2</ele>
        <time>2021-04-18T10:44:09Z</time>
      </trkpt>
      <trkpt lat="43.60703" lon="6.29448">
        <ele>655.5</ele>
        <time>2021-04-18T10:44:19Z</time>
      </trkpt>
      <trkpt lat="43.60708" lon="6.29458">
        <ele>655.7</ele>
        <time>2021-04-18T10:44:29Z</time>
      </trkpt>
      <trkpt lat="43.60713" lon="6.29459">
        <ele>656.3</ele>
        <time>2021-04-18T10:45:23Z</time>
      </trkpt>
      <trkpt lat="43.60719" lon="6.2947">
        <ele>656</ele>
        <time>2021-04-18T10:45:32Z</time>
      </trkpt>
      <trkpt lat="43.60722" lon="6.29483">
        <ele>655.6</ele>
        <time>2021-04-18T10:45:40Z</time>
      </trkpt>
      <trkpt lat="43.60726" lon="6.29496">
        <ele>656.7</ele>
        <time>2021-04-18T10:45:49Z</time>
      </trkpt>
      <trkpt lat="43.6073" lon="6.29508">
        <ele>657.7</ele>
        <time>2021-04-18T10:45:58Z</time>
      </trkpt>
      <trkpt lat="43.60732" lon="6.29522">
        <ele>658.4</ele>
        <time>2021-04-18T10:46:06Z</time>
      </trkpt>
      <trkpt lat="43.60734" lon="6.29536">
        <ele>658.9</ele>
        <time>2021-04-18T10:46:14Z</time>
      </trkpt>
      <trkpt lat="43.60736" lon="6.29549">
        <ele>659</ele>
        <time>2021-04-18T10:46:24Z</time>
      </trkpt>
      <trkpt lat="43.60736" lon="6.29563">
        <ele>658.9</ele>
        <time>2021-04-18T10:46:32Z</time>
      </trkpt>
      <trkpt lat="43.60741" lon="6.29577">
        <ele>658.9</ele>
        <time>2021-04-18T10:46:41Z</time>
      </trkpt>
      <trkpt lat="43.60747" lon="6.29589">
        <ele>658.8</ele>
        <time>2021-04-18T10:46:49Z</time>
      </trkpt>
      <trkpt lat="43.60748" lon="6.29602">
        <ele>658.4</ele>
        <time>2021-04-18T10:46:57Z</time>
      </trkpt>
      <trkpt lat="43.60751" lon="6.29617">
        <ele>658.7</ele>
        <time>2021-04-18T10:47:05Z</time>
      </trkpt>
      <trkpt lat="43.60753" lon="6.29631">
        <ele>659.9</ele>
        <time>2021-04-18T10:47:14Z</time>
      </trkpt>
      <trkpt lat="43.60757" lon="6.29645">
        <ele>662</ele>
        <time>2021-04-18T10:47:24Z</time>
      </trkpt>
      <trkpt lat="43.60762" lon="6.29657">
        <ele>663.1</ele>
        <time>2021-04-18T10:47:32Z</time>
      </trkpt>
      <trkpt lat="43.6077" lon="6.29668">
        <ele>661.9</ele>
        <time>2021-04-18T10:47:40Z</time>
      </trkpt>
      <trkpt lat="43.60776" lon="6.29677">
        <ele>661.5</ele>
        <time>2021-04-18T10:47:48Z</time>
      </trkpt>
      <trkpt lat="43.60779" lon="6.2969">
        <ele>661.3</ele>
        <time>2021-04-18T10:47:56Z</time>
      </trkpt>
      <trkpt lat="43.6078" lon="6.29704">
        <ele>662.7</ele>
        <time>2021-04-18T10:48:05Z</time>
      </trkpt>
      <trkpt lat="43.60787" lon="6.29714">
        <ele>663.8</ele>
        <time>2021-04-18T10:48:14Z</time>
      </trkpt>
      <trkpt lat="43.60794" lon="6.2972">
        <ele>663.4</ele>
        <time>2021-04-18T10:48:22Z</time>
      </trkpt>
      <trkpt lat="43.60803" lon="6.29725">
        <ele>662.7</ele>
        <time>2021-04-18T10:48:31Z</time>
      </trkpt>
      <trkpt lat="43.60813" lon="6.29734">
        <ele>665.7</ele>
        <time>2021-04-18T10:48:40Z</time>
      </trkpt>
      <trkpt lat="43.60816" lon="6.29746">
        <ele>667.5</ele>
        <time>2021-04-18T10:48:48Z</time>
      </trkpt>
      <trkpt lat="43.60816" lon="6.2976">
        <ele>668.2</ele>
        <time>2021-04-18T10:48:57Z</time>
      </trkpt>
      <trkpt lat="43.60814" lon="6.29774">
        <ele>668.1</ele>
        <time>2021-04-18T10:49:07Z</time>
      </trkpt>
      <trkpt lat="43.60812" lon="6.29788">
        <ele>668.9</ele>
        <time>2021-04-18T10:49:18Z</time>
      </trkpt>
      <trkpt lat="43.60818" lon="6.298">
        <ele>669.7</ele>
        <time>2021-04-18T10:49:27Z</time>
      </trkpt>
      <trkpt lat="43.60825" lon="6.29805">
        <ele>668.6</ele>
        <time>2021-04-18T10:49:35Z</time>
      </trkpt>
      <trkpt lat="43.60831" lon="6.2981">
        <ele>668.8</ele>
        <time>2021-04-18T10:49:43Z</time>
      </trkpt>
      <trkpt lat="43.60839" lon="6.29814">
        <ele>670.3</ele>
        <time>2021-04-18T10:49:51Z</time>
      </trkpt>
      <trkpt lat="43.60848" lon="6.2982">
        <ele>671.3</ele>
        <time>2021-04-18T10:50:00Z</time>
      </trkpt>
      <trkpt lat="43.60854" lon="6.29831">
        <ele>670.8</ele>
        <time>2021-04-18T10:50:59Z</time>
      </trkpt>
      <trkpt lat="43.60864" lon="6.2984">
        <ele>670</ele>
        <time>2021-04-18T10:51:07Z</time>
      </trkpt>
      <trkpt lat="43.60871" lon="6.2985">
        <ele>671.4</ele>
        <time>2021-04-18T10:51:15Z</time>
      </trkpt>
      <trkpt lat="43.60874" lon="6.29861">
        <ele>672</ele>
        <time>2021-04-18T10:51:26Z</time>
      </trkpt>
      <trkpt lat="43.60881" lon="6.29869">
        <ele>674</ele>
        <time>2021-04-18T10:51:34Z</time>
      </trkpt>
      <trkpt lat="43.60889" lon="6.29879">
        <ele>674</ele>
        <time>2021-04-18T10:51:43Z</time>
      </trkpt>
      <trkpt lat="43.60898" lon="6.29885">
        <ele>674.7</ele>
        <time>2021-04-18T10:51:52Z</time>
      </trkpt>
      <trkpt lat="43.60904" lon="6.29892">
        <ele>674.9</ele>
        <time>2021-04-18T10:52:01Z</time>
      </trkpt>
      <trkpt lat="43.6091" lon="6.29902">
        <ele>675.7</ele>
        <time>2021-04-18T10:52:10Z</time>
      </trkpt>
      <trkpt lat="43.60912" lon="6.29916">
        <ele>676.8</ele>
        <time>2021-04-18T10:52:19Z</time>
      </trkpt>
      <trkpt lat="43.60913" lon="6.29928">
        <ele>677.1</ele>
        <time>2021-04-18T10:52:28Z</time>
      </trkpt>
      <trkpt lat="43.60913" lon="6.29943">
        <ele>677.4</ele>
        <time>2021-04-18T10:52:37Z</time>
      </trkpt>
      <trkpt lat="43.60914" lon="6.29955">
        <ele>676.7</ele>
        <time>2021-04-18T10:52:46Z</time>
      </trkpt>
      <trkpt lat="43.60915" lon="6.29967">
        <ele>675.4</ele>
        <time>2021-04-18T10:52:56Z</time>
      </trkpt>
      <trkpt lat="43.60918" lon="6.29981">
        <ele>674.9</ele>
        <time>2021-04-18T10:53:05Z</time>
      </trkpt>
      <trkpt lat="43.6092" lon="6.29992">
        <ele>676.3</ele>
        <time>2021-04-18T10:53:14Z</time>
      </trkpt>
      <trkpt lat="43.60918" lon="6.29983">
        <ele>674.9</ele>
        <time>2021-04-18T10:53:35Z</time>
      </trkpt>
      <trkpt lat="43.60919" lon="6.29991">
        <ele>675.6</ele>
        <time>2021-04-18T10:54:32Z</time>
      </trkpt>
      <trkpt lat="43.60922" lon="6.30002">
        <ele>677.4</ele>
        <time>2021-04-18T10:54:42Z</time>
      </trkpt>
      <trkpt lat="43.60924" lon="6.30017">
        <ele>678.4</ele>
        <time>2021-04-18T10:54:58Z</time>
      </trkpt>
      <trkpt lat="43.60925" lon="6.3003">
        <ele>678.6</ele>
        <time>2021-04-18T10:55:07Z</time>
      </trkpt>
      <trkpt lat="43.60916" lon="6.30037">
        <ele>676.5</ele>
        <time>2021-04-18T10:55:17Z</time>
      </trkpt>
      <trkpt lat="43.60907" lon="6.30045">
        <ele>678.6</ele>
        <time>2021-04-18T10:55:29Z</time>
      </trkpt>
      <trkpt lat="43.60898" lon="6.30052">
        <ele>679.1</ele>
        <time>2021-04-18T10:55:43Z</time>
      </trkpt>
      <trkpt lat="43.60889" lon="6.30059">
        <ele>679.8</ele>
        <time>2021-04-18T10:55:56Z</time>
      </trkpt>
      <trkpt lat="43.60883" lon="6.30066">
        <ele>682</ele>
        <time>2021-04-18T10:56:06Z</time>
      </trkpt>
      <trkpt lat="43.60876" lon="6.30077">
        <ele>682.8</ele>
        <time>2021-04-18T10:56:15Z</time>
      </trkpt>
      <trkpt lat="43.60868" lon="6.30088">
        <ele>681.8</ele>
        <time>2021-04-18T10:56:24Z</time>
      </trkpt>
      <trkpt lat="43.60864" lon="6.301">
        <ele>681.4</ele>
        <time>2021-04-18T10:56:33Z</time>
      </trkpt>
      <trkpt lat="43.60862" lon="6.30113">
        <ele>681.3</ele>
        <time>2021-04-18T10:56:43Z</time>
      </trkpt>
      <trkpt lat="43.60857" lon="6.30125">
        <ele>682.8</ele>
        <time>2021-04-18T10:56:52Z</time>
      </trkpt>
      <trkpt lat="43.60856" lon="6.30138">
        <ele>683.4</ele>
        <time>2021-04-18T10:57:01Z</time>
      </trkpt>
      <trkpt lat="43.60854" lon="6.30152">
        <ele>684.5</ele>
        <time>2021-04-18T10:57:10Z</time>
      </trkpt>
      <trkpt lat="43.60853" lon="6.30165">
        <ele>685.7</ele>
        <time>2021-04-18T10:57:18Z</time>
      </trkpt>
      <trkpt lat="43.60852" lon="6.30179">
        <ele>686.3</ele>
        <time>2021-04-18T10:57:26Z</time>
      </trkpt>
      <trkpt lat="43.60853" lon="6.30192">
        <ele>686.4</ele>
        <time>2021-04-18T10:57:34Z</time>
      </trkpt>
      <trkpt lat="43.60852" lon="6.30206">
        <ele>687</ele>
        <time>2021-04-18T10:57:42Z</time>
      </trkpt>
      <trkpt lat="43.6085" lon="6.30217">
        <ele>687.4</ele>
        <time>2021-04-18T10:57:50Z</time>
      </trkpt>
      <trkpt lat="43.60849" lon="6.30231">
        <ele>687.9</ele>
        <time>2021-04-18T10:57:58Z</time>
      </trkpt>
      <trkpt lat="43.60848" lon="6.30244">
        <ele>688.6</ele>
        <time>2021-04-18T10:58:06Z</time>
      </trkpt>
      <trkpt lat="43.60846" lon="6.30259">
        <ele>689.1</ele>
        <time>2021-04-18T10:58:15Z</time>
      </trkpt>
      <trkpt lat="43.60848" lon="6.30272">
        <ele>689.4</ele>
        <time>2021-04-18T10:58:30Z</time>
      </trkpt>
      <trkpt lat="43.60846" lon="6.30287">
        <ele>689.1</ele>
        <time>2021-04-18T10:58:48Z</time>
      </trkpt>
      <trkpt lat="43.60842" lon="6.30299">
        <ele>687.7</ele>
        <time>2021-04-18T10:58:56Z</time>
      </trkpt>
      <trkpt lat="43.60835" lon="6.30311">
        <ele>686.3</ele>
        <time>2021-04-18T10:59:04Z</time>
      </trkpt>
      <trkpt lat="43.6083" lon="6.30324">
        <ele>688</ele>
        <time>2021-04-18T10:59:22Z</time>
      </trkpt>
      <trkpt lat="43.60822" lon="6.30333">
        <ele>689</ele>
        <time>2021-04-18T10:59:30Z</time>
      </trkpt>
      <trkpt lat="43.60815" lon="6.30345">
        <ele>689.2</ele>
        <time>2021-04-18T10:59:38Z</time>
      </trkpt>
      <trkpt lat="43.60806" lon="6.30355">
        <ele>688.2</ele>
        <time>2021-04-18T10:59:46Z</time>
      </trkpt>
      <trkpt lat="43.60798" lon="6.30364">
        <ele>689.8</ele>
        <time>2021-04-18T10:59:54Z</time>
      </trkpt>
      <trkpt lat="43.60793" lon="6.30375">
        <ele>691.3</ele>
        <time>2021-04-18T11:00:02Z</time>
      </trkpt>
      <trkpt lat="43.60791" lon="6.30388">
        <ele>692</ele>
        <time>2021-04-18T11:00:10Z</time>
      </trkpt>
      <trkpt lat="43.60788" lon="6.30399">
        <ele>691.5</ele>
        <time>2021-04-18T11:00:17Z</time>
      </trkpt>
      <trkpt lat="43.60782" lon="6.30411">
        <ele>689.6</ele>
        <time>2021-04-18T11:00:27Z</time>
      </trkpt>
      <trkpt lat="43.60776" lon="6.30426">
        <ele>689.1</ele>
        <time>2021-04-18T11:00:36Z</time>
      </trkpt>
      <trkpt lat="43.60768" lon="6.30436">
        <ele>690</ele>
        <time>2021-04-18T11:00:44Z</time>
      </trkpt>
      <trkpt lat="43.60759" lon="6.30446">
        <ele>689.7</ele>
        <time>2021-04-18T11:00:52Z</time>
      </trkpt>
      <trkpt lat="43.60752" lon="6.30452">
        <ele>689.4</ele>
        <time>2021-04-18T11:01:00Z</time>
      </trkpt>
      <trkpt lat="43.60744" lon="6.30462">
        <ele>690</ele>
        <time>2021-04-18T11:01:08Z</time>
      </trkpt>
      <trkpt lat="43.60739" lon="6.30473">
        <ele>690.4</ele>
        <time>2021-04-18T11:01:16Z</time>
      </trkpt>
      <trkpt lat="43.60736" lon="6.30485">
        <ele>690.5</ele>
        <time>2021-04-18T11:01:24Z</time>
      </trkpt>
      <trkpt lat="43.60732" lon="6.30497">
        <ele>690.4</ele>
        <time>2021-04-18T11:01:32Z</time>
      </trkpt>
      <trkpt lat="43.60725" lon="6.30507">
        <ele>690.4</ele>
        <time>2021-04-18T11:01:41Z</time>
      </trkpt>
      <trkpt lat="43.60718" lon="6.30517">
        <ele>690.9</ele>
        <time>2021-04-18T11:01:49Z</time>
      </trkpt>
      <trkpt lat="43.60711" lon="6.30527">
        <ele>691.4</ele>
        <time>2021-04-18T11:01:58Z</time>
      </trkpt>
      <trkpt lat="43.60706" lon="6.30538">
        <ele>691.7</ele>
        <time>2021-04-18T11:02:07Z</time>
      </trkpt>
      <trkpt lat="43.607" lon="6.30548">
        <ele>691.5</ele>
        <time>2021-04-18T11:02:15Z</time>
      </trkpt>
      <trkpt lat="43.60695" lon="6.30559">
        <ele>691.2</ele>
        <time>2021-04-18T11:02:24Z</time>
      </trkpt>
      <trkpt lat="43.60693" lon="6.30571">
        <ele>691.7</ele>
        <time>2021-04-18T11:02:33Z</time>
      </trkpt>
      <trkpt lat="43.60692" lon="6.30584">
        <ele>692.2</ele>
        <time>2021-04-18T11:02:42Z</time>
      </trkpt>
      <trkpt lat="43.6069" lon="6.30597">
        <ele>692.7</ele>
        <time>2021-04-18T11:02:51Z</time>
      </trkpt>
      <trkpt lat="43.60685" lon="6.30609">
        <ele>693.3</ele>
        <time>2021-04-18T11:02:59Z</time>
      </trkpt>
      <trkpt lat="43.60678" lon="6.3062">
        <ele>693.7</ele>
        <time>2021-04-18T11:03:07Z</time>
      </trkpt>
      <trkpt lat="43.60673" lon="6.30632">
        <ele>693.5</ele>
        <time>2021-04-18T11:03:15Z</time>
      </trkpt>
      <trkpt lat="43.60669" lon="6.30643">
        <ele>693.4</ele>
        <time>2021-04-18T11:03:23Z</time>
      </trkpt>
      <trkpt lat="43.60662" lon="6.30651">
        <ele>694</ele>
        <time>2021-04-18T11:03:31Z</time>
      </trkpt>
      <trkpt lat="43.60654" lon="6.3066">
        <ele>694.4</ele>
        <time>2021-04-18T11:03:39Z</time>
      </trkpt>
      <trkpt lat="43.60648" lon="6.30669">
        <ele>694.5</ele>
        <time>2021-04-18T11:03:47Z</time>
      </trkpt>
      <trkpt lat="43.60639" lon="6.30678">
        <ele>694.8</ele>
        <time>2021-04-18T11:03:55Z</time>
      </trkpt>
      <trkpt lat="43.6063" lon="6.30682">
        <ele>695.2</ele>
        <time>2021-04-18T11:04:03Z</time>
      </trkpt>
      <trkpt lat="43.60622" lon="6.30688">
        <ele>695.3</ele>
        <time>2021-04-18T11:04:12Z</time>
      </trkpt>
      <trkpt lat="43.60612" lon="6.30693">
        <ele>695.1</ele>
        <time>2021-04-18T11:04:22Z</time>
      </trkpt>
      <trkpt lat="43.60604" lon="6.30687">
        <ele>695.7</ele>
        <time>2021-04-18T11:04:31Z</time>
      </trkpt>
      <trkpt lat="43.60596" lon="6.30686">
        <ele>696.2</ele>
        <time>2021-04-18T11:04:39Z</time>
      </trkpt>
      <trkpt lat="43.60587" lon="6.3069">
        <ele>696.8</ele>
        <time>2021-04-18T11:04:48Z</time>
      </trkpt>
      <trkpt lat="43.60578" lon="6.30693">
        <ele>697.4</ele>
        <time>2021-04-18T11:04:59Z</time>
      </trkpt>
      <trkpt lat="43.60569" lon="6.30689">
        <ele>698</ele>
        <time>2021-04-18T11:07:42Z</time>
      </trkpt>
      <trkpt lat="43.6056" lon="6.30686">
        <ele>698.7</ele>
        <time>2021-04-18T11:07:52Z</time>
      </trkpt>
      <trkpt lat="43.6055" lon="6.30686">
        <ele>699.4</ele>
        <time>2021-04-18T11:08:02Z</time>
      </trkpt>
      <trkpt lat="43.60542" lon="6.30689">
        <ele>700</ele>
        <time>2021-04-18T11:08:11Z</time>
      </trkpt>
      <trkpt lat="43.60531" lon="6.30692">
        <ele>700.8</ele>
        <time>2021-04-18T11:08:20Z</time>
      </trkpt>
      <trkpt lat="43.60521" lon="6.30693">
        <ele>701.5</ele>
        <time>2021-04-18T11:08:29Z</time>
      </trkpt>
      <trkpt lat="43.60511" lon="6.30694">
        <ele>702.2</ele>
        <time>2021-04-18T11:08:38Z</time>
      </trkpt>
      <trkpt lat="43.60502" lon="6.30695">
        <ele>702.9</ele>
        <time>2021-04-18T11:08:47Z</time>
      </trkpt>
      <trkpt lat="43.60492" lon="6.30697">
        <ele>703.5</ele>
        <time>2021-04-18T11:08:56Z</time>
      </trkpt>
      <trkpt lat="43.60484" lon="6.30702">
        <ele>704.1</ele>
        <time>2021-04-18T11:09:05Z</time>
      </trkpt>
      <trkpt lat="43.60476" lon="6.30706">
        <ele>704.7</ele>
        <time>2021-04-18T11:09:14Z</time>
      </trkpt>
      <trkpt lat="43.60467" lon="6.30709">
        <ele>705.5</ele>
        <time>2021-04-18T11:09:23Z</time>
      </trkpt>
      <trkpt lat="43.60458" lon="6.30714">
        <ele>706.2</ele>
        <time>2021-04-18T11:09:32Z</time>
      </trkpt>
      <trkpt lat="43.6045" lon="6.30723">
        <ele>706.6</ele>
        <time>2021-04-18T11:09:42Z</time>
      </trkpt>
      <trkpt lat="43.60441" lon="6.3073">
        <ele>707.3</ele>
        <time>2021-04-18T11:09:52Z</time>
      </trkpt>
      <trkpt lat="43.60434" lon="6.3074">
        <ele>707.9</ele>
        <time>2021-04-18T11:10:03Z</time>
      </trkpt>
      <trkpt lat="43.60422" lon="6.30744">
        <ele>708.8</ele>
        <time>2021-04-18T11:10:13Z</time>
      </trkpt>
      <trkpt lat="43.60413" lon="6.30743">
        <ele>709.5</ele>
        <time>2021-04-18T11:10:22Z</time>
      </trkpt>
      <trkpt lat="43.60404" lon="6.30737">
        <ele>710.4</ele>
        <time>2021-04-18T11:10:31Z</time>
      </trkpt>
      <trkpt lat="43.60393" lon="6.30737">
        <ele>711.2</ele>
        <time>2021-04-18T11:10:40Z</time>
      </trkpt>
      <trkpt lat="43.60384" lon="6.30734">
        <ele>712.1</ele>
        <time>2021-04-18T11:10:50Z</time>
      </trkpt>
      <trkpt lat="43.60374" lon="6.30732">
        <ele>713.2</ele>
        <time>2021-04-18T11:10:59Z</time>
      </trkpt>
      <trkpt lat="43.60365" lon="6.30729">
        <ele>714.3</ele>
        <time>2021-04-18T11:11:09Z</time>
      </trkpt>
      <trkpt lat="43.60356" lon="6.3073">
        <ele>715.2</ele>
        <time>2021-04-18T11:11:18Z</time>
      </trkpt>
      <trkpt lat="43.60347" lon="6.30731">
        <ele>716.1</ele>
        <time>2021-04-18T11:11:27Z</time>
      </trkpt>
      <trkpt lat="43.60338" lon="6.3074">
        <ele>716.3</ele>
        <time>2021-04-18T11:11:37Z</time>
      </trkpt>
      <trkpt lat="43.60328" lon="6.30747">
        <ele>716.6</ele>
        <time>2021-04-18T11:11:46Z</time>
      </trkpt>
      <trkpt lat="43.60319" lon="6.3075">
        <ele>717</ele>
        <time>2021-04-18T11:11:54Z</time>
      </trkpt>
      <trkpt lat="43.60311" lon="6.30757">
        <ele>717.2</ele>
        <time>2021-04-18T11:12:02Z</time>
      </trkpt>
      <trkpt lat="43.60303" lon="6.30761">
        <ele>717.4</ele>
        <time>2021-04-18T11:12:11Z</time>
      </trkpt>
      <trkpt lat="43.60293" lon="6.30766">
        <ele>717.8</ele>
        <time>2021-04-18T11:12:20Z</time>
      </trkpt>
      <trkpt lat="43.60283" lon="6.30768">
        <ele>718.3</ele>
        <time>2021-04-18T11:12:29Z</time>
      </trkpt>
      <trkpt lat="43.60275" lon="6.30771">
        <ele>718.8</ele>
        <time>2021-04-18T11:12:38Z</time>
      </trkpt>
      <trkpt lat="43.60266" lon="6.30776">
        <ele>719</ele>
        <time>2021-04-18T11:12:46Z</time>
      </trkpt>
      <trkpt lat="43.60257" lon="6.30781">
        <ele>719.2</ele>
        <time>2021-04-18T11:12:55Z</time>
      </trkpt>
      <trkpt lat="43.60246" lon="6.30785">
        <ele>719.9</ele>
        <time>2021-04-18T11:13:05Z</time>
      </trkpt>
      <trkpt lat="43.60238" lon="6.3079">
        <ele>720.7</ele>
        <time>2021-04-18T11:13:13Z</time>
      </trkpt>
      <trkpt lat="43.60229" lon="6.30795">
        <ele>721.3</ele>
        <time>2021-04-18T11:13:22Z</time>
      </trkpt>
      <trkpt lat="43.6022" lon="6.30802">
        <ele>721.5</ele>
        <time>2021-04-18T11:13:31Z</time>
      </trkpt>
      <trkpt lat="43.60212" lon="6.3081">
        <ele>721.3</ele>
        <time>2021-04-18T11:13:39Z</time>
      </trkpt>
      <trkpt lat="43.60203" lon="6.30815">
        <ele>721.2</ele>
        <time>2021-04-18T11:13:47Z</time>
      </trkpt>
      <trkpt lat="43.60193" lon="6.30821">
        <ele>721.5</ele>
        <time>2021-04-18T11:13:56Z</time>
      </trkpt>
      <trkpt lat="43.60184" lon="6.30828">
        <ele>721.8</ele>
        <time>2021-04-18T11:14:04Z</time>
      </trkpt>
      <trkpt lat="43.60175" lon="6.30833">
        <ele>722.1</ele>
        <time>2021-04-18T11:14:11Z</time>
      </trkpt>
      <trkpt lat="43.60168" lon="6.3084">
        <ele>722.4</ele>
        <time>2021-04-18T11:14:19Z</time>
      </trkpt>
      <trkpt lat="43.60158" lon="6.30847">
        <ele>723.1</ele>
        <time>2021-04-18T11:14:28Z</time>
      </trkpt>
      <trkpt lat="43.60149" lon="6.30854">
        <ele>723.9</ele>
        <time>2021-04-18T11:14:37Z</time>
      </trkpt>
      <trkpt lat="43.60141" lon="6.30861">
        <ele>724.7</ele>
        <time>2021-04-18T11:14:46Z</time>
      </trkpt>
      <trkpt lat="43.60132" lon="6.30863">
        <ele>725.7</ele>
        <time>2021-04-18T11:14:57Z</time>
      </trkpt>
      <trkpt lat="43.60121" lon="6.30861">
        <ele>726.9</ele>
        <time>2021-04-18T11:15:06Z</time>
      </trkpt>
      <trkpt lat="43.60112" lon="6.3086">
        <ele>728</ele>
        <time>2021-04-18T11:15:16Z</time>
      </trkpt>
      <trkpt lat="43.60106" lon="6.30849">
        <ele>729.1</ele>
        <time>2021-04-18T11:15:25Z</time>
      </trkpt>
      <trkpt lat="43.60099" lon="6.30838">
        <ele>730.2</ele>
        <time>2021-04-18T11:15:35Z</time>
      </trkpt>
      <trkpt lat="43.60092" lon="6.30831">
        <ele>730.9</ele>
        <time>2021-04-18T11:15:44Z</time>
      </trkpt>
      <trkpt lat="43.60081" lon="6.30827">
        <ele>731.1</ele>
        <time>2021-04-18T11:15:52Z</time>
      </trkpt>
      <trkpt lat="43.60073" lon="6.30831">
        <ele>730.2</ele>
        <time>2021-04-18T11:16:00Z</time>
      </trkpt>
      <trkpt lat="43.60066" lon="6.30836">
        <ele>729.8</ele>
        <time>2021-04-18T11:16:07Z</time>
      </trkpt>
      <trkpt lat="43.60059" lon="6.30844">
        <ele>729.9</ele>
        <time>2021-04-18T11:16:15Z</time>
      </trkpt>
      <trkpt lat="43.6005" lon="6.30851">
        <ele>730.3</ele>
        <time>2021-04-18T11:16:23Z</time>
      </trkpt>
      <trkpt lat="43.60041" lon="6.30853">
        <ele>730.3</ele>
        <time>2021-04-18T11:16:30Z</time>
      </trkpt>
      <trkpt lat="43.60031" lon="6.30852">
        <ele>729.8</ele>
        <time>2021-04-18T11:16:37Z</time>
      </trkpt>
      <trkpt lat="43.60021" lon="6.3085">
        <ele>729.2</ele>
        <time>2021-04-18T11:16:45Z</time>
      </trkpt>
      <trkpt lat="43.60011" lon="6.30848">
        <ele>728.8</ele>
        <time>2021-04-18T11:16:53Z</time>
      </trkpt>
      <trkpt lat="43.60002" lon="6.30841">
        <ele>728.3</ele>
        <time>2021-04-18T11:17:01Z</time>
      </trkpt>
      <trkpt lat="43.59996" lon="6.30832">
        <ele>727.8</ele>
        <time>2021-04-18T11:17:09Z</time>
      </trkpt>
      <trkpt lat="43.59987" lon="6.30829">
        <ele>727.1</ele>
        <time>2021-04-18T11:17:17Z</time>
      </trkpt>
      <trkpt lat="43.59978" lon="6.30828">
        <ele>726.7</ele>
        <time>2021-04-18T11:17:25Z</time>
      </trkpt>
      <trkpt lat="43.59969" lon="6.30824">
        <ele>726</ele>
        <time>2021-04-18T11:17:33Z</time>
      </trkpt>
      <trkpt lat="43.5996" lon="6.3083">
        <ele>726.3</ele>
        <time>2021-04-18T11:17:41Z</time>
      </trkpt>
      <trkpt lat="43.59951" lon="6.30837">
        <ele>726.6</ele>
        <time>2021-04-18T11:17:49Z</time>
      </trkpt>
      <trkpt lat="43.59944" lon="6.30843">
        <ele>727.1</ele>
        <time>2021-04-18T11:17:57Z</time>
      </trkpt>
      <trkpt lat="43.59934" lon="6.30849">
        <ele>728.7</ele>
        <time>2021-04-18T11:18:06Z</time>
      </trkpt>
      <trkpt lat="43.59925" lon="6.30856">
        <ele>730.1</ele>
        <time>2021-04-18T11:18:17Z</time>
      </trkpt>
      <trkpt lat="43.59913" lon="6.30862">
        <ele>730.9</ele>
        <time>2021-04-18T11:18:27Z</time>
      </trkpt>
      <trkpt lat="43.59905" lon="6.30862">
        <ele>730.6</ele>
        <time>2021-04-18T11:18:36Z</time>
      </trkpt>
      <trkpt lat="43.59896" lon="6.3086">
        <ele>730.3</ele>
        <time>2021-04-18T11:18:44Z</time>
      </trkpt>
      <trkpt lat="43.59887" lon="6.30861">
        <ele>730</ele>
        <time>2021-04-18T11:18:52Z</time>
      </trkpt>
      <trkpt lat="43.59878" lon="6.30865">
        <ele>729.6</ele>
        <time>2021-04-18T11:19:00Z</time>
      </trkpt>
      <trkpt lat="43.59868" lon="6.30867">
        <ele>729.1</ele>
        <time>2021-04-18T11:19:08Z</time>
      </trkpt>
      <trkpt lat="43.59859" lon="6.30868">
        <ele>728</ele>
        <time>2021-04-18T11:19:16Z</time>
      </trkpt>
      <trkpt lat="43.59853" lon="6.30862">
        <ele>727.6</ele>
        <time>2021-04-18T11:19:24Z</time>
      </trkpt>
      <trkpt lat="43.59847" lon="6.30855">
        <ele>726.5</ele>
        <time>2021-04-18T11:19:33Z</time>
      </trkpt>
      <trkpt lat="43.59843" lon="6.30842">
        <ele>725.8</ele>
        <time>2021-04-18T11:19:44Z</time>
      </trkpt>
      <trkpt lat="43.59838" lon="6.3083">
        <ele>724.9</ele>
        <time>2021-04-18T11:19:53Z</time>
      </trkpt>
      <trkpt lat="43.59829" lon="6.30821">
        <ele>723.2</ele>
        <time>2021-04-18T11:20:02Z</time>
      </trkpt>
      <trkpt lat="43.5982" lon="6.30814">
        <ele>721.8</ele>
        <time>2021-04-18T11:20:10Z</time>
      </trkpt>
      <trkpt lat="43.59811" lon="6.30812">
        <ele>720</ele>
        <time>2021-04-18T11:20:17Z</time>
      </trkpt>
      <trkpt lat="43.59801" lon="6.30814">
        <ele>718.3</ele>
        <time>2021-04-18T11:20:26Z</time>
      </trkpt>
      <trkpt lat="43.59792" lon="6.30818">
        <ele>718</ele>
        <time>2021-04-18T11:20:34Z</time>
      </trkpt>
      <trkpt lat="43.59782" lon="6.30822">
        <ele>718</ele>
        <time>2021-04-18T11:20:42Z</time>
      </trkpt>
      <trkpt lat="43.59774" lon="6.30826">
        <ele>717.3</ele>
        <time>2021-04-18T11:20:50Z</time>
      </trkpt>
      <trkpt lat="43.59763" lon="6.3083">
        <ele>716.3</ele>
        <time>2021-04-18T11:21:00Z</time>
      </trkpt>
      <trkpt lat="43.59758" lon="6.3083">
        <ele>715.9</ele>
        <time>2021-04-18T11:22:50Z</time>
      </trkpt>
      <trkpt lat="43.59753" lon="6.30837">
        <ele>715.4</ele>
        <time>2021-04-18T11:24:10Z</time>
      </trkpt>
      <trkpt lat="43.59746" lon="6.30834">
        <ele>714.7</ele>
        <time>2021-04-18T11:24:54Z</time>
      </trkpt>
      <trkpt lat="43.5975" lon="6.30844">
        <ele>714.3</ele>
        <time>2021-04-18T11:25:02Z</time>
      </trkpt>
      <trkpt lat="43.59741" lon="6.30851">
        <ele>711.8</ele>
        <time>2021-04-18T11:25:10Z</time>
      </trkpt>
      <trkpt lat="43.59733" lon="6.30859">
        <ele>710.2</ele>
        <time>2021-04-18T11:25:19Z</time>
      </trkpt>
      <trkpt lat="43.59728" lon="6.3085">
        <ele>709.3</ele>
        <time>2021-04-18T11:25:27Z</time>
      </trkpt>
      <trkpt lat="43.59727" lon="6.30836">
        <ele>708.5</ele>
        <time>2021-04-18T11:25:36Z</time>
      </trkpt>
      <trkpt lat="43.59725" lon="6.30823">
        <ele>706.7</ele>
        <time>2021-04-18T11:25:44Z</time>
      </trkpt>
      <trkpt lat="43.59723" lon="6.30809">
        <ele>704.7</ele>
        <time>2021-04-18T11:25:52Z</time>
      </trkpt>
      <trkpt lat="43.59725" lon="6.30796">
        <ele>704</ele>
        <time>2021-04-18T11:26:00Z</time>
      </trkpt>
      <trkpt lat="43.59726" lon="6.30784">
        <ele>703.5</ele>
        <time>2021-04-18T11:26:07Z</time>
      </trkpt>
      <trkpt lat="43.59728" lon="6.30771">
        <ele>703.5</ele>
        <time>2021-04-18T11:26:15Z</time>
      </trkpt>
      <trkpt lat="43.59727" lon="6.30759">
        <ele>703</ele>
        <time>2021-04-18T11:26:22Z</time>
      </trkpt>
      <trkpt lat="43.59717" lon="6.30759">
        <ele>701</ele>
        <time>2021-04-18T11:26:30Z</time>
      </trkpt>
      <trkpt lat="43.59711" lon="6.30769">
        <ele>699.9</ele>
        <time>2021-04-18T11:26:37Z</time>
      </trkpt>
      <trkpt lat="43.59702" lon="6.30774">
        <ele>698.4</ele>
        <time>2021-04-18T11:26:45Z</time>
      </trkpt>
      <trkpt lat="43.59696" lon="6.30784">
        <ele>696.7</ele>
        <time>2021-04-18T11:26:53Z</time>
      </trkpt>
      <trkpt lat="43.59691" lon="6.30794">
        <ele>695.4</ele>
        <time>2021-04-18T11:27:01Z</time>
      </trkpt>
      <trkpt lat="43.59685" lon="6.30806">
        <ele>695.1</ele>
        <time>2021-04-18T11:27:10Z</time>
      </trkpt>
      <trkpt lat="43.59685" lon="6.30816">
        <ele>696.1</ele>
        <time>2021-04-18T11:27:20Z</time>
      </trkpt>
      <trkpt lat="43.59684" lon="6.3083">
        <ele>697.6</ele>
        <time>2021-04-18T11:27:43Z</time>
      </trkpt>
      <trkpt lat="43.59683" lon="6.3084">
        <ele>698.2</ele>
        <time>2021-04-18T11:27:54Z</time>
      </trkpt>
      <trkpt lat="43.59686" lon="6.30852">
        <ele>699.1</ele>
        <time>2021-04-18T11:28:21Z</time>
      </trkpt>
      <trkpt lat="43.59695" lon="6.3086">
        <ele>701.1</ele>
        <time>2021-04-18T11:28:32Z</time>
      </trkpt>
      <trkpt lat="43.59701" lon="6.30859">
        <ele>702.6</ele>
        <time>2021-04-18T11:29:08Z</time>
      </trkpt>
      <trkpt lat="43.59701" lon="6.30847">
        <ele>701.3</ele>
        <time>2021-04-18T11:29:21Z</time>
      </trkpt>
      <trkpt lat="43.59704" lon="6.30835">
        <ele>701.2</ele>
        <time>2021-04-18T11:29:32Z</time>
      </trkpt>
      <trkpt lat="43.59708" lon="6.30825">
        <ele>701.3</ele>
        <time>2021-04-18T11:29:47Z</time>
      </trkpt>
      <trkpt lat="43.59701" lon="6.30818">
        <ele>698</ele>
        <time>2021-04-18T11:29:57Z</time>
      </trkpt>
      <trkpt lat="43.59693" lon="6.30816">
        <ele>695.6</ele>
        <time>2021-04-18T11:30:05Z</time>
      </trkpt>
      <trkpt lat="43.59685" lon="6.30813">
        <ele>695.9</ele>
        <time>2021-04-18T11:30:14Z</time>
      </trkpt>
      <trkpt lat="43.59679" lon="6.30802">
        <ele>695.8</ele>
        <time>2021-04-18T11:30:22Z</time>
      </trkpt>
      <trkpt lat="43.59671" lon="6.30792">
        <ele>696.3</ele>
        <time>2021-04-18T11:30:30Z</time>
      </trkpt>
      <trkpt lat="43.59666" lon="6.3078">
        <ele>696</ele>
        <time>2021-04-18T11:30:38Z</time>
      </trkpt>
      <trkpt lat="43.59659" lon="6.30772">
        <ele>694.6</ele>
        <time>2021-04-18T11:30:46Z</time>
      </trkpt>
      <trkpt lat="43.5965" lon="6.30765">
        <ele>693.1</ele>
        <time>2021-04-18T11:30:55Z</time>
      </trkpt>
      <trkpt lat="43.59642" lon="6.30761">
        <ele>692</ele>
        <time>2021-04-18T11:31:05Z</time>
      </trkpt>
      <trkpt lat="43.59633" lon="6.30756">
        <ele>690.6</ele>
        <time>2021-04-18T11:31:15Z</time>
      </trkpt>
      <trkpt lat="43.59624" lon="6.30751">
        <ele>688.9</ele>
        <time>2021-04-18T11:31:25Z</time>
      </trkpt>
      <trkpt lat="43.59615" lon="6.30744">
        <ele>687.1</ele>
        <time>2021-04-18T11:31:34Z</time>
      </trkpt>
      <trkpt lat="43.59606" lon="6.30737">
        <ele>685.8</ele>
        <time>2021-04-18T11:31:43Z</time>
      </trkpt>
      <trkpt lat="43.59598" lon="6.30733">
        <ele>684.8</ele>
        <time>2021-04-18T11:31:52Z</time>
      </trkpt>
      <trkpt lat="43.59588" lon="6.3073">
        <ele>683.9</ele>
        <time>2021-04-18T11:32:01Z</time>
      </trkpt>
      <trkpt lat="43.59579" lon="6.30732">
        <ele>683.1</ele>
        <time>2021-04-18T11:32:11Z</time>
      </trkpt>
      <trkpt lat="43.5957" lon="6.30735">
        <ele>682.1</ele>
        <time>2021-04-18T11:32:20Z</time>
      </trkpt>
      <trkpt lat="43.5956" lon="6.30739">
        <ele>680.6</ele>
        <time>2021-04-18T11:32:30Z</time>
      </trkpt>
      <trkpt lat="43.59555" lon="6.30752">
        <ele>680</ele>
        <time>2021-04-18T11:32:39Z</time>
      </trkpt>
      <trkpt lat="43.59551" lon="6.30765">
        <ele>679.8</ele>
        <time>2021-04-18T11:32:49Z</time>
      </trkpt>
      <trkpt lat="43.59545" lon="6.30776">
        <ele>679.1</ele>
        <time>2021-04-18T11:32:58Z</time>
      </trkpt>
      <trkpt lat="43.59534" lon="6.30786">
        <ele>677.4</ele>
        <time>2021-04-18T11:33:08Z</time>
      </trkpt>
      <trkpt lat="43.59524" lon="6.30786">
        <ele>675.9</ele>
        <time>2021-04-18T11:33:17Z</time>
      </trkpt>
      <trkpt lat="43.59514" lon="6.30784">
        <ele>674.8</ele>
        <time>2021-04-18T11:33:27Z</time>
      </trkpt>
      <trkpt lat="43.59505" lon="6.30784">
        <ele>673.8</ele>
        <time>2021-04-18T11:33:37Z</time>
      </trkpt>
      <trkpt lat="43.59497" lon="6.30781">
        <ele>672.8</ele>
        <time>2021-04-18T11:33:48Z</time>
      </trkpt>
      <trkpt lat="43.59491" lon="6.30794">
        <ele>672.4</ele>
        <time>2021-04-18T11:35:18Z</time>
      </trkpt>
      <trkpt lat="43.59489" lon="6.30808">
        <ele>672.5</ele>
        <time>2021-04-18T11:35:31Z</time>
      </trkpt>
      <trkpt lat="43.59487" lon="6.30824">
        <ele>672.8</ele>
        <time>2021-04-18T11:35:44Z</time>
      </trkpt>
      <trkpt lat="43.59489" lon="6.30838">
        <ele>673.1</ele>
        <time>2021-04-18T11:35:57Z</time>
      </trkpt>
      <trkpt lat="43.59495" lon="6.30848">
        <ele>673.3</ele>
        <time>2021-04-18T11:36:09Z</time>
      </trkpt>
      <trkpt lat="43.59501" lon="6.30859">
        <ele>673.3</ele>
        <time>2021-04-18T11:36:20Z</time>
      </trkpt>
      <trkpt lat="43.59505" lon="6.30872">
        <ele>674.5</ele>
        <time>2021-04-18T11:36:33Z</time>
      </trkpt>
      <trkpt lat="43.59502" lon="6.30887">
        <ele>675.9</ele>
        <time>2021-04-18T11:36:52Z</time>
      </trkpt>
      <trkpt lat="43.59497" lon="6.30903">
        <ele>676.6</ele>
        <time>2021-04-18T11:37:05Z</time>
      </trkpt>
      <trkpt lat="43.59497" lon="6.30912">
        <ele>677.1</ele>
        <time>2021-04-18T11:37:35Z</time>
      </trkpt>
      <trkpt lat="43.59502" lon="6.30928">
        <ele>679.4</ele>
        <time>2021-04-18T11:37:47Z</time>
      </trkpt>
      <trkpt lat="43.59507" lon="6.3094">
        <ele>681.4</ele>
        <time>2021-04-18T11:37:58Z</time>
      </trkpt>
      <trkpt lat="43.59509" lon="6.30954">
        <ele>682.9</ele>
        <time>2021-04-18T11:38:10Z</time>
      </trkpt>
      <trkpt lat="43.59513" lon="6.30967">
        <ele>684.5</ele>
        <time>2021-04-18T11:38:51Z</time>
      </trkpt>
      <trkpt lat="43.59522" lon="6.30977">
        <ele>685.4</ele>
        <time>2021-04-18T11:39:01Z</time>
      </trkpt>
      <trkpt lat="43.59529" lon="6.30986">
        <ele>685.6</ele>
        <time>2021-04-18T11:39:18Z</time>
      </trkpt>
      <trkpt lat="43.59534" lon="6.30997">
        <ele>685.6</ele>
        <time>2021-04-18T11:39:27Z</time>
      </trkpt>
      <trkpt lat="43.59541" lon="6.31008">
        <ele>685.8</ele>
        <time>2021-04-18T11:39:36Z</time>
      </trkpt>
      <trkpt lat="43.59546" lon="6.3102">
        <ele>686.1</ele>
        <time>2021-04-18T11:39:45Z</time>
      </trkpt>
      <trkpt lat="43.59553" lon="6.31032">
        <ele>686.7</ele>
        <time>2021-04-18T11:39:54Z</time>
      </trkpt>
      <trkpt lat="43.59557" lon="6.31044">
        <ele>687.3</ele>
        <time>2021-04-18T11:40:03Z</time>
      </trkpt>
      <trkpt lat="43.59562" lon="6.31054">
        <ele>687.9</ele>
        <time>2021-04-18T11:40:12Z</time>
      </trkpt>
      <trkpt lat="43.59566" lon="6.31066">
        <ele>688</ele>
        <time>2021-04-18T11:40:21Z</time>
      </trkpt>
      <trkpt lat="43.59571" lon="6.31079">
        <ele>688</ele>
        <time>2021-04-18T11:40:35Z</time>
      </trkpt>
      <trkpt lat="43.59573" lon="6.31094">
        <ele>686.9</ele>
        <time>2021-04-18T11:40:44Z</time>
      </trkpt>
      <trkpt lat="43.5958" lon="6.31107">
        <ele>686.6</ele>
        <time>2021-04-18T11:40:54Z</time>
      </trkpt>
      <trkpt lat="43.59587" lon="6.31118">
        <ele>687.2</ele>
        <time>2021-04-18T11:41:03Z</time>
      </trkpt>
      <trkpt lat="43.59594" lon="6.31128">
        <ele>687.2</ele>
        <time>2021-04-18T11:41:14Z</time>
      </trkpt>
      <trkpt lat="43.59604" lon="6.31139">
        <ele>687.3</ele>
        <time>2021-04-18T11:42:26Z</time>
      </trkpt>
      <trkpt lat="43.59615" lon="6.31149">
        <ele>688.4</ele>
        <time>2021-04-18T11:42:36Z</time>
      </trkpt>
      <trkpt lat="43.59625" lon="6.3116">
        <ele>688.8</ele>
        <time>2021-04-18T11:42:46Z</time>
      </trkpt>
      <trkpt lat="43.59627" lon="6.31173">
        <ele>689.4</ele>
        <time>2021-04-18T11:42:55Z</time>
      </trkpt>
      <trkpt lat="43.59631" lon="6.31186">
        <ele>691.2</ele>
        <time>2021-04-18T11:43:05Z</time>
      </trkpt>
      <trkpt lat="43.59639" lon="6.31201">
        <ele>693.5</ele>
        <time>2021-04-18T11:43:23Z</time>
      </trkpt>
      <trkpt lat="43.59645" lon="6.31213">
        <ele>695.9</ele>
        <time>2021-04-18T11:43:37Z</time>
      </trkpt>
      <trkpt lat="43.59652" lon="6.31224">
        <ele>697.8</ele>
        <time>2021-04-18T11:43:55Z</time>
      </trkpt>
      <trkpt lat="43.59651" lon="6.31237">
        <ele>699.9</ele>
        <time>2021-04-18T11:44:10Z</time>
      </trkpt>
      <trkpt lat="43.59654" lon="6.31251">
        <ele>702.1</ele>
        <time>2021-04-18T11:45:32Z</time>
      </trkpt>
      <trkpt lat="43.59661" lon="6.31259">
        <ele>703.3</ele>
        <time>2021-04-18T11:45:43Z</time>
      </trkpt>
      <trkpt lat="43.59668" lon="6.31272">
        <ele>705.6</ele>
        <time>2021-04-18T11:45:57Z</time>
      </trkpt>
      <trkpt lat="43.59675" lon="6.31281">
        <ele>707.3</ele>
        <time>2021-04-18T11:46:08Z</time>
      </trkpt>
      <trkpt lat="43.59683" lon="6.31289">
        <ele>709</ele>
        <time>2021-04-18T11:46:20Z</time>
      </trkpt>
      <trkpt lat="43.59692" lon="6.31298">
        <ele>710.9</ele>
        <time>2021-04-18T11:46:31Z</time>
      </trkpt>
      <trkpt lat="43.59698" lon="6.31308">
        <ele>712.7</ele>
        <time>2021-04-18T11:46:43Z</time>
      </trkpt>
      <trkpt lat="43.59704" lon="6.31319">
        <ele>714.3</ele>
        <time>2021-04-18T11:46:54Z</time>
      </trkpt>
      <trkpt lat="43.5971" lon="6.31329">
        <ele>715.9</ele>
        <time>2021-04-18T11:47:06Z</time>
      </trkpt>
      <trkpt lat="43.59715" lon="6.31344">
        <ele>718.3</ele>
        <time>2021-04-18T11:47:19Z</time>
      </trkpt>
      <trkpt lat="43.59719" lon="6.31359">
        <ele>721</ele>
        <time>2021-04-18T11:47:32Z</time>
      </trkpt>
      <trkpt lat="43.5972" lon="6.3137">
        <ele>722.3</ele>
        <time>2021-04-18T11:47:48Z</time>
      </trkpt>
      <trkpt lat="43.5972" lon="6.31382">
        <ele>723.1</ele>
        <time>2021-04-18T11:48:17Z</time>
      </trkpt>
      <trkpt lat="43.59721" lon="6.31395">
        <ele>724.5</ele>
        <time>2021-04-18T11:48:27Z</time>
      </trkpt>
      <trkpt lat="43.59722" lon="6.31411">
        <ele>726.4</ele>
        <time>2021-04-18T11:48:38Z</time>
      </trkpt>
      <trkpt lat="43.59721" lon="6.31425">
        <ele>728</ele>
        <time>2021-04-18T11:48:49Z</time>
      </trkpt>
      <trkpt lat="43.59722" lon="6.31438">
        <ele>730</ele>
        <time>2021-04-18T11:49:01Z</time>
      </trkpt>
      <trkpt lat="43.59726" lon="6.31451">
        <ele>732.1</ele>
        <time>2021-04-18T11:49:15Z</time>
      </trkpt>
      <trkpt lat="43.59725" lon="6.31464">
        <ele>732.9</ele>
        <time>2021-04-18T11:49:27Z</time>
      </trkpt>
      <trkpt lat="43.59726" lon="6.3148">
        <ele>734.3</ele>
        <time>2021-04-18T11:49:40Z</time>
      </trkpt>
      <trkpt lat="43.59732" lon="6.31493">
        <ele>736.2</ele>
        <time>2021-04-18T11:49:52Z</time>
      </trkpt>
      <trkpt lat="43.59736" lon="6.31503">
        <ele>737.7</ele>
        <time>2021-04-18T11:50:02Z</time>
      </trkpt>
      <trkpt lat="43.59742" lon="6.31516">
        <ele>739.8</ele>
        <time>2021-04-18T11:50:13Z</time>
      </trkpt>
      <trkpt lat="43.59747" lon="6.3153">
        <ele>741.5</ele>
        <time>2021-04-18T11:50:25Z</time>
      </trkpt>
      <trkpt lat="43.59754" lon="6.31543">
        <ele>742.6</ele>
        <time>2021-04-18T11:50:36Z</time>
      </trkpt>
      <trkpt lat="43.59758" lon="6.31555">
        <ele>743.4</ele>
        <time>2021-04-18T11:50:46Z</time>
      </trkpt>
      <trkpt lat="43.59762" lon="6.31567">
        <ele>745</ele>
        <time>2021-04-18T11:50:56Z</time>
      </trkpt>
      <trkpt lat="43.59765" lon="6.31577">
        <ele>746.2</ele>
        <time>2021-04-18T11:51:07Z</time>
      </trkpt>
      <trkpt lat="43.59765" lon="6.31591">
        <ele>746.8</ele>
        <time>2021-04-18T11:51:16Z</time>
      </trkpt>
      <trkpt lat="43.59769" lon="6.31601">
        <ele>747.3</ele>
        <time>2021-04-18T11:51:26Z</time>
      </trkpt>
      <trkpt lat="43.59776" lon="6.31612">
        <ele>747.9</ele>
        <time>2021-04-18T11:51:36Z</time>
      </trkpt>
      <trkpt lat="43.59784" lon="6.3162">
        <ele>748.8</ele>
        <time>2021-04-18T11:51:45Z</time>
      </trkpt>
      <trkpt lat="43.59793" lon="6.31628">
        <ele>749.6</ele>
        <time>2021-04-18T11:51:54Z</time>
      </trkpt>
      <trkpt lat="43.59801" lon="6.31637">
        <ele>749.9</ele>
        <time>2021-04-18T11:52:03Z</time>
      </trkpt>
      <trkpt lat="43.59809" lon="6.31645">
        <ele>749.7</ele>
        <time>2021-04-18T11:52:11Z</time>
      </trkpt>
      <trkpt lat="43.59815" lon="6.31652">
        <ele>748.9</ele>
        <time>2021-04-18T11:52:19Z</time>
      </trkpt>
      <trkpt lat="43.5982" lon="6.31663">
        <ele>748.5</ele>
        <time>2021-04-18T11:52:28Z</time>
      </trkpt>
      <trkpt lat="43.59824" lon="6.31675">
        <ele>748.2</ele>
        <time>2021-04-18T11:52:36Z</time>
      </trkpt>
      <trkpt lat="43.5983" lon="6.31686">
        <ele>747.6</ele>
        <time>2021-04-18T11:52:44Z</time>
      </trkpt>
      <trkpt lat="43.59834" lon="6.31699">
        <ele>746.9</ele>
        <time>2021-04-18T11:52:52Z</time>
      </trkpt>
      <trkpt lat="43.59837" lon="6.31708">
        <ele>746.6</ele>
        <time>2021-04-18T11:53:00Z</time>
      </trkpt>
      <trkpt lat="43.59843" lon="6.31721">
        <ele>745.9</ele>
        <time>2021-04-18T11:53:09Z</time>
      </trkpt>
      <trkpt lat="43.59846" lon="6.31735">
        <ele>745.9</ele>
        <time>2021-04-18T11:53:17Z</time>
      </trkpt>
      <trkpt lat="43.59853" lon="6.31744">
        <ele>745.1</ele>
        <time>2021-04-18T11:53:26Z</time>
      </trkpt>
      <trkpt lat="43.59862" lon="6.31752">
        <ele>744</ele>
        <time>2021-04-18T11:53:35Z</time>
      </trkpt>
      <trkpt lat="43.5987" lon="6.31758">
        <ele>743.2</ele>
        <time>2021-04-18T11:53:44Z</time>
      </trkpt>
      <trkpt lat="43.59877" lon="6.31764">
        <ele>742.5</ele>
        <time>2021-04-18T11:53:55Z</time>
      </trkpt>
      <trkpt lat="43.59889" lon="6.31771">
        <ele>741.7</ele>
        <time>2021-04-18T11:54:05Z</time>
      </trkpt>
      <trkpt lat="43.59898" lon="6.31776">
        <ele>741.6</ele>
        <time>2021-04-18T11:54:15Z</time>
      </trkpt>
      <trkpt lat="43.59906" lon="6.31785">
        <ele>741.7</ele>
        <time>2021-04-18T11:54:24Z</time>
      </trkpt>
      <trkpt lat="43.59906" lon="6.318">
        <ele>742.5</ele>
        <time>2021-04-18T11:54:33Z</time>
      </trkpt>
      <trkpt lat="43.59908" lon="6.31814">
        <ele>742.4</ele>
        <time>2021-04-18T11:54:42Z</time>
      </trkpt>
      <trkpt lat="43.59913" lon="6.31824">
        <ele>741.7</ele>
        <time>2021-04-18T11:54:51Z</time>
      </trkpt>
      <trkpt lat="43.59921" lon="6.31834">
        <ele>740.5</ele>
        <time>2021-04-18T11:55:05Z</time>
      </trkpt>
      <trkpt lat="43.59926" lon="6.31845">
        <ele>740</ele>
        <time>2021-04-18T11:55:14Z</time>
      </trkpt>
      <trkpt lat="43.59935" lon="6.31854">
        <ele>739</ele>
        <time>2021-04-18T11:55:24Z</time>
      </trkpt>
      <trkpt lat="43.59946" lon="6.31856">
        <ele>737.9</ele>
        <time>2021-04-18T11:55:35Z</time>
      </trkpt>
      <trkpt lat="43.59957" lon="6.31854">
        <ele>736.6</ele>
        <time>2021-04-18T11:55:45Z</time>
      </trkpt>
      <trkpt lat="43.59967" lon="6.31858">
        <ele>735.5</ele>
        <time>2021-04-18T11:55:53Z</time>
      </trkpt>
      <trkpt lat="43.59974" lon="6.31867">
        <ele>734.8</ele>
        <time>2021-04-18T11:56:02Z</time>
      </trkpt>
      <trkpt lat="43.59977" lon="6.31879">
        <ele>734.3</ele>
        <time>2021-04-18T11:56:11Z</time>
      </trkpt>
      <trkpt lat="43.59987" lon="6.31887">
        <ele>732.9</ele>
        <time>2021-04-18T11:56:20Z</time>
      </trkpt>
      <trkpt lat="43.59996" lon="6.31885">
        <ele>731.5</ele>
        <time>2021-04-18T11:56:30Z</time>
      </trkpt>
      <trkpt lat="43.60006" lon="6.31882">
        <ele>729.7</ele>
        <time>2021-04-18T11:56:40Z</time>
      </trkpt>
      <trkpt lat="43.6002" lon="6.31877">
        <ele>726.7</ele>
        <time>2021-04-18T11:58:16Z</time>
      </trkpt>
      <trkpt lat="43.60028" lon="6.31878">
        <ele>725</ele>
        <time>2021-04-18T11:58:25Z</time>
      </trkpt>
      <trkpt lat="43.60037" lon="6.31879">
        <ele>723.5</ele>
        <time>2021-04-18T11:58:34Z</time>
      </trkpt>
      <trkpt lat="43.60046" lon="6.31885">
        <ele>721.8</ele>
        <time>2021-04-18T11:58:45Z</time>
      </trkpt>
      <trkpt lat="43.60058" lon="6.31888">
        <ele>719.8</ele>
        <time>2021-04-18T11:58:56Z</time>
      </trkpt>
      <trkpt lat="43.60068" lon="6.31891">
        <ele>718.7</ele>
        <time>2021-04-18T11:59:06Z</time>
      </trkpt>
      <trkpt lat="43.60079" lon="6.31894">
        <ele>717.5</ele>
        <time>2021-04-18T11:59:22Z</time>
      </trkpt>
      <trkpt lat="43.60089" lon="6.31889">
        <ele>716.6</ele>
        <time>2021-04-18T11:59:35Z</time>
      </trkpt>
      <trkpt lat="43.60099" lon="6.31879">
        <ele>715.7</ele>
        <time>2021-04-18T11:59:44Z</time>
      </trkpt>
      <trkpt lat="43.60109" lon="6.31873">
        <ele>714.6</ele>
        <time>2021-04-18T11:59:53Z</time>
      </trkpt>
      <trkpt lat="43.60119" lon="6.31864">
        <ele>713.5</ele>
        <time>2021-04-18T12:00:04Z</time>
      </trkpt>
      <trkpt lat="43.60128" lon="6.31857">
        <ele>712.9</ele>
        <time>2021-04-18T12:00:13Z</time>
      </trkpt>
      <trkpt lat="43.60135" lon="6.31846">
        <ele>712.4</ele>
        <time>2021-04-18T12:00:22Z</time>
      </trkpt>
      <trkpt lat="43.60143" lon="6.31838">
        <ele>711.7</ele>
        <time>2021-04-18T12:00:30Z</time>
      </trkpt>
      <trkpt lat="43.60153" lon="6.31832">
        <ele>711.1</ele>
        <time>2021-04-18T12:00:40Z</time>
      </trkpt>
      <trkpt lat="43.60165" lon="6.31836">
        <ele>710.1</ele>
        <time>2021-04-18T12:00:50Z</time>
      </trkpt>
      <trkpt lat="43.60173" lon="6.31845">
        <ele>709.8</ele>
        <time>2021-04-18T12:00:59Z</time>
      </trkpt>
      <trkpt lat="43.60183" lon="6.31852">
        <ele>709.4</ele>
        <time>2021-04-18T12:01:08Z</time>
      </trkpt>
      <trkpt lat="43.60192" lon="6.31855">
        <ele>709.1</ele>
        <time>2021-04-18T12:01:17Z</time>
      </trkpt>
      <trkpt lat="43.60203" lon="6.31856">
        <ele>708.4</ele>
        <time>2021-04-18T12:01:25Z</time>
      </trkpt>
      <trkpt lat="43.60213" lon="6.31854">
        <ele>707.7</ele>
        <time>2021-04-18T12:01:33Z</time>
      </trkpt>
      <trkpt lat="43.60221" lon="6.31854">
        <ele>707.1</ele>
        <time>2021-04-18T12:01:42Z</time>
      </trkpt>
      <trkpt lat="43.60216" lon="6.31854">
        <ele>707.4</ele>
        <time>2021-04-18T12:02:55Z</time>
      </trkpt>
      <trkpt lat="43.60224" lon="6.31854">
        <ele>707</ele>
        <time>2021-04-18T12:03:17Z</time>
      </trkpt>
      <trkpt lat="43.60233" lon="6.31855">
        <ele>707</ele>
        <time>2021-04-18T12:03:41Z</time>
      </trkpt>
      <trkpt lat="43.60244" lon="6.31858">
        <ele>707</ele>
        <time>2021-04-18T12:04:02Z</time>
      </trkpt>
      <trkpt lat="43.60253" lon="6.31867">
        <ele>706.8</ele>
        <time>2021-04-18T12:04:11Z</time>
      </trkpt>
      <trkpt lat="43.6026" lon="6.31873">
        <ele>706.7</ele>
        <time>2021-04-18T12:04:20Z</time>
      </trkpt>
      <trkpt lat="43.60271" lon="6.31878">
        <ele>706.8</ele>
        <time>2021-04-18T12:04:29Z</time>
      </trkpt>
      <trkpt lat="43.60279" lon="6.31885">
        <ele>707</ele>
        <time>2021-04-18T12:04:37Z</time>
      </trkpt>
      <trkpt lat="43.60288" lon="6.3189">
        <ele>707</ele>
        <time>2021-04-18T12:04:49Z</time>
      </trkpt>
      <trkpt lat="43.60296" lon="6.31895">
        <ele>706.8</ele>
        <time>2021-04-18T12:04:58Z</time>
      </trkpt>
      <trkpt lat="43.60305" lon="6.319">
        <ele>706.6</ele>
        <time>2021-04-18T12:05:10Z</time>
      </trkpt>
      <trkpt lat="43.60313" lon="6.31912">
        <ele>706.2</ele>
        <time>2021-04-18T12:05:21Z</time>
      </trkpt>
      <trkpt lat="43.60319" lon="6.31921">
        <ele>706</ele>
        <time>2021-04-18T12:05:30Z</time>
      </trkpt>
      <trkpt lat="43.60329" lon="6.31927">
        <ele>706</ele>
        <time>2021-04-18T12:05:39Z</time>
      </trkpt>
      <trkpt lat="43.60339" lon="6.31932">
        <ele>705.8</ele>
        <time>2021-04-18T12:05:48Z</time>
      </trkpt>
      <trkpt lat="43.6035" lon="6.31939">
        <ele>705.4</ele>
        <time>2021-04-18T12:06:02Z</time>
      </trkpt>
      <trkpt lat="43.60363" lon="6.31945">
        <ele>705.1</ele>
        <time>2021-04-18T12:06:12Z</time>
      </trkpt>
      <trkpt lat="43.60372" lon="6.31953">
        <ele>705.4</ele>
        <time>2021-04-18T12:06:20Z</time>
      </trkpt>
      <trkpt lat="43.60375" lon="6.31965">
        <ele>705.5</ele>
        <time>2021-04-18T12:07:24Z</time>
      </trkpt>
      <trkpt lat="43.60385" lon="6.31976">
        <ele>705.7</ele>
        <time>2021-04-18T12:07:36Z</time>
      </trkpt>
      <trkpt lat="43.60394" lon="6.31978">
        <ele>706.1</ele>
        <time>2021-04-18T12:07:46Z</time>
      </trkpt>
      <trkpt lat="43.60403" lon="6.31972">
        <ele>706.5</ele>
        <time>2021-04-18T12:07:55Z</time>
      </trkpt>
      <trkpt lat="43.60408" lon="6.3196">
        <ele>706.4</ele>
        <time>2021-04-18T12:08:04Z</time>
      </trkpt>
      <trkpt lat="43.60414" lon="6.3195">
        <ele>706.2</ele>
        <time>2021-04-18T12:08:12Z</time>
      </trkpt>
      <trkpt lat="43.60423" lon="6.31942">
        <ele>706.2</ele>
        <time>2021-04-18T12:08:21Z</time>
      </trkpt>
      <trkpt lat="43.60432" lon="6.31939">
        <ele>706.5</ele>
        <time>2021-04-18T12:08:30Z</time>
      </trkpt>
      <trkpt lat="43.60441" lon="6.3193">
        <ele>706.9</ele>
        <time>2021-04-18T12:08:40Z</time>
      </trkpt>
      <trkpt lat="43.60451" lon="6.31926">
        <ele>707.5</ele>
        <time>2021-04-18T12:08:49Z</time>
      </trkpt>
      <trkpt lat="43.60462" lon="6.31925">
        <ele>708.3</ele>
        <time>2021-04-18T12:08:58Z</time>
      </trkpt>
      <trkpt lat="43.60472" lon="6.31927">
        <ele>708.9</ele>
        <time>2021-04-18T12:09:07Z</time>
      </trkpt>
      <trkpt lat="43.60487" lon="6.31888">
        <ele>709.6</ele>
      </trkpt>
      <trkpt lat="43.60504" lon="6.31889">
        <ele>711.4</ele>
      </trkpt>
      <trkpt lat="43.60498" lon="6.31869">
        <ele>710.1</ele>
        <time>2021-04-18T12:10:38Z</time>
      </trkpt>
      <trkpt lat="43.60507" lon="6.31868">
        <ele>711.2</ele>
      </trkpt>
      <trkpt lat="43.60505" lon="6.31853">
        <ele>710.8</ele>
      </trkpt>
      <trkpt lat="43.60515" lon="6.31844">
        <ele>712.1</ele>
        <time>2021-04-18T12:10:57Z</time>
      </trkpt>
      <trkpt lat="43.60526" lon="6.31853">
        <ele>713.8</ele>
        <time>2021-04-18T12:13:27Z</time>
      </trkpt>
      <trkpt lat="43.60532" lon="6.31857">
        <ele>714.2</ele>
      </trkpt>
      <trkpt lat="43.60537" lon="6.3187">
        <ele>714.4</ele>
      </trkpt>
      <trkpt lat="43.60541" lon="6.31886">
        <ele>714.9</ele>
      </trkpt>
      <trkpt lat="43.60541" lon="6.31895">
        <ele>714.8</ele>
      </trkpt>
      <trkpt lat="43.60546" lon="6.31901">
        <ele>715</ele>
      </trkpt>
      <trkpt lat="43.60558" lon="6.31904">
        <ele>715.5</ele>
      </trkpt>
      <trkpt lat="43.60566" lon="6.31913">
        <ele>714.8</ele>
      </trkpt>
      <trkpt lat="43.6057" lon="6.31923">
        <ele>714.3</ele>
        <time>2021-04-18T12:15:58Z</time>
      </trkpt>
      <trkpt lat="43.60581" lon="6.31937">
        <ele>714.5</ele>
        <time>2021-04-18T12:16:09Z</time>
      </trkpt>
      <trkpt lat="43.60587" lon="6.31946">
        <ele>715.4</ele>
        <time>2021-04-18T12:16:19Z</time>
      </trkpt>
      <trkpt lat="43.6059" lon="6.31959">
        <ele>716.3</ele>
        <time>2021-04-18T12:16:29Z</time>
      </trkpt>
      <trkpt lat="43.60594" lon="6.3197">
        <ele>717.1</ele>
        <time>2021-04-18T12:16:39Z</time>
      </trkpt>
      <trkpt lat="43.60603" lon="6.3198">
        <ele>718.4</ele>
        <time>2021-04-18T12:16:49Z</time>
      </trkpt>
      <trkpt lat="43.60609" lon="6.31989">
        <ele>719.4</ele>
        <time>2021-04-18T12:16:59Z</time>
      </trkpt>
      <trkpt lat="43.60617" lon="6.32">
        <ele>720.7</ele>
        <time>2021-04-18T12:17:09Z</time>
      </trkpt>
      <trkpt lat="43.60625" lon="6.32008">
        <ele>721.4</ele>
        <time>2021-04-18T12:17:19Z</time>
      </trkpt>
      <trkpt lat="43.60633" lon="6.32015">
        <ele>722</ele>
        <time>2021-04-18T12:17:29Z</time>
      </trkpt>
      <trkpt lat="43.60643" lon="6.32019">
        <ele>722.6</ele>
        <time>2021-04-18T12:17:38Z</time>
      </trkpt>
      <trkpt lat="43.60651" lon="6.32022">
        <ele>723.1</ele>
        <time>2021-04-18T12:17:47Z</time>
      </trkpt>
      <trkpt lat="43.6066" lon="6.32028">
        <ele>723.5</ele>
        <time>2021-04-18T12:17:56Z</time>
      </trkpt>
      <trkpt lat="43.60667" lon="6.32033">
        <ele>723.7</ele>
        <time>2021-04-18T12:18:05Z</time>
      </trkpt>
      <trkpt lat="43.60674" lon="6.3204">
        <ele>723.8</ele>
        <time>2021-04-18T12:18:13Z</time>
      </trkpt>
      <trkpt lat="43.60683" lon="6.32044">
        <ele>724.3</ele>
        <time>2021-04-18T12:18:22Z</time>
      </trkpt>
      <trkpt lat="43.60691" lon="6.32053">
        <ele>724.7</ele>
        <time>2021-04-18T12:18:32Z</time>
      </trkpt>
      <trkpt lat="43.60698" lon="6.32059">
        <ele>725.1</ele>
        <time>2021-04-18T12:18:41Z</time>
      </trkpt>
      <trkpt lat="43.60706" lon="6.32065">
        <ele>725.5</ele>
        <time>2021-04-18T12:18:50Z</time>
      </trkpt>
      <trkpt lat="43.60715" lon="6.32071">
        <ele>725.9</ele>
        <time>2021-04-18T12:19:00Z</time>
      </trkpt>
      <trkpt lat="43.60723" lon="6.32076">
        <ele>726.3</ele>
        <time>2021-04-18T12:19:09Z</time>
      </trkpt>
      <trkpt lat="43.60731" lon="6.32077">
        <ele>726.6</ele>
        <time>2021-04-18T12:19:19Z</time>
      </trkpt>
      <trkpt lat="43.6074" lon="6.32077">
        <ele>727</ele>
        <time>2021-04-18T12:19:28Z</time>
      </trkpt>
      <trkpt lat="43.6075" lon="6.32082">
        <ele>727.1</ele>
        <time>2021-04-18T12:19:39Z</time>
      </trkpt>
      <trkpt lat="43.60759" lon="6.32085">
        <ele>727.3</ele>
        <time>2021-04-18T12:19:48Z</time>
      </trkpt>
      <trkpt lat="43.6077" lon="6.32086">
        <ele>727.6</ele>
        <time>2021-04-18T12:19:57Z</time>
      </trkpt>
      <trkpt lat="43.6078" lon="6.32084">
        <ele>727.9</ele>
        <time>2021-04-18T12:20:06Z</time>
      </trkpt>
      <trkpt lat="43.6079" lon="6.32084">
        <ele>727.5</ele>
        <time>2021-04-18T12:20:15Z</time>
      </trkpt>
      <trkpt lat="43.60799" lon="6.32085">
        <ele>727.2</ele>
        <time>2021-04-18T12:20:23Z</time>
      </trkpt>
      <trkpt lat="43.60808" lon="6.32088">
        <ele>726.8</ele>
        <time>2021-04-18T12:20:32Z</time>
      </trkpt>
      <trkpt lat="43.60817" lon="6.32089">
        <ele>726.8</ele>
        <time>2021-04-18T12:20:41Z</time>
      </trkpt>
      <trkpt lat="43.60827" lon="6.32092">
        <ele>726.7</ele>
        <time>2021-04-18T12:20:49Z</time>
      </trkpt>
      <trkpt lat="43.60835" lon="6.32095">
        <ele>726.6</ele>
        <time>2021-04-18T12:20:57Z</time>
      </trkpt>
      <trkpt lat="43.60844" lon="6.32099">
        <ele>726.7</ele>
        <time>2021-04-18T12:21:08Z</time>
      </trkpt>
      <trkpt lat="43.60853" lon="6.32103">
        <ele>726.8</ele>
        <time>2021-04-18T12:21:57Z</time>
      </trkpt>
      <trkpt lat="43.60862" lon="6.32114">
        <ele>727</ele>
      </trkpt>
      <trkpt lat="43.60846" lon="6.32143">
        <ele>726.6</ele>
      </trkpt>
      <trkpt lat="43.60831" lon="6.32172">
        <ele>726.1</ele>
      </trkpt>
      <trkpt lat="43.60827" lon="6.3219">
        <ele>726.6</ele>
      </trkpt>
      <trkpt lat="43.60816" lon="6.32207">
        <ele>726.8</ele>
      </trkpt>
      <trkpt lat="43.60805" lon="6.32223">
        <ele>727</ele>
      </trkpt>
      <trkpt lat="43.60797" lon="6.32235">
        <ele>727.1</ele>
      </trkpt>
      <trkpt lat="43.60784" lon="6.32238">
        <ele>726.8</ele>
      </trkpt>
      <trkpt lat="43.60769" lon="6.32244">
        <ele>726.1</ele>
      </trkpt>
      <trkpt lat="43.60757" lon="6.3226">
        <ele>726.1</ele>
      </trkpt>
      <trkpt lat="43.60746" lon="6.32281">
        <ele>726.7</ele>
      </trkpt>
      <trkpt lat="43.60728" lon="6.32295">
        <ele>725.9</ele>
      </trkpt>
      <trkpt lat="43.60723" lon="6.32303">
        <ele>725.9</ele>
      </trkpt>
      <trkpt lat="43.60704" lon="6.32314">
        <ele>724.6</ele>
      </trkpt>
      <trkpt lat="43.60692" lon="6.32314">
        <ele>723.9</ele>
      </trkpt>
      <trkpt lat="43.60675" lon="6.3233">
        <ele>723.3</ele>
      </trkpt>
      <trkpt lat="43.60664" lon="6.32342">
        <ele>723.2</ele>
      </trkpt>
      <trkpt lat="43.60652" lon="6.32348">
        <ele>722.7</ele>
      </trkpt>
      <trkpt lat="43.60627" lon="6.32353">
        <ele>721.6</ele>
      </trkpt>
      <trkpt lat="43.60625" lon="6.32357">
        <ele>721.5</ele>
      </trkpt>
      <trkpt lat="43.60615" lon="6.32373">
        <ele>721.2</ele>
      </trkpt>
      <trkpt lat="43.606" lon="6.32381">
        <ele>720.3</ele>
      </trkpt>
      <trkpt lat="43.60587" lon="6.32392">
        <ele>719.3</ele>
      </trkpt>
      <trkpt lat="43.60559" lon="6.32427">
        <ele>718.1</ele>
      </trkpt>
      <trkpt lat="43.60548" lon="6.32439">
        <ele>717.7</ele>
      </trkpt>
      <trkpt lat="43.60538" lon="6.32449">
        <ele>717.2</ele>
      </trkpt>
      <trkpt lat="43.60532" lon="6.3247">
        <ele>716.2</ele>
      </trkpt>
      <trkpt lat="43.6053" lon="6.32503">
        <ele>715</ele>
        <time>2021-04-18T12:36:52Z</time>
      </trkpt>
      <trkpt lat="43.6053" lon="6.32516">
        <ele>714.6</ele>
        <time>2021-04-18T12:37:00Z</time>
      </trkpt>
      <trkpt lat="43.60532" lon="6.3253">
        <ele>714.2</ele>
        <time>2021-04-18T12:37:08Z</time>
      </trkpt>
      <trkpt lat="43.60531" lon="6.32542">
        <ele>713.7</ele>
        <time>2021-04-18T12:37:16Z</time>
      </trkpt>
      <trkpt lat="43.60529" lon="6.32556">
        <ele>713.1</ele>
        <time>2021-04-18T12:37:24Z</time>
      </trkpt>
      <trkpt lat="43.60526" lon="6.3257">
        <ele>713.1</ele>
        <time>2021-04-18T12:37:32Z</time>
      </trkpt>
      <trkpt lat="43.60523" lon="6.32583">
        <ele>713.2</ele>
        <time>2021-04-18T12:37:40Z</time>
      </trkpt>
      <trkpt lat="43.6052" lon="6.32594">
        <ele>713</ele>
        <time>2021-04-18T12:37:47Z</time>
      </trkpt>
      <trkpt lat="43.60517" lon="6.32608">
        <ele>712.9</ele>
        <time>2021-04-18T12:37:55Z</time>
      </trkpt>
      <trkpt lat="43.60515" lon="6.32618">
        <ele>712.8</ele>
        <time>2021-04-18T12:38:02Z</time>
      </trkpt>
      <trkpt lat="43.60515" lon="6.32632">
        <ele>712.6</ele>
        <time>2021-04-18T12:38:10Z</time>
      </trkpt>
      <trkpt lat="43.60517" lon="6.32647">
        <ele>712.3</ele>
        <time>2021-04-18T12:38:18Z</time>
      </trkpt>
      <trkpt lat="43.60517" lon="6.32662">
        <ele>712.2</ele>
        <time>2021-04-18T12:38:26Z</time>
      </trkpt>
      <trkpt lat="43.60517" lon="6.32673">
        <ele>712</ele>
        <time>2021-04-18T12:38:34Z</time>
      </trkpt>
      <trkpt lat="43.60513" lon="6.32684">
        <ele>711.9</ele>
        <time>2021-04-18T12:38:42Z</time>
      </trkpt>
      <trkpt lat="43.60506" lon="6.32693">
        <ele>711.9</ele>
        <time>2021-04-18T12:38:50Z</time>
      </trkpt>
      <trkpt lat="43.60499" lon="6.32702">
        <ele>711.5</ele>
        <time>2021-04-18T12:38:58Z</time>
      </trkpt>
      <trkpt lat="43.60494" lon="6.32713">
        <ele>711.2</ele>
        <time>2021-04-18T12:39:08Z</time>
      </trkpt>
      <trkpt lat="43.60489" lon="6.32725">
        <ele>710.7</ele>
        <time>2021-04-18T12:39:17Z</time>
      </trkpt>
      <trkpt lat="43.60481" lon="6.32733">
        <ele>710.5</ele>
        <time>2021-04-18T12:39:26Z</time>
      </trkpt>
      <trkpt lat="43.60475" lon="6.3274">
        <ele>710.1</ele>
        <time>2021-04-18T12:39:35Z</time>
      </trkpt>
      <trkpt lat="43.60469" lon="6.32751">
        <ele>709.2</ele>
        <time>2021-04-18T12:39:44Z</time>
      </trkpt>
      <trkpt lat="43.60463" lon="6.32762">
        <ele>709.4</ele>
        <time>2021-04-18T12:39:52Z</time>
      </trkpt>
      <trkpt lat="43.60459" lon="6.32773">
        <ele>709.2</ele>
        <time>2021-04-18T12:40:00Z</time>
      </trkpt>
      <trkpt lat="43.60453" lon="6.32783">
        <ele>709.2</ele>
        <time>2021-04-18T12:40:08Z</time>
      </trkpt>
      <trkpt lat="43.60445" lon="6.3279">
        <ele>709</ele>
        <time>2021-04-18T12:40:17Z</time>
      </trkpt>
      <trkpt lat="43.60435" lon="6.32787">
        <ele>708.5</ele>
        <time>2021-04-18T12:40:26Z</time>
      </trkpt>
      <trkpt lat="43.60427" lon="6.3278">
        <ele>707.8</ele>
        <time>2021-04-18T12:40:35Z</time>
      </trkpt>
      <trkpt lat="43.60419" lon="6.32771">
        <ele>708.3</ele>
        <time>2021-04-18T12:40:44Z</time>
      </trkpt>
      <trkpt lat="43.60409" lon="6.32768">
        <ele>708.6</ele>
        <time>2021-04-18T12:40:55Z</time>
      </trkpt>
      <trkpt lat="43.60399" lon="6.32772">
        <ele>707.9</ele>
        <time>2021-04-18T12:41:03Z</time>
      </trkpt>
      <trkpt lat="43.60391" lon="6.32777">
        <ele>707</ele>
        <time>2021-04-18T12:41:11Z</time>
      </trkpt>
      <trkpt lat="43.60381" lon="6.32781">
        <ele>706.8</ele>
        <time>2021-04-18T12:41:20Z</time>
      </trkpt>
      <trkpt lat="43.60372" lon="6.32784">
        <ele>706.6</ele>
        <time>2021-04-18T12:41:28Z</time>
      </trkpt>
      <trkpt lat="43.60362" lon="6.32787">
        <ele>706.4</ele>
        <time>2021-04-18T12:41:36Z</time>
      </trkpt>
      <trkpt lat="43.60354" lon="6.32787">
        <ele>706.2</ele>
        <time>2021-04-18T12:41:44Z</time>
      </trkpt>
      <trkpt lat="43.60344" lon="6.32788">
        <ele>706</ele>
        <time>2021-04-18T12:41:52Z</time>
      </trkpt>
      <trkpt lat="43.60335" lon="6.32787">
        <ele>705.7</ele>
        <time>2021-04-18T12:42:00Z</time>
      </trkpt>
      <trkpt lat="43.60325" lon="6.32785">
        <ele>705.1</ele>
        <time>2021-04-18T12:42:08Z</time>
      </trkpt>
      <trkpt lat="43.60317" lon="6.32781">
        <ele>704.2</ele>
        <time>2021-04-18T12:42:16Z</time>
      </trkpt>
      <trkpt lat="43.60308" lon="6.32776">
        <ele>703.2</ele>
        <time>2021-04-18T12:42:24Z</time>
      </trkpt>
      <trkpt lat="43.60299" lon="6.32772">
        <ele>703</ele>
        <time>2021-04-18T12:42:32Z</time>
      </trkpt>
      <trkpt lat="43.6029" lon="6.32769">
        <ele>702.8</ele>
        <time>2021-04-18T12:42:40Z</time>
      </trkpt>
      <trkpt lat="43.60281" lon="6.32771">
        <ele>702.4</ele>
        <time>2021-04-18T12:42:48Z</time>
      </trkpt>
      <trkpt lat="43.60271" lon="6.32773">
        <ele>702.2</ele>
        <time>2021-04-18T12:42:56Z</time>
      </trkpt>
      <trkpt lat="43.60262" lon="6.32778">
        <ele>702</ele>
        <time>2021-04-18T12:43:05Z</time>
      </trkpt>
      <trkpt lat="43.60253" lon="6.32782">
        <ele>702.1</ele>
        <time>2021-04-18T12:43:15Z</time>
      </trkpt>
      <trkpt lat="43.60243" lon="6.32792">
        <ele>701.7</ele>
        <time>2021-04-18T12:43:25Z</time>
      </trkpt>
      <trkpt lat="43.60236" lon="6.32801">
        <ele>701.5</ele>
        <time>2021-04-18T12:43:35Z</time>
      </trkpt>
      <trkpt lat="43.60232" lon="6.32813">
        <ele>701.5</ele>
        <time>2021-04-18T12:44:33Z</time>
      </trkpt>
      <trkpt lat="43.60236" lon="6.32819">
        <ele>701.7</ele>
        <time>2021-04-18T12:46:53Z</time>
        <extensions>
          <visugpx:TrkExtension xmlns:visugpx="https://www.visugpx.com/editgpx/">
            <visugpx:node>1</visugpx:node>
            </visugpx:TrkExtension>
        </extensions>
      </trkpt>
    </trkseg>
  </trk>
</gpx>